<?xml version="1.0" encoding="UTF-8" standalone="no" ?>
<gpx xmlns="http://www.topografix.com/GPX/1/1" xmlns:xsi="http://www.w3.org/2001/XMLSchema-instance" xsi:schemaLocation="http://www.topografix.com/GPX/1/1 http://www.topografix.com/GPX/1/1/gpx.xsd" version="1.1" creator="VisuGPX - https://www.visugpx.com">
  <metadata>
    <name>CG_19km_328m_Boucle_Laschamps_Recoleine</name>
    <desc><![CDATA[Boucle autour des puys]]></desc>
  </metadata>
  <trk>
    <name><![CDATA[2015-06-19-LACHAMPS]]></name>
    <trkseg>
      <trkpt lat="45.74009" lon="2.96636">
        <ele>877.82</ele>
        <time>2015-06-20T12:19:03Z</time>
      </trkpt>
      <trkpt lat="45.74008" lon="2.96634">
        <ele>881.19</ele>
        <time>2015-06-20T12:19:07Z</time>
      </trkpt>
      <trkpt lat="45.74008" lon="2.96634">
        <ele>885.51</ele>
        <time>2015-06-20T12:19:09Z</time>
      </trkpt>
      <trkpt lat="45.74012" lon="2.96635">
        <ele>890.8</ele>
        <time>2015-06-20T12:19:11Z</time>
      </trkpt>
      <trkpt lat="45.74012" lon="2.96634">
        <ele>895.61</ele>
        <time>2015-06-20T12:19:13Z</time>
      </trkpt>
      <trkpt lat="45.74012" lon="2.96634">
        <ele>898.49</ele>
        <time>2015-06-20T12:19:14Z</time>
      </trkpt>
      <trkpt lat="45.7401" lon="2.96638">
        <ele>905.7</ele>
        <time>2015-06-20T12:19:17Z</time>
      </trkpt>
      <trkpt lat="45.74011" lon="2.96638">
        <ele>910.03</ele>
        <time>2015-06-20T12:19:19Z</time>
      </trkpt>
      <trkpt lat="45.74011" lon="2.96638">
        <ele>913.87</ele>
        <time>2015-06-20T12:19:21Z</time>
      </trkpt>
      <trkpt lat="45.74012" lon="2.96639">
        <ele>918.2</ele>
        <time>2015-06-20T12:19:23Z</time>
      </trkpt>
      <trkpt lat="45.74015" lon="2.96639">
        <ele>922.04</ele>
        <time>2015-06-20T12:19:27Z</time>
      </trkpt>
      <trkpt lat="45.74016" lon="2.96639">
        <ele>925.41</ele>
        <time>2015-06-20T12:19:29Z</time>
      </trkpt>
      <trkpt lat="45.74016" lon="2.96639">
        <ele>930.21</ele>
        <time>2015-06-20T12:19:32Z</time>
      </trkpt>
      <trkpt lat="45.74016" lon="2.96639">
        <ele>933.1</ele>
        <time>2015-06-20T12:19:34Z</time>
      </trkpt>
      <trkpt lat="45.74016" lon="2.96638">
        <ele>937.42</ele>
        <time>2015-06-20T12:19:37Z</time>
      </trkpt>
      <trkpt lat="45.74016" lon="2.96637">
        <ele>940.79</ele>
        <time>2015-06-20T12:19:42Z</time>
      </trkpt>
      <trkpt lat="45.74016" lon="2.96637">
        <ele>941.75</ele>
        <time>2015-06-20T12:19:43Z</time>
      </trkpt>
      <trkpt lat="45.74016" lon="2.96636">
        <ele>944.63</ele>
        <time>2015-06-20T12:19:48Z</time>
      </trkpt>
      <trkpt lat="45.74016" lon="2.96636">
        <ele>946.07</ele>
        <time>2015-06-20T12:19:50Z</time>
      </trkpt>
      <trkpt lat="45.74018" lon="2.96635">
        <ele>949.92</ele>
        <time>2015-06-20T12:19:54Z</time>
      </trkpt>
      <trkpt lat="45.74018" lon="2.96634">
        <ele>953.77</ele>
        <time>2015-06-20T12:19:57Z</time>
      </trkpt>
      <trkpt lat="45.74019" lon="2.96634">
        <ele>953.77</ele>
        <time>2015-06-20T12:19:58Z</time>
      </trkpt>
      <trkpt lat="45.7402" lon="2.96633">
        <ele>957.61</ele>
        <time>2015-06-20T12:20:02Z</time>
      </trkpt>
      <trkpt lat="45.7402" lon="2.96633">
        <ele>957.13</ele>
        <time>2015-06-20T12:20:03Z</time>
      </trkpt>
      <trkpt lat="45.7402" lon="2.96634">
        <ele>959.05</ele>
        <time>2015-06-20T12:20:06Z</time>
      </trkpt>
      <trkpt lat="45.74019" lon="2.96621">
        <ele>962.42</ele>
        <time>2015-06-20T12:20:13Z</time>
      </trkpt>
      <trkpt lat="45.74" lon="2.96615">
        <ele>965.78</ele>
        <time>2015-06-20T12:20:19Z</time>
      </trkpt>
      <trkpt lat="45.73988" lon="2.96611">
        <ele>969.15</ele>
        <time>2015-06-20T12:20:24Z</time>
      </trkpt>
      <trkpt lat="45.73977" lon="2.96608">
        <ele>971.55</ele>
        <time>2015-06-20T12:20:29Z</time>
      </trkpt>
      <trkpt lat="45.73971" lon="2.96604">
        <ele>973.47</ele>
        <time>2015-06-20T12:20:33Z</time>
      </trkpt>
      <trkpt lat="45.73958" lon="2.9659">
        <ele>977.32</ele>
        <time>2015-06-20T12:20:43Z</time>
      </trkpt>
      <trkpt lat="45.73953" lon="2.96588">
        <ele>978.76</ele>
        <time>2015-06-20T12:20:46Z</time>
      </trkpt>
      <trkpt lat="45.73935" lon="2.96581">
        <ele>981.16</ele>
        <time>2015-06-20T12:20:58Z</time>
      </trkpt>
      <trkpt lat="45.73918" lon="2.96591">
        <ele>982.12</ele>
        <time>2015-06-20T12:21:09Z</time>
      </trkpt>
      <trkpt lat="45.73915" lon="2.96588">
        <ele>982.12</ele>
        <time>2015-06-20T12:21:11Z</time>
      </trkpt>
      <trkpt lat="45.73887" lon="2.96581">
        <ele>983.09</ele>
        <time>2015-06-20T12:21:24Z</time>
      </trkpt>
      <trkpt lat="45.73881" lon="2.96577">
        <ele>983.09</ele>
        <time>2015-06-20T12:21:28Z</time>
      </trkpt>
      <trkpt lat="45.73881" lon="2.96575">
        <ele>983.09</ele>
        <time>2015-06-20T12:21:29Z</time>
      </trkpt>
      <trkpt lat="45.73857" lon="2.96564">
        <ele>983.57</ele>
        <time>2015-06-20T12:21:39Z</time>
      </trkpt>
      <trkpt lat="45.73848" lon="2.96558">
        <ele>983.57</ele>
        <time>2015-06-20T12:21:43Z</time>
      </trkpt>
      <trkpt lat="45.73842" lon="2.96551">
        <ele>984.05</ele>
        <time>2015-06-20T12:21:48Z</time>
      </trkpt>
      <trkpt lat="45.73828" lon="2.96545">
        <ele>984.05</ele>
        <time>2015-06-20T12:21:53Z</time>
      </trkpt>
      <trkpt lat="45.73807" lon="2.96532">
        <ele>984.53</ele>
        <time>2015-06-20T12:21:59Z</time>
      </trkpt>
      <trkpt lat="45.73805" lon="2.96531">
        <ele>984.53</ele>
        <time>2015-06-20T12:22:00Z</time>
      </trkpt>
      <trkpt lat="45.73802" lon="2.96526">
        <ele>985.01</ele>
        <time>2015-06-20T12:22:02Z</time>
      </trkpt>
      <trkpt lat="45.73742" lon="2.96509">
        <ele>985.01</ele>
        <time>2015-06-20T12:22:16Z</time>
      </trkpt>
      <trkpt lat="45.73737" lon="2.96504">
        <ele>985.49</ele>
        <time>2015-06-20T12:22:18Z</time>
      </trkpt>
      <trkpt lat="45.73711" lon="2.96488">
        <ele>986.45</ele>
        <time>2015-06-20T12:22:28Z</time>
      </trkpt>
      <trkpt lat="45.73678" lon="2.96469">
        <ele>986.93</ele>
        <time>2015-06-20T12:22:40Z</time>
      </trkpt>
      <trkpt lat="45.73632" lon="2.96438">
        <ele>987.41</ele>
        <time>2015-06-20T12:22:55Z</time>
      </trkpt>
      <trkpt lat="45.73592" lon="2.96408">
        <ele>988.37</ele>
        <time>2015-06-20T12:23:09Z</time>
      </trkpt>
      <trkpt lat="45.73552" lon="2.96385">
        <ele>989.33</ele>
        <time>2015-06-20T12:23:22Z</time>
      </trkpt>
      <trkpt lat="45.73521" lon="2.96369">
        <ele>989.81</ele>
        <time>2015-06-20T12:23:32Z</time>
      </trkpt>
      <trkpt lat="45.73481" lon="2.96356">
        <ele>990.3</ele>
        <time>2015-06-20T12:23:44Z</time>
      </trkpt>
      <trkpt lat="45.73455" lon="2.96345">
        <ele>990.78</ele>
        <time>2015-06-20T12:23:52Z</time>
      </trkpt>
      <trkpt lat="45.73451" lon="2.96335">
        <ele>990.78</ele>
        <time>2015-06-20T12:23:55Z</time>
      </trkpt>
      <trkpt lat="45.73416" lon="2.96323">
        <ele>991.26</ele>
        <time>2015-06-20T12:24:06Z</time>
      </trkpt>
      <trkpt lat="45.73378" lon="2.96314">
        <ele>992.22</ele>
        <time>2015-06-20T12:24:17Z</time>
      </trkpt>
      <trkpt lat="45.7335" lon="2.96292">
        <ele>993.18</ele>
        <time>2015-06-20T12:24:28Z</time>
      </trkpt>
      <trkpt lat="45.73304" lon="2.96276">
        <ele>994.62</ele>
        <time>2015-06-20T12:24:42Z</time>
      </trkpt>
      <trkpt lat="45.7327" lon="2.96254">
        <ele>996.06</ele>
        <time>2015-06-20T12:24:55Z</time>
      </trkpt>
      <trkpt lat="45.73242" lon="2.96232">
        <ele>997.02</ele>
        <time>2015-06-20T12:25:07Z</time>
      </trkpt>
      <trkpt lat="45.73209" lon="2.96208">
        <ele>998.47</ele>
        <time>2015-06-20T12:25:20Z</time>
      </trkpt>
      <trkpt lat="45.73177" lon="2.96186">
        <ele>999.91</ele>
        <time>2015-06-20T12:25:33Z</time>
      </trkpt>
      <trkpt lat="45.73143" lon="2.96167">
        <ele>1001.83</ele>
        <time>2015-06-20T12:25:48Z</time>
      </trkpt>
      <trkpt lat="45.73121" lon="2.96157">
        <ele>1003.75</ele>
        <time>2015-06-20T12:26:01Z</time>
      </trkpt>
      <trkpt lat="45.73096" lon="2.96155">
        <ele>1005.2</ele>
        <time>2015-06-20T12:26:13Z</time>
      </trkpt>
      <trkpt lat="45.73093" lon="2.9615">
        <ele>1005.68</ele>
        <time>2015-06-20T12:26:16Z</time>
      </trkpt>
      <trkpt lat="45.73076" lon="2.96142">
        <ele>1007.12</ele>
        <time>2015-06-20T12:26:25Z</time>
      </trkpt>
      <trkpt lat="45.73066" lon="2.96133">
        <ele>1008.08</ele>
        <time>2015-06-20T12:26:31Z</time>
      </trkpt>
      <trkpt lat="45.7306" lon="2.96129">
        <ele>1008.56</ele>
        <time>2015-06-20T12:26:34Z</time>
      </trkpt>
      <trkpt lat="45.73053" lon="2.96127">
        <ele>1009.04</ele>
        <time>2015-06-20T12:26:38Z</time>
      </trkpt>
      <trkpt lat="45.73046" lon="2.96122">
        <ele>1010</ele>
        <time>2015-06-20T12:26:43Z</time>
      </trkpt>
      <trkpt lat="45.73043" lon="2.9612">
        <ele>1010.48</ele>
        <time>2015-06-20T12:26:45Z</time>
      </trkpt>
      <trkpt lat="45.73038" lon="2.96116">
        <ele>1011.44</ele>
        <time>2015-06-20T12:26:49Z</time>
      </trkpt>
      <trkpt lat="45.73026" lon="2.96114">
        <ele>1012.41</ele>
        <time>2015-06-20T12:26:57Z</time>
      </trkpt>
      <trkpt lat="45.73017" lon="2.96106">
        <ele>1013.85</ele>
        <time>2015-06-20T12:27:02Z</time>
      </trkpt>
      <trkpt lat="45.73015" lon="2.96101">
        <ele>1013.85</ele>
        <time>2015-06-20T12:27:04Z</time>
      </trkpt>
      <trkpt lat="45.73011" lon="2.96087">
        <ele>1014.81</ele>
        <time>2015-06-20T12:27:10Z</time>
      </trkpt>
      <trkpt lat="45.73005" lon="2.96069">
        <ele>1016.25</ele>
        <time>2015-06-20T12:27:18Z</time>
      </trkpt>
      <trkpt lat="45.73005" lon="2.96058">
        <ele>1016.73</ele>
        <time>2015-06-20T12:27:22Z</time>
      </trkpt>
      <trkpt lat="45.73004" lon="2.96045">
        <ele>1016.73</ele>
        <time>2015-06-20T12:27:27Z</time>
      </trkpt>
      <trkpt lat="45.73001" lon="2.9604">
        <ele>1017.69</ele>
        <time>2015-06-20T12:27:30Z</time>
      </trkpt>
      <trkpt lat="45.72998" lon="2.96033">
        <ele>1018.17</ele>
        <time>2015-06-20T12:27:33Z</time>
      </trkpt>
      <trkpt lat="45.72996" lon="2.96025">
        <ele>1019.13</ele>
        <time>2015-06-20T12:27:38Z</time>
      </trkpt>
      <trkpt lat="45.72994" lon="2.96024">
        <ele>1019.62</ele>
        <time>2015-06-20T12:27:40Z</time>
      </trkpt>
      <trkpt lat="45.72985" lon="2.96009">
        <ele>1020.58</ele>
        <time>2015-06-20T12:27:47Z</time>
      </trkpt>
      <trkpt lat="45.72982" lon="2.96003">
        <ele>1021.54</ele>
        <time>2015-06-20T12:27:50Z</time>
      </trkpt>
      <trkpt lat="45.72976" lon="2.95998">
        <ele>1022.02</ele>
        <time>2015-06-20T12:27:55Z</time>
      </trkpt>
      <trkpt lat="45.72966" lon="2.95994">
        <ele>1022.98</ele>
        <time>2015-06-20T12:28:01Z</time>
      </trkpt>
      <trkpt lat="45.72961" lon="2.95985">
        <ele>1023.94</ele>
        <time>2015-06-20T12:28:08Z</time>
      </trkpt>
      <trkpt lat="45.72949" lon="2.95968">
        <ele>1024.9</ele>
        <time>2015-06-20T12:28:18Z</time>
      </trkpt>
      <trkpt lat="45.72946" lon="2.95965">
        <ele>1025.38</ele>
        <time>2015-06-20T12:28:20Z</time>
      </trkpt>
      <trkpt lat="45.72928" lon="2.95951">
        <ele>1027.31</ele>
        <time>2015-06-20T12:28:33Z</time>
      </trkpt>
      <trkpt lat="45.72923" lon="2.95944">
        <ele>1028.27</ele>
        <time>2015-06-20T12:28:38Z</time>
      </trkpt>
      <trkpt lat="45.72916" lon="2.95937">
        <ele>1029.23</ele>
        <time>2015-06-20T12:28:44Z</time>
      </trkpt>
      <trkpt lat="45.72912" lon="2.95934">
        <ele>1029.71</ele>
        <time>2015-06-20T12:28:48Z</time>
      </trkpt>
      <trkpt lat="45.72899" lon="2.95926">
        <ele>1031.63</ele>
        <time>2015-06-20T12:28:59Z</time>
      </trkpt>
      <trkpt lat="45.7289" lon="2.95917">
        <ele>1033.55</ele>
        <time>2015-06-20T12:29:06Z</time>
      </trkpt>
      <trkpt lat="45.72884" lon="2.95913">
        <ele>1033.07</ele>
        <time>2015-06-20T12:29:11Z</time>
      </trkpt>
      <trkpt lat="45.72874" lon="2.9591">
        <ele>1034.04</ele>
        <time>2015-06-20T12:29:18Z</time>
      </trkpt>
      <trkpt lat="45.72864" lon="2.95892">
        <ele>1035</ele>
        <time>2015-06-20T12:29:28Z</time>
      </trkpt>
      <trkpt lat="45.72857" lon="2.9588">
        <ele>1035.96</ele>
        <time>2015-06-20T12:29:34Z</time>
      </trkpt>
      <trkpt lat="45.72853" lon="2.95863">
        <ele>1036.44</ele>
        <time>2015-06-20T12:29:41Z</time>
      </trkpt>
      <trkpt lat="45.72853" lon="2.9585">
        <ele>1037.4</ele>
        <time>2015-06-20T12:29:46Z</time>
      </trkpt>
      <trkpt lat="45.72851" lon="2.95845">
        <ele>1037.88</ele>
        <time>2015-06-20T12:29:49Z</time>
      </trkpt>
      <trkpt lat="45.72849" lon="2.95842">
        <ele>1037.88</ele>
        <time>2015-06-20T12:29:51Z</time>
      </trkpt>
      <trkpt lat="45.72837" lon="2.9584">
        <ele>1038.84</ele>
        <time>2015-06-20T12:29:57Z</time>
      </trkpt>
      <trkpt lat="45.72835" lon="2.95838">
        <ele>1039.32</ele>
        <time>2015-06-20T12:29:59Z</time>
      </trkpt>
      <trkpt lat="45.72835" lon="2.95822">
        <ele>1039.8</ele>
        <time>2015-06-20T12:30:05Z</time>
      </trkpt>
      <trkpt lat="45.72835" lon="2.95818">
        <ele>1039.8</ele>
        <time>2015-06-20T12:30:06Z</time>
      </trkpt>
      <trkpt lat="45.72832" lon="2.95807">
        <ele>1040.76</ele>
        <time>2015-06-20T12:30:11Z</time>
      </trkpt>
      <trkpt lat="45.72826" lon="2.95795">
        <ele>1041.25</ele>
        <time>2015-06-20T12:30:16Z</time>
      </trkpt>
      <trkpt lat="45.72819" lon="2.95788">
        <ele>1041.73</ele>
        <time>2015-06-20T12:30:21Z</time>
      </trkpt>
      <trkpt lat="45.72814" lon="2.95783">
        <ele>1042.21</ele>
        <time>2015-06-20T12:30:25Z</time>
      </trkpt>
      <trkpt lat="45.72807" lon="2.95773">
        <ele>1043.17</ele>
        <time>2015-06-20T12:30:30Z</time>
      </trkpt>
      <trkpt lat="45.72801" lon="2.95769">
        <ele>1043.65</ele>
        <time>2015-06-20T12:30:34Z</time>
      </trkpt>
      <trkpt lat="45.72798" lon="2.95766">
        <ele>1043.65</ele>
        <time>2015-06-20T12:30:37Z</time>
      </trkpt>
      <trkpt lat="45.72781" lon="2.95746">
        <ele>1044.13</ele>
        <time>2015-06-20T12:30:47Z</time>
      </trkpt>
      <trkpt lat="45.72765" lon="2.95716">
        <ele>1045.57</ele>
        <time>2015-06-20T12:30:58Z</time>
      </trkpt>
      <trkpt lat="45.72762" lon="2.9571">
        <ele>1045.57</ele>
        <time>2015-06-20T12:31:00Z</time>
      </trkpt>
      <trkpt lat="45.72755" lon="2.95703">
        <ele>1047.49</ele>
        <time>2015-06-20T12:31:04Z</time>
      </trkpt>
      <trkpt lat="45.72748" lon="2.95692">
        <ele>1047.01</ele>
        <time>2015-06-20T12:31:10Z</time>
      </trkpt>
      <trkpt lat="45.72748" lon="2.95688">
        <ele>1046.05</ele>
        <time>2015-06-20T12:31:11Z</time>
      </trkpt>
      <trkpt lat="45.72745" lon="2.95685">
        <ele>1047.97</ele>
        <time>2015-06-20T12:31:13Z</time>
      </trkpt>
      <trkpt lat="45.72743" lon="2.95683">
        <ele>1047.01</ele>
        <time>2015-06-20T12:31:14Z</time>
      </trkpt>
      <trkpt lat="45.72737" lon="2.95677">
        <ele>1046.53</ele>
        <time>2015-06-20T12:31:18Z</time>
      </trkpt>
      <trkpt lat="45.7273" lon="2.95667">
        <ele>1047.49</ele>
        <time>2015-06-20T12:31:22Z</time>
      </trkpt>
      <trkpt lat="45.7272" lon="2.95655">
        <ele>1047.97</ele>
        <time>2015-06-20T12:31:27Z</time>
      </trkpt>
      <trkpt lat="45.72702" lon="2.95646">
        <ele>1048.45</ele>
        <time>2015-06-20T12:31:37Z</time>
      </trkpt>
      <trkpt lat="45.72701" lon="2.95647">
        <ele>1048.94</ele>
        <time>2015-06-20T12:31:38Z</time>
      </trkpt>
      <trkpt lat="45.72695" lon="2.95646">
        <ele>1048.94</ele>
        <time>2015-06-20T12:31:41Z</time>
      </trkpt>
      <trkpt lat="45.72689" lon="2.95649">
        <ele>1048.94</ele>
        <time>2015-06-20T12:31:45Z</time>
      </trkpt>
      <trkpt lat="45.72684" lon="2.95648">
        <ele>1048.94</ele>
        <time>2015-06-20T12:31:48Z</time>
      </trkpt>
      <trkpt lat="45.7267" lon="2.95648">
        <ele>1048.94</ele>
        <time>2015-06-20T12:31:55Z</time>
      </trkpt>
      <trkpt lat="45.7265" lon="2.95646">
        <ele>1049.42</ele>
        <time>2015-06-20T12:32:04Z</time>
      </trkpt>
      <trkpt lat="45.72627" lon="2.95648">
        <ele>1050.38</ele>
        <time>2015-06-20T12:32:16Z</time>
      </trkpt>
      <trkpt lat="45.72615" lon="2.95646">
        <ele>1050.86</ele>
        <time>2015-06-20T12:32:21Z</time>
      </trkpt>
      <trkpt lat="45.72601" lon="2.95638">
        <ele>1051.34</ele>
        <time>2015-06-20T12:32:27Z</time>
      </trkpt>
      <trkpt lat="45.72594" lon="2.95636">
        <ele>1051.34</ele>
        <time>2015-06-20T12:32:30Z</time>
      </trkpt>
      <trkpt lat="45.7258" lon="2.95635">
        <ele>1051.82</ele>
        <time>2015-06-20T12:32:35Z</time>
      </trkpt>
      <trkpt lat="45.7257" lon="2.95631">
        <ele>1052.3</ele>
        <time>2015-06-20T12:32:40Z</time>
      </trkpt>
      <trkpt lat="45.72567" lon="2.95624">
        <ele>1052.78</ele>
        <time>2015-06-20T12:32:43Z</time>
      </trkpt>
      <trkpt lat="45.72544" lon="2.95612">
        <ele>1054.22</ele>
        <time>2015-06-20T12:32:53Z</time>
      </trkpt>
      <trkpt lat="45.72534" lon="2.95596">
        <ele>1054.7</ele>
        <time>2015-06-20T12:32:58Z</time>
      </trkpt>
      <trkpt lat="45.72531" lon="2.95591">
        <ele>1054.7</ele>
        <time>2015-06-20T12:33:00Z</time>
      </trkpt>
      <trkpt lat="45.72508" lon="2.95569">
        <ele>1056.63</ele>
        <time>2015-06-20T12:33:13Z</time>
      </trkpt>
      <trkpt lat="45.72501" lon="2.95563">
        <ele>1057.11</ele>
        <time>2015-06-20T12:33:17Z</time>
      </trkpt>
      <trkpt lat="45.72497" lon="2.95561">
        <ele>1057.59</ele>
        <time>2015-06-20T12:33:19Z</time>
      </trkpt>
      <trkpt lat="45.72484" lon="2.95538">
        <ele>1058.55</ele>
        <time>2015-06-20T12:33:28Z</time>
      </trkpt>
      <trkpt lat="45.72465" lon="2.95521">
        <ele>1060.47</ele>
        <time>2015-06-20T12:33:40Z</time>
      </trkpt>
      <trkpt lat="45.72447" lon="2.95505">
        <ele>1060.95</ele>
        <time>2015-06-20T12:33:50Z</time>
      </trkpt>
      <trkpt lat="45.72442" lon="2.95506">
        <ele>1061.91</ele>
        <time>2015-06-20T12:33:53Z</time>
      </trkpt>
      <trkpt lat="45.72431" lon="2.9548">
        <ele>1062.87</ele>
        <time>2015-06-20T12:34:04Z</time>
      </trkpt>
      <trkpt lat="45.72427" lon="2.95478">
        <ele>1063.36</ele>
        <time>2015-06-20T12:34:07Z</time>
      </trkpt>
      <trkpt lat="45.72423" lon="2.95467">
        <ele>1063.84</ele>
        <time>2015-06-20T12:34:11Z</time>
      </trkpt>
      <trkpt lat="45.72417" lon="2.95456">
        <ele>1064.8</ele>
        <time>2015-06-20T12:34:16Z</time>
      </trkpt>
      <trkpt lat="45.72408" lon="2.95448">
        <ele>1065.76</ele>
        <time>2015-06-20T12:34:22Z</time>
      </trkpt>
      <trkpt lat="45.72406" lon="2.95444">
        <ele>1065.76</ele>
        <time>2015-06-20T12:34:24Z</time>
      </trkpt>
      <trkpt lat="45.72403" lon="2.9544">
        <ele>1066.24</ele>
        <time>2015-06-20T12:34:27Z</time>
      </trkpt>
      <trkpt lat="45.72385" lon="2.95422">
        <ele>1067.68</ele>
        <time>2015-06-20T12:34:39Z</time>
      </trkpt>
      <trkpt lat="45.72381" lon="2.95417">
        <ele>1068.16</ele>
        <time>2015-06-20T12:34:42Z</time>
      </trkpt>
      <trkpt lat="45.72374" lon="2.95409">
        <ele>1069.12</ele>
        <time>2015-06-20T12:34:47Z</time>
      </trkpt>
      <trkpt lat="45.72368" lon="2.95406">
        <ele>1069.6</ele>
        <time>2015-06-20T12:34:51Z</time>
      </trkpt>
      <trkpt lat="45.72365" lon="2.95402">
        <ele>1069.6</ele>
        <time>2015-06-20T12:34:53Z</time>
      </trkpt>
      <trkpt lat="45.72354" lon="2.95378">
        <ele>1071.53</ele>
        <time>2015-06-20T12:35:05Z</time>
      </trkpt>
      <trkpt lat="45.72342" lon="2.95356">
        <ele>1072.97</ele>
        <time>2015-06-20T12:35:16Z</time>
      </trkpt>
      <trkpt lat="45.72338" lon="2.9535">
        <ele>1073.45</ele>
        <time>2015-06-20T12:35:19Z</time>
      </trkpt>
      <trkpt lat="45.72324" lon="2.95339">
        <ele>1074.41</ele>
        <time>2015-06-20T12:35:29Z</time>
      </trkpt>
      <trkpt lat="45.72318" lon="2.95338">
        <ele>1074.89</ele>
        <time>2015-06-20T12:35:32Z</time>
      </trkpt>
      <trkpt lat="45.72305" lon="2.95325">
        <ele>1075.85</ele>
        <time>2015-06-20T12:35:40Z</time>
      </trkpt>
      <trkpt lat="45.7229" lon="2.95308">
        <ele>1077.29</ele>
        <time>2015-06-20T12:35:50Z</time>
      </trkpt>
      <trkpt lat="45.72288" lon="2.95307">
        <ele>1077.29</ele>
        <time>2015-06-20T12:35:51Z</time>
      </trkpt>
      <trkpt lat="45.72277" lon="2.95296">
        <ele>1078.26</ele>
        <time>2015-06-20T12:35:57Z</time>
      </trkpt>
      <trkpt lat="45.7227" lon="2.95288">
        <ele>1079.22</ele>
        <time>2015-06-20T12:36:01Z</time>
      </trkpt>
      <trkpt lat="45.72248" lon="2.95263">
        <ele>1080.66</ele>
        <time>2015-06-20T12:36:13Z</time>
      </trkpt>
      <trkpt lat="45.72223" lon="2.95239">
        <ele>1081.62</ele>
        <time>2015-06-20T12:36:25Z</time>
      </trkpt>
      <trkpt lat="45.72219" lon="2.95225">
        <ele>1078.26</ele>
        <time>2015-06-20T12:36:29Z</time>
      </trkpt>
      <trkpt lat="45.72218" lon="2.95221">
        <ele>1084.99</ele>
        <time>2015-06-20T12:36:30Z</time>
      </trkpt>
      <trkpt lat="45.72217" lon="2.95218">
        <ele>1083.06</ele>
        <time>2015-06-20T12:36:31Z</time>
      </trkpt>
      <trkpt lat="45.72214" lon="2.95199">
        <ele>1083.54</ele>
        <time>2015-06-20T12:36:43Z</time>
      </trkpt>
      <trkpt lat="45.72214" lon="2.95199">
        <ele>1084.02</ele>
        <time>2015-06-20T12:37:06Z</time>
      </trkpt>
      <trkpt lat="45.72214" lon="2.95199">
        <ele>1084.02</ele>
        <time>2015-06-20T12:37:12Z</time>
      </trkpt>
      <trkpt lat="45.72212" lon="2.95205">
        <ele>1083.54</ele>
        <time>2015-06-20T12:37:16Z</time>
      </trkpt>
      <trkpt lat="45.72203" lon="2.95212">
        <ele>1083.06</ele>
        <time>2015-06-20T12:37:21Z</time>
      </trkpt>
      <trkpt lat="45.72174" lon="2.95202">
        <ele>1082.58</ele>
        <time>2015-06-20T12:37:31Z</time>
      </trkpt>
      <trkpt lat="45.72162" lon="2.95193">
        <ele>1082.1</ele>
        <time>2015-06-20T12:37:34Z</time>
      </trkpt>
      <trkpt lat="45.7214" lon="2.9518">
        <ele>1080.18</ele>
        <time>2015-06-20T12:37:39Z</time>
      </trkpt>
      <trkpt lat="45.72135" lon="2.95179">
        <ele>1079.7</ele>
        <time>2015-06-20T12:37:40Z</time>
      </trkpt>
      <trkpt lat="45.72131" lon="2.95179">
        <ele>1079.7</ele>
        <time>2015-06-20T12:37:41Z</time>
      </trkpt>
      <trkpt lat="45.72127" lon="2.95177">
        <ele>1078.74</ele>
        <time>2015-06-20T12:37:42Z</time>
      </trkpt>
      <trkpt lat="45.72123" lon="2.95174">
        <ele>1077.78</ele>
        <time>2015-06-20T12:37:43Z</time>
      </trkpt>
      <trkpt lat="45.72119" lon="2.95172">
        <ele>1077.29</ele>
        <time>2015-06-20T12:37:44Z</time>
      </trkpt>
      <trkpt lat="45.72115" lon="2.95171">
        <ele>1077.29</ele>
        <time>2015-06-20T12:37:45Z</time>
      </trkpt>
      <trkpt lat="45.72101" lon="2.95164">
        <ele>1076.81</ele>
        <time>2015-06-20T12:37:49Z</time>
      </trkpt>
      <trkpt lat="45.72097" lon="2.95161">
        <ele>1076.33</ele>
        <time>2015-06-20T12:37:50Z</time>
      </trkpt>
      <trkpt lat="45.72094" lon="2.95156">
        <ele>1076.33</ele>
        <time>2015-06-20T12:37:51Z</time>
      </trkpt>
      <trkpt lat="45.72091" lon="2.95151">
        <ele>1075.85</ele>
        <time>2015-06-20T12:37:52Z</time>
      </trkpt>
      <trkpt lat="45.72087" lon="2.95146">
        <ele>1075.37</ele>
        <time>2015-06-20T12:37:53Z</time>
      </trkpt>
      <trkpt lat="45.72068" lon="2.95121">
        <ele>1072.97</ele>
        <time>2015-06-20T12:37:57Z</time>
      </trkpt>
      <trkpt lat="45.72047" lon="2.95097">
        <ele>1071.05</ele>
        <time>2015-06-20T12:38:01Z</time>
      </trkpt>
      <trkpt lat="45.72043" lon="2.95091">
        <ele>1070.57</ele>
        <time>2015-06-20T12:38:02Z</time>
      </trkpt>
      <trkpt lat="45.72019" lon="2.95065">
        <ele>1067.68</ele>
        <time>2015-06-20T12:38:07Z</time>
      </trkpt>
      <trkpt lat="45.72003" lon="2.9505">
        <ele>1067.2</ele>
        <time>2015-06-20T12:38:10Z</time>
      </trkpt>
      <trkpt lat="45.71989" lon="2.95039">
        <ele>1066.24</ele>
        <time>2015-06-20T12:38:14Z</time>
      </trkpt>
      <trkpt lat="45.71984" lon="2.95036">
        <ele>1066.24</ele>
        <time>2015-06-20T12:38:15Z</time>
      </trkpt>
      <trkpt lat="45.7198" lon="2.95033">
        <ele>1065.76</ele>
        <time>2015-06-20T12:38:16Z</time>
      </trkpt>
      <trkpt lat="45.71959" lon="2.95023">
        <ele>1063.84</ele>
        <time>2015-06-20T12:38:20Z</time>
      </trkpt>
      <trkpt lat="45.71936" lon="2.95017">
        <ele>1062.39</ele>
        <time>2015-06-20T12:38:24Z</time>
      </trkpt>
      <trkpt lat="45.71931" lon="2.95015">
        <ele>1061.91</ele>
        <time>2015-06-20T12:38:25Z</time>
      </trkpt>
      <trkpt lat="45.71925" lon="2.95013">
        <ele>1061.43</ele>
        <time>2015-06-20T12:38:26Z</time>
      </trkpt>
      <trkpt lat="45.7192" lon="2.9501">
        <ele>1061.43</ele>
        <time>2015-06-20T12:38:27Z</time>
      </trkpt>
      <trkpt lat="45.71915" lon="2.95007">
        <ele>1060.95</ele>
        <time>2015-06-20T12:38:28Z</time>
      </trkpt>
      <trkpt lat="45.71912" lon="2.95005">
        <ele>1060.95</ele>
        <time>2015-06-20T12:38:29Z</time>
      </trkpt>
      <trkpt lat="45.7191" lon="2.95004">
        <ele>1061.43</ele>
        <time>2015-06-20T12:38:30Z</time>
      </trkpt>
      <trkpt lat="45.71907" lon="2.95">
        <ele>1061.43</ele>
        <time>2015-06-20T12:38:32Z</time>
      </trkpt>
      <trkpt lat="45.71905" lon="2.94997">
        <ele>1061.43</ele>
        <time>2015-06-20T12:38:33Z</time>
      </trkpt>
      <trkpt lat="45.71902" lon="2.94995">
        <ele>1060.95</ele>
        <time>2015-06-20T12:38:34Z</time>
      </trkpt>
      <trkpt lat="45.71892" lon="2.94987">
        <ele>1059.99</ele>
        <time>2015-06-20T12:38:37Z</time>
      </trkpt>
      <trkpt lat="45.71879" lon="2.94975">
        <ele>1058.55</ele>
        <time>2015-06-20T12:38:40Z</time>
      </trkpt>
      <trkpt lat="45.71873" lon="2.94966">
        <ele>1058.07</ele>
        <time>2015-06-20T12:38:42Z</time>
      </trkpt>
      <trkpt lat="45.7187" lon="2.94961">
        <ele>1058.07</ele>
        <time>2015-06-20T12:38:43Z</time>
      </trkpt>
      <trkpt lat="45.71867" lon="2.94955">
        <ele>1058.07</ele>
        <time>2015-06-20T12:38:44Z</time>
      </trkpt>
      <trkpt lat="45.71863" lon="2.9495">
        <ele>1058.07</ele>
        <time>2015-06-20T12:38:45Z</time>
      </trkpt>
      <trkpt lat="45.71861" lon="2.94943">
        <ele>1058.07</ele>
        <time>2015-06-20T12:38:46Z</time>
      </trkpt>
      <trkpt lat="45.71858" lon="2.94934">
        <ele>1057.59</ele>
        <time>2015-06-20T12:38:47Z</time>
      </trkpt>
      <trkpt lat="45.71855" lon="2.94924">
        <ele>1057.59</ele>
        <time>2015-06-20T12:38:48Z</time>
      </trkpt>
      <trkpt lat="45.7185" lon="2.94906">
        <ele>1057.11</ele>
        <time>2015-06-20T12:38:50Z</time>
      </trkpt>
      <trkpt lat="45.71847" lon="2.94898">
        <ele>1056.15</ele>
        <time>2015-06-20T12:38:51Z</time>
      </trkpt>
      <trkpt lat="45.71845" lon="2.9489">
        <ele>1055.67</ele>
        <time>2015-06-20T12:38:52Z</time>
      </trkpt>
      <trkpt lat="45.71844" lon="2.9488">
        <ele>1055.18</ele>
        <time>2015-06-20T12:38:53Z</time>
      </trkpt>
      <trkpt lat="45.71843" lon="2.94872">
        <ele>1054.7</ele>
        <time>2015-06-20T12:38:54Z</time>
      </trkpt>
      <trkpt lat="45.71842" lon="2.94845">
        <ele>1053.74</ele>
        <time>2015-06-20T12:38:59Z</time>
      </trkpt>
      <trkpt lat="45.71846" lon="2.94828">
        <ele>1052.78</ele>
        <time>2015-06-20T12:39:02Z</time>
      </trkpt>
      <trkpt lat="45.71852" lon="2.9476">
        <ele>1050.86</ele>
        <time>2015-06-20T12:39:10Z</time>
      </trkpt>
      <trkpt lat="45.71854" lon="2.94739">
        <ele>1050.38</ele>
        <time>2015-06-20T12:39:18Z</time>
      </trkpt>
      <trkpt lat="45.71856" lon="2.94726">
        <ele>1047.49</ele>
        <time>2015-06-20T12:39:24Z</time>
      </trkpt>
      <trkpt lat="45.71861" lon="2.94707">
        <ele>1044.61</ele>
        <time>2015-06-20T12:39:29Z</time>
      </trkpt>
      <trkpt lat="45.71865" lon="2.94694">
        <ele>1044.13</ele>
        <time>2015-06-20T12:39:32Z</time>
      </trkpt>
      <trkpt lat="45.71868" lon="2.94677">
        <ele>1043.65</ele>
        <time>2015-06-20T12:39:33Z</time>
      </trkpt>
      <trkpt lat="45.71873" lon="2.94657">
        <ele>1041.73</ele>
        <time>2015-06-20T12:39:35Z</time>
      </trkpt>
      <trkpt lat="45.71881" lon="2.94621">
        <ele>1039.8</ele>
        <time>2015-06-20T12:39:39Z</time>
      </trkpt>
      <trkpt lat="45.71891" lon="2.94593">
        <ele>1038.84</ele>
        <time>2015-06-20T12:39:42Z</time>
      </trkpt>
      <trkpt lat="45.71918" lon="2.94537">
        <ele>1035.48</ele>
        <time>2015-06-20T12:39:53Z</time>
      </trkpt>
      <trkpt lat="45.71921" lon="2.94531">
        <ele>1035</ele>
        <time>2015-06-20T12:39:54Z</time>
      </trkpt>
      <trkpt lat="45.71931" lon="2.94512">
        <ele>1035</ele>
        <time>2015-06-20T12:39:56Z</time>
      </trkpt>
      <trkpt lat="45.71952" lon="2.94468">
        <ele>1033.07</ele>
        <time>2015-06-20T12:40:01Z</time>
      </trkpt>
      <trkpt lat="45.71979" lon="2.94412">
        <ele>1032.11</ele>
        <time>2015-06-20T12:40:09Z</time>
      </trkpt>
      <trkpt lat="45.71993" lon="2.94374">
        <ele>1030.19</ele>
        <time>2015-06-20T12:40:15Z</time>
      </trkpt>
      <trkpt lat="45.71988" lon="2.94355">
        <ele>1030.67</ele>
        <time>2015-06-20T12:40:24Z</time>
      </trkpt>
      <trkpt lat="45.71986" lon="2.94355">
        <ele>1030.67</ele>
        <time>2015-06-20T12:40:25Z</time>
      </trkpt>
      <trkpt lat="45.71971" lon="2.94358">
        <ele>1031.15</ele>
        <time>2015-06-20T12:40:31Z</time>
      </trkpt>
      <trkpt lat="45.71967" lon="2.9436">
        <ele>1031.63</ele>
        <time>2015-06-20T12:40:32Z</time>
      </trkpt>
      <trkpt lat="45.71933" lon="2.94371">
        <ele>1031.63</ele>
        <time>2015-06-20T12:40:41Z</time>
      </trkpt>
      <trkpt lat="45.71925" lon="2.94373">
        <ele>1031.63</ele>
        <time>2015-06-20T12:40:43Z</time>
      </trkpt>
      <trkpt lat="45.7192" lon="2.94374">
        <ele>1031.63</ele>
        <time>2015-06-20T12:40:44Z</time>
      </trkpt>
      <trkpt lat="45.71864" lon="2.94392">
        <ele>1030.19</ele>
        <time>2015-06-20T12:40:55Z</time>
      </trkpt>
      <trkpt lat="45.71824" lon="2.944">
        <ele>1033.07</ele>
        <time>2015-06-20T12:41:06Z</time>
      </trkpt>
      <trkpt lat="45.71787" lon="2.94414">
        <ele>1035</ele>
        <time>2015-06-20T12:41:18Z</time>
      </trkpt>
      <trkpt lat="45.71755" lon="2.94423">
        <ele>1036.44</ele>
        <time>2015-06-20T12:41:29Z</time>
      </trkpt>
      <trkpt lat="45.71713" lon="2.94441">
        <ele>1037.4</ele>
        <time>2015-06-20T12:41:42Z</time>
      </trkpt>
      <trkpt lat="45.71688" lon="2.94449">
        <ele>1037.88</ele>
        <time>2015-06-20T12:41:52Z</time>
      </trkpt>
      <trkpt lat="45.71684" lon="2.9445">
        <ele>1038.36</ele>
        <time>2015-06-20T12:41:54Z</time>
      </trkpt>
      <trkpt lat="45.71682" lon="2.9445">
        <ele>1038.36</ele>
        <time>2015-06-20T12:41:55Z</time>
      </trkpt>
      <trkpt lat="45.7168" lon="2.94449">
        <ele>1038.36</ele>
        <time>2015-06-20T12:41:56Z</time>
      </trkpt>
      <trkpt lat="45.71678" lon="2.94449">
        <ele>1038.36</ele>
        <time>2015-06-20T12:41:57Z</time>
      </trkpt>
      <trkpt lat="45.71677" lon="2.94449">
        <ele>1038.36</ele>
        <time>2015-06-20T12:41:58Z</time>
      </trkpt>
      <trkpt lat="45.71675" lon="2.94449">
        <ele>1038.84</ele>
        <time>2015-06-20T12:41:59Z</time>
      </trkpt>
      <trkpt lat="45.71657" lon="2.94454">
        <ele>1040.76</ele>
        <time>2015-06-20T12:42:09Z</time>
      </trkpt>
      <trkpt lat="45.71651" lon="2.94455">
        <ele>1041.25</ele>
        <time>2015-06-20T12:42:14Z</time>
      </trkpt>
      <trkpt lat="45.71649" lon="2.94455">
        <ele>1041.73</ele>
        <time>2015-06-20T12:42:15Z</time>
      </trkpt>
      <trkpt lat="45.71647" lon="2.94455">
        <ele>1041.73</ele>
        <time>2015-06-20T12:42:16Z</time>
      </trkpt>
      <trkpt lat="45.71645" lon="2.94454">
        <ele>1041.73</ele>
        <time>2015-06-20T12:42:17Z</time>
      </trkpt>
      <trkpt lat="45.71643" lon="2.94452">
        <ele>1041.73</ele>
        <time>2015-06-20T12:42:18Z</time>
      </trkpt>
      <trkpt lat="45.71632" lon="2.94419">
        <ele>1042.21</ele>
        <time>2015-06-20T12:42:29Z</time>
      </trkpt>
      <trkpt lat="45.71623" lon="2.94364">
        <ele>1040.76</ele>
        <time>2015-06-20T12:42:42Z</time>
      </trkpt>
      <trkpt lat="45.71616" lon="2.94328">
        <ele>1040.28</ele>
        <time>2015-06-20T12:42:49Z</time>
      </trkpt>
      <trkpt lat="45.71617" lon="2.94306">
        <ele>1039.8</ele>
        <time>2015-06-20T12:42:53Z</time>
      </trkpt>
      <trkpt lat="45.71614" lon="2.94283">
        <ele>1039.8</ele>
        <time>2015-06-20T12:42:57Z</time>
      </trkpt>
      <trkpt lat="45.71611" lon="2.94259">
        <ele>1038.36</ele>
        <time>2015-06-20T12:43:01Z</time>
      </trkpt>
      <trkpt lat="45.71607" lon="2.94229">
        <ele>1038.84</ele>
        <time>2015-06-20T12:43:07Z</time>
      </trkpt>
      <trkpt lat="45.716" lon="2.94217">
        <ele>1039.8</ele>
        <time>2015-06-20T12:43:10Z</time>
      </trkpt>
      <trkpt lat="45.71598" lon="2.94197">
        <ele>1039.32</ele>
        <time>2015-06-20T12:43:14Z</time>
      </trkpt>
      <trkpt lat="45.71589" lon="2.9414">
        <ele>1037.88</ele>
        <time>2015-06-20T12:43:25Z</time>
      </trkpt>
      <trkpt lat="45.71587" lon="2.94126">
        <ele>1036.44</ele>
        <time>2015-06-20T12:43:27Z</time>
      </trkpt>
      <trkpt lat="45.71587" lon="2.94118">
        <ele>1036.44</ele>
        <time>2015-06-20T12:43:28Z</time>
      </trkpt>
      <trkpt lat="45.71585" lon="2.94104">
        <ele>1035.48</ele>
        <time>2015-06-20T12:43:30Z</time>
      </trkpt>
      <trkpt lat="45.71584" lon="2.94083">
        <ele>1034.04</ele>
        <time>2015-06-20T12:43:33Z</time>
      </trkpt>
      <trkpt lat="45.71582" lon="2.94072">
        <ele>1033.55</ele>
        <time>2015-06-20T12:43:34Z</time>
      </trkpt>
      <trkpt lat="45.71577" lon="2.94047">
        <ele>1032.11</ele>
        <time>2015-06-20T12:43:37Z</time>
      </trkpt>
      <trkpt lat="45.71571" lon="2.94026">
        <ele>1031.15</ele>
        <time>2015-06-20T12:43:40Z</time>
      </trkpt>
      <trkpt lat="45.71569" lon="2.94008">
        <ele>1030.67</ele>
        <time>2015-06-20T12:43:42Z</time>
      </trkpt>
      <trkpt lat="45.71568" lon="2.93987">
        <ele>1030.19</ele>
        <time>2015-06-20T12:43:45Z</time>
      </trkpt>
      <trkpt lat="45.71564" lon="2.93956">
        <ele>1028.75</ele>
        <time>2015-06-20T12:43:49Z</time>
      </trkpt>
      <trkpt lat="45.71561" lon="2.93927">
        <ele>1028.27</ele>
        <time>2015-06-20T12:43:53Z</time>
      </trkpt>
      <trkpt lat="45.71557" lon="2.93909">
        <ele>1027.79</ele>
        <time>2015-06-20T12:43:56Z</time>
      </trkpt>
      <trkpt lat="45.71551" lon="2.93883">
        <ele>1027.31</ele>
        <time>2015-06-20T12:44:00Z</time>
      </trkpt>
      <trkpt lat="45.71547" lon="2.93841">
        <ele>1026.34</ele>
        <time>2015-06-20T12:44:06Z</time>
      </trkpt>
      <trkpt lat="45.7154" lon="2.93786">
        <ele>1025.38</ele>
        <time>2015-06-20T12:44:15Z</time>
      </trkpt>
      <trkpt lat="45.71522" lon="2.93789">
        <ele>1026.34</ele>
        <time>2015-06-20T12:44:22Z</time>
      </trkpt>
      <trkpt lat="45.71505" lon="2.93806">
        <ele>1025.86</ele>
        <time>2015-06-20T12:44:28Z</time>
      </trkpt>
      <trkpt lat="45.71475" lon="2.93838">
        <ele>1026.34</ele>
        <time>2015-06-20T12:44:40Z</time>
      </trkpt>
      <trkpt lat="45.71447" lon="2.93858">
        <ele>1027.31</ele>
        <time>2015-06-20T12:44:51Z</time>
      </trkpt>
      <trkpt lat="45.71425" lon="2.93885">
        <ele>1028.75</ele>
        <time>2015-06-20T12:45:03Z</time>
      </trkpt>
      <trkpt lat="45.71401" lon="2.939">
        <ele>1029.71</ele>
        <time>2015-06-20T12:45:14Z</time>
      </trkpt>
      <trkpt lat="45.71381" lon="2.93912">
        <ele>1031.15</ele>
        <time>2015-06-20T12:45:23Z</time>
      </trkpt>
      <trkpt lat="45.71366" lon="2.93917">
        <ele>1032.11</ele>
        <time>2015-06-20T12:45:30Z</time>
      </trkpt>
      <trkpt lat="45.71341" lon="2.93926">
        <ele>1033.55</ele>
        <time>2015-06-20T12:45:41Z</time>
      </trkpt>
      <trkpt lat="45.71314" lon="2.93923">
        <ele>1034.52</ele>
        <time>2015-06-20T12:45:52Z</time>
      </trkpt>
      <trkpt lat="45.71285" lon="2.93939">
        <ele>1035.96</ele>
        <time>2015-06-20T12:46:06Z</time>
      </trkpt>
      <trkpt lat="45.71258" lon="2.93951">
        <ele>1037.88</ele>
        <time>2015-06-20T12:46:19Z</time>
      </trkpt>
      <trkpt lat="45.71234" lon="2.93971">
        <ele>1039.32</ele>
        <time>2015-06-20T12:46:31Z</time>
      </trkpt>
      <trkpt lat="45.71214" lon="2.93998">
        <ele>1040.28</ele>
        <time>2015-06-20T12:46:43Z</time>
      </trkpt>
      <trkpt lat="45.71211" lon="2.94006">
        <ele>1040.76</ele>
        <time>2015-06-20T12:46:47Z</time>
      </trkpt>
      <trkpt lat="45.7121" lon="2.94006">
        <ele>1040.28</ele>
        <time>2015-06-20T12:46:56Z</time>
      </trkpt>
      <trkpt lat="45.7121" lon="2.94006">
        <ele>1040.28</ele>
        <time>2015-06-20T12:47:02Z</time>
      </trkpt>
      <trkpt lat="45.71211" lon="2.93996">
        <ele>1039.8</ele>
        <time>2015-06-20T12:47:06Z</time>
      </trkpt>
      <trkpt lat="45.7121" lon="2.93949">
        <ele>1039.8</ele>
        <time>2015-06-20T12:47:19Z</time>
      </trkpt>
      <trkpt lat="45.71207" lon="2.93894">
        <ele>1040.76</ele>
        <time>2015-06-20T12:47:35Z</time>
      </trkpt>
      <trkpt lat="45.71203" lon="2.93853">
        <ele>1041.25</ele>
        <time>2015-06-20T12:47:48Z</time>
      </trkpt>
      <trkpt lat="45.71195" lon="2.93819">
        <ele>1042.69</ele>
        <time>2015-06-20T12:48:01Z</time>
      </trkpt>
      <trkpt lat="45.71196" lon="2.93797">
        <ele>1044.13</ele>
        <time>2015-06-20T12:48:13Z</time>
      </trkpt>
      <trkpt lat="45.71198" lon="2.93794">
        <ele>1044.13</ele>
        <time>2015-06-20T12:48:27Z</time>
      </trkpt>
      <trkpt lat="45.71201" lon="2.93791">
        <ele>1043.65</ele>
        <time>2015-06-20T12:48:30Z</time>
      </trkpt>
      <trkpt lat="45.71215" lon="2.93775">
        <ele>1044.13</ele>
        <time>2015-06-20T12:48:42Z</time>
      </trkpt>
      <trkpt lat="45.71216" lon="2.93774">
        <ele>1044.13</ele>
        <time>2015-06-20T12:48:43Z</time>
      </trkpt>
      <trkpt lat="45.71241" lon="2.93736">
        <ele>1043.65</ele>
        <time>2015-06-20T12:48:54Z</time>
      </trkpt>
      <trkpt lat="45.71256" lon="2.93701">
        <ele>1042.69</ele>
        <time>2015-06-20T12:49:05Z</time>
      </trkpt>
      <trkpt lat="45.71259" lon="2.93696">
        <ele>1041.73</ele>
        <time>2015-06-20T12:49:07Z</time>
      </trkpt>
      <trkpt lat="45.71265" lon="2.9369">
        <ele>1040.76</ele>
        <time>2015-06-20T12:49:10Z</time>
      </trkpt>
      <trkpt lat="45.71276" lon="2.93674">
        <ele>1038.36</ele>
        <time>2015-06-20T12:49:15Z</time>
      </trkpt>
      <trkpt lat="45.71283" lon="2.93656">
        <ele>1037.4</ele>
        <time>2015-06-20T12:49:18Z</time>
      </trkpt>
      <trkpt lat="45.71289" lon="2.93635">
        <ele>1036.44</ele>
        <time>2015-06-20T12:49:20Z</time>
      </trkpt>
      <trkpt lat="45.71309" lon="2.93577">
        <ele>1033.55</ele>
        <time>2015-06-20T12:49:27Z</time>
      </trkpt>
      <trkpt lat="45.7132" lon="2.93555">
        <ele>1032.11</ele>
        <time>2015-06-20T12:49:30Z</time>
      </trkpt>
      <trkpt lat="45.71323" lon="2.93546">
        <ele>1031.63</ele>
        <time>2015-06-20T12:49:31Z</time>
      </trkpt>
      <trkpt lat="45.71326" lon="2.93538">
        <ele>1031.15</ele>
        <time>2015-06-20T12:49:32Z</time>
      </trkpt>
      <trkpt lat="45.71328" lon="2.93533">
        <ele>1030.67</ele>
        <time>2015-06-20T12:49:33Z</time>
      </trkpt>
      <trkpt lat="45.71331" lon="2.93527">
        <ele>1030.67</ele>
        <time>2015-06-20T12:49:34Z</time>
      </trkpt>
      <trkpt lat="45.71333" lon="2.93522">
        <ele>1029.71</ele>
        <time>2015-06-20T12:49:35Z</time>
      </trkpt>
      <trkpt lat="45.71334" lon="2.93516">
        <ele>1029.71</ele>
        <time>2015-06-20T12:49:36Z</time>
      </trkpt>
      <trkpt lat="45.71335" lon="2.93511">
        <ele>1029.23</ele>
        <time>2015-06-20T12:49:37Z</time>
      </trkpt>
      <trkpt lat="45.71336" lon="2.93507">
        <ele>1028.27</ele>
        <time>2015-06-20T12:49:38Z</time>
      </trkpt>
      <trkpt lat="45.71338" lon="2.93503">
        <ele>1027.79</ele>
        <time>2015-06-20T12:49:39Z</time>
      </trkpt>
      <trkpt lat="45.7134" lon="2.93498">
        <ele>1027.79</ele>
        <time>2015-06-20T12:49:40Z</time>
      </trkpt>
      <trkpt lat="45.71343" lon="2.9349">
        <ele>1027.31</ele>
        <time>2015-06-20T12:49:41Z</time>
      </trkpt>
      <trkpt lat="45.71345" lon="2.93482">
        <ele>1026.83</ele>
        <time>2015-06-20T12:49:42Z</time>
      </trkpt>
      <trkpt lat="45.71346" lon="2.93457">
        <ele>1024.9</ele>
        <time>2015-06-20T12:49:46Z</time>
      </trkpt>
      <trkpt lat="45.71347" lon="2.93451">
        <ele>1024.42</ele>
        <time>2015-06-20T12:49:47Z</time>
      </trkpt>
      <trkpt lat="45.7135" lon="2.93445">
        <ele>1023.94</ele>
        <time>2015-06-20T12:49:48Z</time>
      </trkpt>
      <trkpt lat="45.71352" lon="2.9344">
        <ele>1023.46</ele>
        <time>2015-06-20T12:49:49Z</time>
      </trkpt>
      <trkpt lat="45.71354" lon="2.93432">
        <ele>1022.5</ele>
        <time>2015-06-20T12:49:50Z</time>
      </trkpt>
      <trkpt lat="45.71357" lon="2.93425">
        <ele>1022.02</ele>
        <time>2015-06-20T12:49:51Z</time>
      </trkpt>
      <trkpt lat="45.7136" lon="2.93418">
        <ele>1021.54</ele>
        <time>2015-06-20T12:49:52Z</time>
      </trkpt>
      <trkpt lat="45.71363" lon="2.93411">
        <ele>1021.54</ele>
        <time>2015-06-20T12:49:53Z</time>
      </trkpt>
      <trkpt lat="45.71366" lon="2.93399">
        <ele>1020.1</ele>
        <time>2015-06-20T12:49:55Z</time>
      </trkpt>
      <trkpt lat="45.71366" lon="2.93392">
        <ele>1020.1</ele>
        <time>2015-06-20T12:49:56Z</time>
      </trkpt>
      <trkpt lat="45.71365" lon="2.93385">
        <ele>1019.62</ele>
        <time>2015-06-20T12:49:57Z</time>
      </trkpt>
      <trkpt lat="45.71365" lon="2.93379">
        <ele>1019.13</ele>
        <time>2015-06-20T12:49:58Z</time>
      </trkpt>
      <trkpt lat="45.71366" lon="2.93372">
        <ele>1019.13</ele>
        <time>2015-06-20T12:49:59Z</time>
      </trkpt>
      <trkpt lat="45.71367" lon="2.93365">
        <ele>1018.17</ele>
        <time>2015-06-20T12:50:00Z</time>
      </trkpt>
      <trkpt lat="45.71376" lon="2.93324">
        <ele>1015.29</ele>
        <time>2015-06-20T12:50:08Z</time>
      </trkpt>
      <trkpt lat="45.71383" lon="2.93304">
        <ele>1012.89</ele>
        <time>2015-06-20T12:50:13Z</time>
      </trkpt>
      <trkpt lat="45.71383" lon="2.93297">
        <ele>1011.93</ele>
        <time>2015-06-20T12:50:14Z</time>
      </trkpt>
      <trkpt lat="45.71382" lon="2.93289">
        <ele>1011.44</ele>
        <time>2015-06-20T12:50:15Z</time>
      </trkpt>
      <trkpt lat="45.7138" lon="2.93281">
        <ele>1011.44</ele>
        <time>2015-06-20T12:50:16Z</time>
      </trkpt>
      <trkpt lat="45.71378" lon="2.93272">
        <ele>1010.48</ele>
        <time>2015-06-20T12:50:17Z</time>
      </trkpt>
      <trkpt lat="45.71376" lon="2.93264">
        <ele>1010.48</ele>
        <time>2015-06-20T12:50:18Z</time>
      </trkpt>
      <trkpt lat="45.71373" lon="2.93256">
        <ele>1009.52</ele>
        <time>2015-06-20T12:50:19Z</time>
      </trkpt>
      <trkpt lat="45.71372" lon="2.93249">
        <ele>1009.04</ele>
        <time>2015-06-20T12:50:20Z</time>
      </trkpt>
      <trkpt lat="45.7137" lon="2.93231">
        <ele>1007.6</ele>
        <time>2015-06-20T12:50:23Z</time>
      </trkpt>
      <trkpt lat="45.7137" lon="2.93186">
        <ele>1004.23</ele>
        <time>2015-06-20T12:50:32Z</time>
      </trkpt>
      <trkpt lat="45.71366" lon="2.93143">
        <ele>1003.75</ele>
        <time>2015-06-20T12:50:38Z</time>
      </trkpt>
      <trkpt lat="45.71367" lon="2.93138">
        <ele>1003.27</ele>
        <time>2015-06-20T12:50:39Z</time>
      </trkpt>
      <trkpt lat="45.71367" lon="2.93133">
        <ele>1002.79</ele>
        <time>2015-06-20T12:50:40Z</time>
      </trkpt>
      <trkpt lat="45.7137" lon="2.93124">
        <ele>1002.79</ele>
        <time>2015-06-20T12:50:41Z</time>
      </trkpt>
      <trkpt lat="45.7137" lon="2.93117">
        <ele>1002.31</ele>
        <time>2015-06-20T12:50:42Z</time>
      </trkpt>
      <trkpt lat="45.71368" lon="2.9311">
        <ele>1002.31</ele>
        <time>2015-06-20T12:50:43Z</time>
      </trkpt>
      <trkpt lat="45.71367" lon="2.93105">
        <ele>1001.83</ele>
        <time>2015-06-20T12:50:44Z</time>
      </trkpt>
      <trkpt lat="45.71364" lon="2.93085">
        <ele>1001.35</ele>
        <time>2015-06-20T12:50:47Z</time>
      </trkpt>
      <trkpt lat="45.71359" lon="2.93072">
        <ele>1000.87</ele>
        <time>2015-06-20T12:50:49Z</time>
      </trkpt>
      <trkpt lat="45.71357" lon="2.93066">
        <ele>1000.87</ele>
        <time>2015-06-20T12:50:50Z</time>
      </trkpt>
      <trkpt lat="45.71353" lon="2.93043">
        <ele>1000.39</ele>
        <time>2015-06-20T12:50:53Z</time>
      </trkpt>
      <trkpt lat="45.71344" lon="2.93007">
        <ele>999.91</ele>
        <time>2015-06-20T12:50:58Z</time>
      </trkpt>
      <trkpt lat="45.71338" lon="2.92977">
        <ele>999.43</ele>
        <time>2015-06-20T12:51:02Z</time>
      </trkpt>
      <trkpt lat="45.71321" lon="2.92933">
        <ele>998.47</ele>
        <time>2015-06-20T12:51:09Z</time>
      </trkpt>
      <trkpt lat="45.71313" lon="2.92923">
        <ele>997.99</ele>
        <time>2015-06-20T12:51:11Z</time>
      </trkpt>
      <trkpt lat="45.71309" lon="2.92919">
        <ele>997.51</ele>
        <time>2015-06-20T12:51:12Z</time>
      </trkpt>
      <trkpt lat="45.71304" lon="2.92915">
        <ele>997.02</ele>
        <time>2015-06-20T12:51:13Z</time>
      </trkpt>
      <trkpt lat="45.713" lon="2.9291">
        <ele>997.02</ele>
        <time>2015-06-20T12:51:14Z</time>
      </trkpt>
      <trkpt lat="45.71297" lon="2.92904">
        <ele>996.54</ele>
        <time>2015-06-20T12:51:15Z</time>
      </trkpt>
      <trkpt lat="45.71295" lon="2.92898">
        <ele>996.54</ele>
        <time>2015-06-20T12:51:16Z</time>
      </trkpt>
      <trkpt lat="45.71284" lon="2.9287">
        <ele>994.14</ele>
        <time>2015-06-20T12:51:20Z</time>
      </trkpt>
      <trkpt lat="45.71282" lon="2.92864">
        <ele>993.66</ele>
        <time>2015-06-20T12:51:21Z</time>
      </trkpt>
      <trkpt lat="45.71279" lon="2.92857">
        <ele>993.66</ele>
        <time>2015-06-20T12:51:22Z</time>
      </trkpt>
      <trkpt lat="45.71276" lon="2.92852">
        <ele>993.66</ele>
        <time>2015-06-20T12:51:23Z</time>
      </trkpt>
      <trkpt lat="45.71275" lon="2.92844">
        <ele>993.66</ele>
        <time>2015-06-20T12:51:30Z</time>
      </trkpt>
      <trkpt lat="45.71273" lon="2.92826">
        <ele>994.14</ele>
        <time>2015-06-20T12:51:56Z</time>
      </trkpt>
      <trkpt lat="45.71263" lon="2.92812">
        <ele>991.74</ele>
        <time>2015-06-20T12:52:02Z</time>
      </trkpt>
      <trkpt lat="45.7126" lon="2.92807">
        <ele>991.26</ele>
        <time>2015-06-20T12:52:03Z</time>
      </trkpt>
      <trkpt lat="45.71253" lon="2.92798">
        <ele>990.3</ele>
        <time>2015-06-20T12:52:05Z</time>
      </trkpt>
      <trkpt lat="45.7125" lon="2.92793">
        <ele>989.81</ele>
        <time>2015-06-20T12:52:06Z</time>
      </trkpt>
      <trkpt lat="45.71242" lon="2.92782">
        <ele>989.33</ele>
        <time>2015-06-20T12:52:08Z</time>
      </trkpt>
      <trkpt lat="45.71238" lon="2.92776">
        <ele>988.85</ele>
        <time>2015-06-20T12:52:09Z</time>
      </trkpt>
      <trkpt lat="45.71234" lon="2.9277">
        <ele>988.85</ele>
        <time>2015-06-20T12:52:10Z</time>
      </trkpt>
      <trkpt lat="45.7123" lon="2.92765">
        <ele>988.85</ele>
        <time>2015-06-20T12:52:11Z</time>
      </trkpt>
      <trkpt lat="45.71226" lon="2.92761">
        <ele>988.85</ele>
        <time>2015-06-20T12:52:12Z</time>
      </trkpt>
      <trkpt lat="45.712" lon="2.92734">
        <ele>989.33</ele>
        <time>2015-06-20T12:52:20Z</time>
      </trkpt>
      <trkpt lat="45.71196" lon="2.9273">
        <ele>989.33</ele>
        <time>2015-06-20T12:52:21Z</time>
      </trkpt>
      <trkpt lat="45.71193" lon="2.92728">
        <ele>989.33</ele>
        <time>2015-06-20T12:52:22Z</time>
      </trkpt>
      <trkpt lat="45.7119" lon="2.92726">
        <ele>989.33</ele>
        <time>2015-06-20T12:52:23Z</time>
      </trkpt>
      <trkpt lat="45.71186" lon="2.92723">
        <ele>989.81</ele>
        <time>2015-06-20T12:52:24Z</time>
      </trkpt>
      <trkpt lat="45.71183" lon="2.92721">
        <ele>989.81</ele>
        <time>2015-06-20T12:52:25Z</time>
      </trkpt>
      <trkpt lat="45.7118" lon="2.92719">
        <ele>989.81</ele>
        <time>2015-06-20T12:52:26Z</time>
      </trkpt>
      <trkpt lat="45.71149" lon="2.92701">
        <ele>992.22</ele>
        <time>2015-06-20T12:52:38Z</time>
      </trkpt>
      <trkpt lat="45.7114" lon="2.92699">
        <ele>993.18</ele>
        <time>2015-06-20T12:52:43Z</time>
      </trkpt>
      <trkpt lat="45.71137" lon="2.92699">
        <ele>993.18</ele>
        <time>2015-06-20T12:52:44Z</time>
      </trkpt>
      <trkpt lat="45.71136" lon="2.92699">
        <ele>993.18</ele>
        <time>2015-06-20T12:52:45Z</time>
      </trkpt>
      <trkpt lat="45.71121" lon="2.92692">
        <ele>995.58</ele>
        <time>2015-06-20T12:52:53Z</time>
      </trkpt>
      <trkpt lat="45.71121" lon="2.9269">
        <ele>995.58</ele>
        <time>2015-06-20T12:52:54Z</time>
      </trkpt>
      <trkpt lat="45.7112" lon="2.92687">
        <ele>995.58</ele>
        <time>2015-06-20T12:52:55Z</time>
      </trkpt>
      <trkpt lat="45.7112" lon="2.92685">
        <ele>995.58</ele>
        <time>2015-06-20T12:52:56Z</time>
      </trkpt>
      <trkpt lat="45.7112" lon="2.92683">
        <ele>995.58</ele>
        <time>2015-06-20T12:52:57Z</time>
      </trkpt>
      <trkpt lat="45.71121" lon="2.9268">
        <ele>995.1</ele>
        <time>2015-06-20T12:52:58Z</time>
      </trkpt>
      <trkpt lat="45.71121" lon="2.92678">
        <ele>995.58</ele>
        <time>2015-06-20T12:52:59Z</time>
      </trkpt>
      <trkpt lat="45.71121" lon="2.92675">
        <ele>995.58</ele>
        <time>2015-06-20T12:53:00Z</time>
      </trkpt>
      <trkpt lat="45.71121" lon="2.92673">
        <ele>995.58</ele>
        <time>2015-06-20T12:53:01Z</time>
      </trkpt>
      <trkpt lat="45.71121" lon="2.9267">
        <ele>995.58</ele>
        <time>2015-06-20T12:53:02Z</time>
      </trkpt>
      <trkpt lat="45.71128" lon="2.92623">
        <ele>996.06</ele>
        <time>2015-06-20T12:53:15Z</time>
      </trkpt>
      <trkpt lat="45.71129" lon="2.92612">
        <ele>995.1</ele>
        <time>2015-06-20T12:53:17Z</time>
      </trkpt>
      <trkpt lat="45.71138" lon="2.92563">
        <ele>992.22</ele>
        <time>2015-06-20T12:53:22Z</time>
      </trkpt>
      <trkpt lat="45.71141" lon="2.92508">
        <ele>992.22</ele>
        <time>2015-06-20T12:53:28Z</time>
      </trkpt>
      <trkpt lat="45.71139" lon="2.925">
        <ele>991.74</ele>
        <time>2015-06-20T12:53:29Z</time>
      </trkpt>
      <trkpt lat="45.71137" lon="2.92492">
        <ele>991.74</ele>
        <time>2015-06-20T12:53:30Z</time>
      </trkpt>
      <trkpt lat="45.71108" lon="2.92414">
        <ele>989.33</ele>
        <time>2015-06-20T12:53:40Z</time>
      </trkpt>
      <trkpt lat="45.71106" lon="2.92407">
        <ele>989.33</ele>
        <time>2015-06-20T12:53:41Z</time>
      </trkpt>
      <trkpt lat="45.71088" lon="2.92335">
        <ele>990.78</ele>
        <time>2015-06-20T12:53:53Z</time>
      </trkpt>
      <trkpt lat="45.71089" lon="2.92318">
        <ele>990.78</ele>
        <time>2015-06-20T12:53:56Z</time>
      </trkpt>
      <trkpt lat="45.71089" lon="2.92312">
        <ele>990.78</ele>
        <time>2015-06-20T12:53:57Z</time>
      </trkpt>
      <trkpt lat="45.71092" lon="2.92291">
        <ele>989.33</ele>
        <time>2015-06-20T12:54:00Z</time>
      </trkpt>
      <trkpt lat="45.71097" lon="2.92239">
        <ele>986.93</ele>
        <time>2015-06-20T12:54:06Z</time>
      </trkpt>
      <trkpt lat="45.71096" lon="2.92229">
        <ele>986.45</ele>
        <time>2015-06-20T12:54:07Z</time>
      </trkpt>
      <trkpt lat="45.71095" lon="2.9222">
        <ele>987.41</ele>
        <time>2015-06-20T12:54:08Z</time>
      </trkpt>
      <trkpt lat="45.71081" lon="2.92154">
        <ele>988.85</ele>
        <time>2015-06-20T12:54:18Z</time>
      </trkpt>
      <trkpt lat="45.71077" lon="2.92123">
        <ele>989.33</ele>
        <time>2015-06-20T12:54:23Z</time>
      </trkpt>
      <trkpt lat="45.71076" lon="2.92117">
        <ele>989.33</ele>
        <time>2015-06-20T12:54:24Z</time>
      </trkpt>
      <trkpt lat="45.71072" lon="2.92096">
        <ele>991.26</ele>
        <time>2015-06-20T12:54:28Z</time>
      </trkpt>
      <trkpt lat="45.71054" lon="2.92056">
        <ele>994.14</ele>
        <time>2015-06-20T12:54:39Z</time>
      </trkpt>
      <trkpt lat="45.71033" lon="2.92017">
        <ele>995.58</ele>
        <time>2015-06-20T12:54:51Z</time>
      </trkpt>
      <trkpt lat="45.7102" lon="2.91976">
        <ele>994.62</ele>
        <time>2015-06-20T12:55:00Z</time>
      </trkpt>
      <trkpt lat="45.71019" lon="2.9197">
        <ele>994.14</ele>
        <time>2015-06-20T12:55:01Z</time>
      </trkpt>
      <trkpt lat="45.71014" lon="2.9195">
        <ele>993.66</ele>
        <time>2015-06-20T12:55:04Z</time>
      </trkpt>
      <trkpt lat="45.71012" lon="2.91943">
        <ele>993.18</ele>
        <time>2015-06-20T12:55:05Z</time>
      </trkpt>
      <trkpt lat="45.70993" lon="2.91902">
        <ele>992.22</ele>
        <time>2015-06-20T12:55:11Z</time>
      </trkpt>
      <trkpt lat="45.7099" lon="2.91896">
        <ele>992.22</ele>
        <time>2015-06-20T12:55:12Z</time>
      </trkpt>
      <trkpt lat="45.7097" lon="2.91852">
        <ele>991.74</ele>
        <time>2015-06-20T12:55:19Z</time>
      </trkpt>
      <trkpt lat="45.70968" lon="2.91846">
        <ele>991.74</ele>
        <time>2015-06-20T12:55:20Z</time>
      </trkpt>
      <trkpt lat="45.70967" lon="2.91839">
        <ele>991.74</ele>
        <time>2015-06-20T12:55:21Z</time>
      </trkpt>
      <trkpt lat="45.70964" lon="2.9182">
        <ele>990.78</ele>
        <time>2015-06-20T12:55:24Z</time>
      </trkpt>
      <trkpt lat="45.70963" lon="2.91805">
        <ele>990.78</ele>
        <time>2015-06-20T12:55:26Z</time>
      </trkpt>
      <trkpt lat="45.70954" lon="2.91708">
        <ele>986.93</ele>
        <time>2015-06-20T12:55:38Z</time>
      </trkpt>
      <trkpt lat="45.70949" lon="2.91672">
        <ele>985.49</ele>
        <time>2015-06-20T12:55:42Z</time>
      </trkpt>
      <trkpt lat="45.70944" lon="2.91643">
        <ele>984.05</ele>
        <time>2015-06-20T12:55:45Z</time>
      </trkpt>
      <trkpt lat="45.70939" lon="2.91607">
        <ele>980.68</ele>
        <time>2015-06-20T12:55:48Z</time>
      </trkpt>
      <trkpt lat="45.70935" lon="2.91574">
        <ele>978.76</ele>
        <time>2015-06-20T12:55:51Z</time>
      </trkpt>
      <trkpt lat="45.70931" lon="2.91543">
        <ele>975.39</ele>
        <time>2015-06-20T12:55:54Z</time>
      </trkpt>
      <trkpt lat="45.7093" lon="2.91534">
        <ele>975.39</ele>
        <time>2015-06-20T12:55:55Z</time>
      </trkpt>
      <trkpt lat="45.70931" lon="2.91527">
        <ele>974.91</ele>
        <time>2015-06-20T12:55:56Z</time>
      </trkpt>
      <trkpt lat="45.70932" lon="2.91521">
        <ele>974.43</ele>
        <time>2015-06-20T12:55:57Z</time>
      </trkpt>
      <trkpt lat="45.70934" lon="2.91512">
        <ele>973.95</ele>
        <time>2015-06-20T12:55:59Z</time>
      </trkpt>
      <trkpt lat="45.70936" lon="2.91509">
        <ele>973.47</ele>
        <time>2015-06-20T12:56:00Z</time>
      </trkpt>
      <trkpt lat="45.70938" lon="2.91506">
        <ele>972.99</ele>
        <time>2015-06-20T12:56:01Z</time>
      </trkpt>
      <trkpt lat="45.70942" lon="2.91505">
        <ele>972.51</ele>
        <time>2015-06-20T12:56:02Z</time>
      </trkpt>
      <trkpt lat="45.70946" lon="2.91502">
        <ele>972.51</ele>
        <time>2015-06-20T12:56:03Z</time>
      </trkpt>
      <trkpt lat="45.70949" lon="2.91499">
        <ele>972.03</ele>
        <time>2015-06-20T12:56:04Z</time>
      </trkpt>
      <trkpt lat="45.7095" lon="2.91494">
        <ele>971.55</ele>
        <time>2015-06-20T12:56:05Z</time>
      </trkpt>
      <trkpt lat="45.70951" lon="2.91488">
        <ele>970.59</ele>
        <time>2015-06-20T12:56:06Z</time>
      </trkpt>
      <trkpt lat="45.7095" lon="2.91482">
        <ele>969.63</ele>
        <time>2015-06-20T12:56:07Z</time>
      </trkpt>
      <trkpt lat="45.70948" lon="2.91476">
        <ele>969.63</ele>
        <time>2015-06-20T12:56:08Z</time>
      </trkpt>
      <trkpt lat="45.70944" lon="2.91471">
        <ele>968.67</ele>
        <time>2015-06-20T12:56:09Z</time>
      </trkpt>
      <trkpt lat="45.7094" lon="2.91467">
        <ele>968.67</ele>
        <time>2015-06-20T12:56:10Z</time>
      </trkpt>
      <trkpt lat="45.70935" lon="2.91463">
        <ele>968.18</ele>
        <time>2015-06-20T12:56:11Z</time>
      </trkpt>
      <trkpt lat="45.70928" lon="2.91462">
        <ele>967.7</ele>
        <time>2015-06-20T12:56:12Z</time>
      </trkpt>
      <trkpt lat="45.70922" lon="2.91461">
        <ele>966.74</ele>
        <time>2015-06-20T12:56:13Z</time>
      </trkpt>
      <trkpt lat="45.70915" lon="2.9146">
        <ele>966.26</ele>
        <time>2015-06-20T12:56:14Z</time>
      </trkpt>
      <trkpt lat="45.70893" lon="2.91458">
        <ele>964.82</ele>
        <time>2015-06-20T12:56:17Z</time>
      </trkpt>
      <trkpt lat="45.70867" lon="2.91457">
        <ele>963.38</ele>
        <time>2015-06-20T12:56:21Z</time>
      </trkpt>
      <trkpt lat="45.70861" lon="2.91455">
        <ele>962.9</ele>
        <time>2015-06-20T12:56:22Z</time>
      </trkpt>
      <trkpt lat="45.70855" lon="2.91453">
        <ele>962.42</ele>
        <time>2015-06-20T12:56:23Z</time>
      </trkpt>
      <trkpt lat="45.70849" lon="2.9145">
        <ele>961.46</ele>
        <time>2015-06-20T12:56:24Z</time>
      </trkpt>
      <trkpt lat="45.70842" lon="2.91445">
        <ele>960.49</ele>
        <time>2015-06-20T12:56:25Z</time>
      </trkpt>
      <trkpt lat="45.70834" lon="2.9144">
        <ele>959.53</ele>
        <time>2015-06-20T12:56:26Z</time>
      </trkpt>
      <trkpt lat="45.70808" lon="2.91415">
        <ele>956.17</ele>
        <time>2015-06-20T12:56:30Z</time>
      </trkpt>
      <trkpt lat="45.70801" lon="2.91411">
        <ele>955.21</ele>
        <time>2015-06-20T12:56:31Z</time>
      </trkpt>
      <trkpt lat="45.70794" lon="2.91406">
        <ele>954.73</ele>
        <time>2015-06-20T12:56:32Z</time>
      </trkpt>
      <trkpt lat="45.70786" lon="2.91403">
        <ele>953.28</ele>
        <time>2015-06-20T12:56:33Z</time>
      </trkpt>
      <trkpt lat="45.70779" lon="2.91401">
        <ele>952.32</ele>
        <time>2015-06-20T12:56:34Z</time>
      </trkpt>
      <trkpt lat="45.70751" lon="2.91395">
        <ele>949.44</ele>
        <time>2015-06-20T12:56:38Z</time>
      </trkpt>
      <trkpt lat="45.70725" lon="2.91389">
        <ele>946.56</ele>
        <time>2015-06-20T12:56:42Z</time>
      </trkpt>
      <trkpt lat="45.70699" lon="2.91376">
        <ele>943.19</ele>
        <time>2015-06-20T12:56:46Z</time>
      </trkpt>
      <trkpt lat="45.70687" lon="2.91368">
        <ele>942.23</ele>
        <time>2015-06-20T12:56:48Z</time>
      </trkpt>
      <trkpt lat="45.70682" lon="2.91365">
        <ele>941.75</ele>
        <time>2015-06-20T12:56:49Z</time>
      </trkpt>
      <trkpt lat="45.70676" lon="2.91363">
        <ele>941.75</ele>
        <time>2015-06-20T12:56:50Z</time>
      </trkpt>
      <trkpt lat="45.7067" lon="2.91362">
        <ele>940.79</ele>
        <time>2015-06-20T12:56:51Z</time>
      </trkpt>
      <trkpt lat="45.70664" lon="2.91361">
        <ele>940.79</ele>
        <time>2015-06-20T12:56:52Z</time>
      </trkpt>
      <trkpt lat="45.70658" lon="2.91362">
        <ele>939.83</ele>
        <time>2015-06-20T12:56:53Z</time>
      </trkpt>
      <trkpt lat="45.70651" lon="2.91361">
        <ele>939.83</ele>
        <time>2015-06-20T12:56:54Z</time>
      </trkpt>
      <trkpt lat="45.70645" lon="2.9136">
        <ele>939.35</ele>
        <time>2015-06-20T12:56:55Z</time>
      </trkpt>
      <trkpt lat="45.70639" lon="2.91359">
        <ele>938.86</ele>
        <time>2015-06-20T12:56:56Z</time>
      </trkpt>
      <trkpt lat="45.70627" lon="2.91359">
        <ele>939.35</ele>
        <time>2015-06-20T12:56:58Z</time>
      </trkpt>
      <trkpt lat="45.70622" lon="2.91359">
        <ele>939.35</ele>
        <time>2015-06-20T12:56:59Z</time>
      </trkpt>
      <trkpt lat="45.70619" lon="2.91356">
        <ele>939.35</ele>
        <time>2015-06-20T12:57:00Z</time>
      </trkpt>
      <trkpt lat="45.7061" lon="2.91348">
        <ele>938.38</ele>
        <time>2015-06-20T12:57:03Z</time>
      </trkpt>
      <trkpt lat="45.70606" lon="2.91346">
        <ele>937.9</ele>
        <time>2015-06-20T12:57:04Z</time>
      </trkpt>
      <trkpt lat="45.706" lon="2.91347">
        <ele>937.42</ele>
        <time>2015-06-20T12:57:05Z</time>
      </trkpt>
      <trkpt lat="45.70595" lon="2.91349">
        <ele>936.46</ele>
        <time>2015-06-20T12:57:06Z</time>
      </trkpt>
      <trkpt lat="45.70589" lon="2.91351">
        <ele>935.98</ele>
        <time>2015-06-20T12:57:07Z</time>
      </trkpt>
      <trkpt lat="45.70583" lon="2.91354">
        <ele>935.98</ele>
        <time>2015-06-20T12:57:08Z</time>
      </trkpt>
      <trkpt lat="45.70578" lon="2.91357">
        <ele>936.94</ele>
        <time>2015-06-20T12:57:09Z</time>
      </trkpt>
      <trkpt lat="45.70574" lon="2.91361">
        <ele>936.46</ele>
        <time>2015-06-20T12:57:10Z</time>
      </trkpt>
      <trkpt lat="45.7057" lon="2.91365">
        <ele>936.46</ele>
        <time>2015-06-20T12:57:11Z</time>
      </trkpt>
      <trkpt lat="45.70566" lon="2.91368">
        <ele>936.46</ele>
        <time>2015-06-20T12:57:12Z</time>
      </trkpt>
      <trkpt lat="45.70538" lon="2.91399">
        <ele>938.38</ele>
        <time>2015-06-20T12:57:22Z</time>
      </trkpt>
      <trkpt lat="45.70513" lon="2.91433">
        <ele>939.35</ele>
        <time>2015-06-20T12:57:33Z</time>
      </trkpt>
      <trkpt lat="45.70496" lon="2.91457">
        <ele>940.79</ele>
        <time>2015-06-20T12:57:43Z</time>
      </trkpt>
      <trkpt lat="45.70484" lon="2.91481">
        <ele>943.19</ele>
        <time>2015-06-20T12:57:53Z</time>
      </trkpt>
      <trkpt lat="45.70461" lon="2.9151">
        <ele>942.71</ele>
        <time>2015-06-20T12:58:03Z</time>
      </trkpt>
      <trkpt lat="45.70442" lon="2.91528">
        <ele>945.11</ele>
        <time>2015-06-20T12:58:13Z</time>
      </trkpt>
      <trkpt lat="45.70413" lon="2.91555">
        <ele>946.07</ele>
        <time>2015-06-20T12:58:26Z</time>
      </trkpt>
      <trkpt lat="45.70385" lon="2.91585">
        <ele>948.96</ele>
        <time>2015-06-20T12:58:41Z</time>
      </trkpt>
      <trkpt lat="45.70367" lon="2.91628">
        <ele>950.4</ele>
        <time>2015-06-20T12:58:55Z</time>
      </trkpt>
      <trkpt lat="45.70363" lon="2.91636">
        <ele>950.88</ele>
        <time>2015-06-20T12:58:58Z</time>
      </trkpt>
      <trkpt lat="45.70361" lon="2.91638">
        <ele>950.88</ele>
        <time>2015-06-20T12:58:59Z</time>
      </trkpt>
      <trkpt lat="45.70326" lon="2.9165">
        <ele>949.92</ele>
        <time>2015-06-20T12:59:10Z</time>
      </trkpt>
      <trkpt lat="45.70295" lon="2.91669">
        <ele>951.36</ele>
        <time>2015-06-20T12:59:22Z</time>
      </trkpt>
      <trkpt lat="45.70267" lon="2.91675">
        <ele>951.36</ele>
        <time>2015-06-20T12:59:32Z</time>
      </trkpt>
      <trkpt lat="45.70236" lon="2.91682">
        <ele>952.8</ele>
        <time>2015-06-20T12:59:45Z</time>
      </trkpt>
      <trkpt lat="45.70208" lon="2.917">
        <ele>954.25</ele>
        <time>2015-06-20T12:59:56Z</time>
      </trkpt>
      <trkpt lat="45.7017" lon="2.91731">
        <ele>955.69</ele>
        <time>2015-06-20T13:00:10Z</time>
      </trkpt>
      <trkpt lat="45.70152" lon="2.9176">
        <ele>956.17</ele>
        <time>2015-06-20T13:00:20Z</time>
      </trkpt>
      <trkpt lat="45.70126" lon="2.91801">
        <ele>957.61</ele>
        <time>2015-06-20T13:00:34Z</time>
      </trkpt>
      <trkpt lat="45.70092" lon="2.9181">
        <ele>958.57</ele>
        <time>2015-06-20T13:00:47Z</time>
      </trkpt>
      <trkpt lat="45.70066" lon="2.91817">
        <ele>959.53</ele>
        <time>2015-06-20T13:00:58Z</time>
      </trkpt>
      <trkpt lat="45.7004" lon="2.91828">
        <ele>961.46</ele>
        <time>2015-06-20T13:01:11Z</time>
      </trkpt>
      <trkpt lat="45.7003" lon="2.91833">
        <ele>962.42</ele>
        <time>2015-06-20T13:01:17Z</time>
      </trkpt>
      <trkpt lat="45.70029" lon="2.91833">
        <ele>962.42</ele>
        <time>2015-06-20T13:01:18Z</time>
      </trkpt>
      <trkpt lat="45.70028" lon="2.91833">
        <ele>962.9</ele>
        <time>2015-06-20T13:01:19Z</time>
      </trkpt>
      <trkpt lat="45.70026" lon="2.91833">
        <ele>962.9</ele>
        <time>2015-06-20T13:01:20Z</time>
      </trkpt>
      <trkpt lat="45.70025" lon="2.91833">
        <ele>963.38</ele>
        <time>2015-06-20T13:01:21Z</time>
      </trkpt>
      <trkpt lat="45.70016" lon="2.91833">
        <ele>964.82</ele>
        <time>2015-06-20T13:01:28Z</time>
      </trkpt>
      <trkpt lat="45.70013" lon="2.91832">
        <ele>965.3</ele>
        <time>2015-06-20T13:01:30Z</time>
      </trkpt>
      <trkpt lat="45.70012" lon="2.91833">
        <ele>965.3</ele>
        <time>2015-06-20T13:01:31Z</time>
      </trkpt>
      <trkpt lat="45.70006" lon="2.91832">
        <ele>966.26</ele>
        <time>2015-06-20T13:01:36Z</time>
      </trkpt>
      <trkpt lat="45.70003" lon="2.91832">
        <ele>966.74</ele>
        <time>2015-06-20T13:01:38Z</time>
      </trkpt>
      <trkpt lat="45.69984" lon="2.91832">
        <ele>968.67</ele>
        <time>2015-06-20T13:01:50Z</time>
      </trkpt>
      <trkpt lat="45.69962" lon="2.91829">
        <ele>970.11</ele>
        <time>2015-06-20T13:02:03Z</time>
      </trkpt>
      <trkpt lat="45.69941" lon="2.91827">
        <ele>972.03</ele>
        <time>2015-06-20T13:02:16Z</time>
      </trkpt>
      <trkpt lat="45.69917" lon="2.91832">
        <ele>973.95</ele>
        <time>2015-06-20T13:02:30Z</time>
      </trkpt>
      <trkpt lat="45.69888" lon="2.91851">
        <ele>974.91</ele>
        <time>2015-06-20T13:02:43Z</time>
      </trkpt>
      <trkpt lat="45.69867" lon="2.91875">
        <ele>973.47</ele>
        <time>2015-06-20T13:02:51Z</time>
      </trkpt>
      <trkpt lat="45.69855" lon="2.91891">
        <ele>972.03</ele>
        <time>2015-06-20T13:02:54Z</time>
      </trkpt>
      <trkpt lat="45.6985" lon="2.91897">
        <ele>972.03</ele>
        <time>2015-06-20T13:02:55Z</time>
      </trkpt>
      <trkpt lat="45.69803" lon="2.91952">
        <ele>970.11</ele>
        <time>2015-06-20T13:03:04Z</time>
      </trkpt>
      <trkpt lat="45.69796" lon="2.91956">
        <ele>970.11</ele>
        <time>2015-06-20T13:03:05Z</time>
      </trkpt>
      <trkpt lat="45.69746" lon="2.91975">
        <ele>969.63</ele>
        <time>2015-06-20T13:03:13Z</time>
      </trkpt>
      <trkpt lat="45.69683" lon="2.92002">
        <ele>971.07</ele>
        <time>2015-06-20T13:03:26Z</time>
      </trkpt>
      <trkpt lat="45.69659" lon="2.92019">
        <ele>971.07</ele>
        <time>2015-06-20T13:03:32Z</time>
      </trkpt>
      <trkpt lat="45.696" lon="2.92057">
        <ele>972.03</ele>
        <time>2015-06-20T13:03:47Z</time>
      </trkpt>
      <trkpt lat="45.69597" lon="2.9206">
        <ele>972.03</ele>
        <time>2015-06-20T13:03:48Z</time>
      </trkpt>
      <trkpt lat="45.69559" lon="2.92093">
        <ele>971.07</ele>
        <time>2015-06-20T13:03:57Z</time>
      </trkpt>
      <trkpt lat="45.69555" lon="2.92098">
        <ele>971.07</ele>
        <time>2015-06-20T13:03:58Z</time>
      </trkpt>
      <trkpt lat="45.69506" lon="2.92181">
        <ele>970.11</ele>
        <time>2015-06-20T13:04:12Z</time>
      </trkpt>
      <trkpt lat="45.69454" lon="2.9227">
        <ele>969.63</ele>
        <time>2015-06-20T13:04:28Z</time>
      </trkpt>
      <trkpt lat="45.69447" lon="2.92282">
        <ele>969.63</ele>
        <time>2015-06-20T13:04:30Z</time>
      </trkpt>
      <trkpt lat="45.6944" lon="2.92293">
        <ele>969.63</ele>
        <time>2015-06-20T13:04:32Z</time>
      </trkpt>
      <trkpt lat="45.69413" lon="2.9234">
        <ele>970.11</ele>
        <time>2015-06-20T13:04:41Z</time>
      </trkpt>
      <trkpt lat="45.69367" lon="2.92418">
        <ele>971.07</ele>
        <time>2015-06-20T13:04:57Z</time>
      </trkpt>
      <trkpt lat="45.6934" lon="2.92466">
        <ele>971.55</ele>
        <time>2015-06-20T13:05:07Z</time>
      </trkpt>
      <trkpt lat="45.69337" lon="2.9247">
        <ele>971.55</ele>
        <time>2015-06-20T13:05:08Z</time>
      </trkpt>
      <trkpt lat="45.69322" lon="2.92498">
        <ele>971.07</ele>
        <time>2015-06-20T13:05:13Z</time>
      </trkpt>
      <trkpt lat="45.6932" lon="2.92504">
        <ele>971.07</ele>
        <time>2015-06-20T13:05:14Z</time>
      </trkpt>
      <trkpt lat="45.69317" lon="2.9251">
        <ele>970.59</ele>
        <time>2015-06-20T13:05:15Z</time>
      </trkpt>
      <trkpt lat="45.69305" lon="2.92554">
        <ele>971.07</ele>
        <time>2015-06-20T13:05:22Z</time>
      </trkpt>
      <trkpt lat="45.69303" lon="2.92559">
        <ele>971.55</ele>
        <time>2015-06-20T13:05:23Z</time>
      </trkpt>
      <trkpt lat="45.69275" lon="2.92648">
        <ele>972.51</ele>
        <time>2015-06-20T13:05:39Z</time>
      </trkpt>
      <trkpt lat="45.69272" lon="2.92659">
        <ele>972.51</ele>
        <time>2015-06-20T13:05:41Z</time>
      </trkpt>
      <trkpt lat="45.6926" lon="2.92697">
        <ele>973.47</ele>
        <time>2015-06-20T13:05:48Z</time>
      </trkpt>
      <trkpt lat="45.69259" lon="2.92702">
        <ele>973.95</ele>
        <time>2015-06-20T13:05:49Z</time>
      </trkpt>
      <trkpt lat="45.69257" lon="2.92708">
        <ele>973.95</ele>
        <time>2015-06-20T13:05:50Z</time>
      </trkpt>
      <trkpt lat="45.69231" lon="2.92781">
        <ele>975.39</ele>
        <time>2015-06-20T13:06:05Z</time>
      </trkpt>
      <trkpt lat="45.69207" lon="2.92841">
        <ele>976.36</ele>
        <time>2015-06-20T13:06:18Z</time>
      </trkpt>
      <trkpt lat="45.69173" lon="2.92927">
        <ele>976.84</ele>
        <time>2015-06-20T13:06:36Z</time>
      </trkpt>
      <trkpt lat="45.69149" lon="2.92983">
        <ele>976.84</ele>
        <time>2015-06-20T13:06:48Z</time>
      </trkpt>
      <trkpt lat="45.69114" lon="2.93071">
        <ele>976.84</ele>
        <time>2015-06-20T13:07:06Z</time>
      </trkpt>
      <trkpt lat="45.69088" lon="2.93134">
        <ele>977.8</ele>
        <time>2015-06-20T13:07:20Z</time>
      </trkpt>
      <trkpt lat="45.69062" lon="2.93195">
        <ele>977.8</ele>
        <time>2015-06-20T13:07:34Z</time>
      </trkpt>
      <trkpt lat="45.69037" lon="2.93258">
        <ele>978.28</ele>
        <time>2015-06-20T13:07:48Z</time>
      </trkpt>
      <trkpt lat="45.69007" lon="2.9333">
        <ele>978.76</ele>
        <time>2015-06-20T13:08:03Z</time>
      </trkpt>
      <trkpt lat="45.69005" lon="2.93335">
        <ele>978.76</ele>
        <time>2015-06-20T13:08:04Z</time>
      </trkpt>
      <trkpt lat="45.69003" lon="2.9334">
        <ele>978.76</ele>
        <time>2015-06-20T13:08:05Z</time>
      </trkpt>
      <trkpt lat="45.68978" lon="2.93398">
        <ele>978.28</ele>
        <time>2015-06-20T13:08:18Z</time>
      </trkpt>
      <trkpt lat="45.68955" lon="2.93453">
        <ele>978.28</ele>
        <time>2015-06-20T13:08:29Z</time>
      </trkpt>
      <trkpt lat="45.68954" lon="2.93458">
        <ele>978.76</ele>
        <time>2015-06-20T13:08:30Z</time>
      </trkpt>
      <trkpt lat="45.68934" lon="2.9351">
        <ele>978.28</ele>
        <time>2015-06-20T13:08:41Z</time>
      </trkpt>
      <trkpt lat="45.68922" lon="2.93539">
        <ele>977.8</ele>
        <time>2015-06-20T13:08:47Z</time>
      </trkpt>
      <trkpt lat="45.68897" lon="2.93601">
        <ele>977.32</ele>
        <time>2015-06-20T13:08:59Z</time>
      </trkpt>
      <trkpt lat="45.68894" lon="2.93606">
        <ele>977.32</ele>
        <time>2015-06-20T13:09:00Z</time>
      </trkpt>
      <trkpt lat="45.68882" lon="2.93634">
        <ele>977.32</ele>
        <time>2015-06-20T13:09:05Z</time>
      </trkpt>
      <trkpt lat="45.68847" lon="2.9372">
        <ele>976.84</ele>
        <time>2015-06-20T13:09:21Z</time>
      </trkpt>
      <trkpt lat="45.68809" lon="2.93811">
        <ele>975.88</ele>
        <time>2015-06-20T13:09:38Z</time>
      </trkpt>
      <trkpt lat="45.68774" lon="2.93895">
        <ele>973.47</ele>
        <time>2015-06-20T13:09:52Z</time>
      </trkpt>
      <trkpt lat="45.68773" lon="2.939">
        <ele>973.95</ele>
        <time>2015-06-20T13:09:53Z</time>
      </trkpt>
      <trkpt lat="45.68774" lon="2.93904">
        <ele>973.95</ele>
        <time>2015-06-20T13:09:54Z</time>
      </trkpt>
      <trkpt lat="45.68776" lon="2.93908">
        <ele>973.95</ele>
        <time>2015-06-20T13:09:55Z</time>
      </trkpt>
      <trkpt lat="45.68779" lon="2.9391">
        <ele>973.47</ele>
        <time>2015-06-20T13:09:56Z</time>
      </trkpt>
      <trkpt lat="45.68781" lon="2.93911">
        <ele>973.47</ele>
        <time>2015-06-20T13:09:57Z</time>
      </trkpt>
      <trkpt lat="45.68784" lon="2.93912">
        <ele>973.47</ele>
        <time>2015-06-20T13:09:58Z</time>
      </trkpt>
      <trkpt lat="45.68828" lon="2.93925">
        <ele>974.43</ele>
        <time>2015-06-20T13:10:13Z</time>
      </trkpt>
      <trkpt lat="45.6886" lon="2.93942">
        <ele>974.91</ele>
        <time>2015-06-20T13:10:24Z</time>
      </trkpt>
      <trkpt lat="45.68902" lon="2.93956">
        <ele>975.88</ele>
        <time>2015-06-20T13:10:37Z</time>
      </trkpt>
      <trkpt lat="45.68925" lon="2.93964">
        <ele>976.84</ele>
        <time>2015-06-20T13:10:46Z</time>
      </trkpt>
      <trkpt lat="45.68927" lon="2.93965">
        <ele>976.84</ele>
        <time>2015-06-20T13:10:47Z</time>
      </trkpt>
      <trkpt lat="45.68929" lon="2.93966">
        <ele>976.36</ele>
        <time>2015-06-20T13:10:48Z</time>
      </trkpt>
      <trkpt lat="45.68954" lon="2.93976">
        <ele>977.32</ele>
        <time>2015-06-20T13:10:59Z</time>
      </trkpt>
      <trkpt lat="45.68979" lon="2.93983">
        <ele>979.72</ele>
        <time>2015-06-20T13:11:11Z</time>
      </trkpt>
      <trkpt lat="45.69015" lon="2.93987">
        <ele>976.84</ele>
        <time>2015-06-20T13:11:23Z</time>
      </trkpt>
      <trkpt lat="45.69047" lon="2.93999">
        <ele>977.32</ele>
        <time>2015-06-20T13:11:34Z</time>
      </trkpt>
      <trkpt lat="45.69086" lon="2.94012">
        <ele>978.28</ele>
        <time>2015-06-20T13:11:48Z</time>
      </trkpt>
      <trkpt lat="45.69108" lon="2.94019">
        <ele>979.24</ele>
        <time>2015-06-20T13:12:00Z</time>
      </trkpt>
      <trkpt lat="45.69129" lon="2.94028">
        <ele>980.2</ele>
        <time>2015-06-20T13:12:12Z</time>
      </trkpt>
      <trkpt lat="45.69153" lon="2.94035">
        <ele>981.64</ele>
        <time>2015-06-20T13:12:25Z</time>
      </trkpt>
      <trkpt lat="45.69169" lon="2.94039">
        <ele>983.57</ele>
        <time>2015-06-20T13:12:37Z</time>
      </trkpt>
      <trkpt lat="45.69176" lon="2.94041">
        <ele>984.05</ele>
        <time>2015-06-20T13:12:42Z</time>
      </trkpt>
      <trkpt lat="45.69177" lon="2.94042">
        <ele>984.05</ele>
        <time>2015-06-20T13:12:43Z</time>
      </trkpt>
      <trkpt lat="45.69178" lon="2.94042">
        <ele>984.53</ele>
        <time>2015-06-20T13:12:44Z</time>
      </trkpt>
      <trkpt lat="45.69196" lon="2.94049">
        <ele>985.97</ele>
        <time>2015-06-20T13:12:56Z</time>
      </trkpt>
      <trkpt lat="45.69213" lon="2.94053">
        <ele>987.41</ele>
        <time>2015-06-20T13:13:07Z</time>
      </trkpt>
      <trkpt lat="45.69223" lon="2.94059">
        <ele>989.33</ele>
        <time>2015-06-20T13:13:17Z</time>
      </trkpt>
      <trkpt lat="45.6924" lon="2.94067">
        <ele>990.78</ele>
        <time>2015-06-20T13:13:29Z</time>
      </trkpt>
      <trkpt lat="45.69252" lon="2.94067">
        <ele>992.7</ele>
        <time>2015-06-20T13:13:38Z</time>
      </trkpt>
      <trkpt lat="45.69262" lon="2.94066">
        <ele>993.66</ele>
        <time>2015-06-20T13:13:46Z</time>
      </trkpt>
      <trkpt lat="45.69277" lon="2.94064">
        <ele>995.1</ele>
        <time>2015-06-20T13:13:57Z</time>
      </trkpt>
      <trkpt lat="45.69283" lon="2.94064">
        <ele>995.58</ele>
        <time>2015-06-20T13:14:01Z</time>
      </trkpt>
      <trkpt lat="45.69285" lon="2.94064">
        <ele>995.58</ele>
        <time>2015-06-20T13:14:02Z</time>
      </trkpt>
      <trkpt lat="45.69287" lon="2.94065">
        <ele>996.06</ele>
        <time>2015-06-20T13:14:03Z</time>
      </trkpt>
      <trkpt lat="45.69288" lon="2.94065">
        <ele>996.06</ele>
        <time>2015-06-20T13:14:04Z</time>
      </trkpt>
      <trkpt lat="45.6929" lon="2.94065">
        <ele>996.06</ele>
        <time>2015-06-20T13:14:05Z</time>
      </trkpt>
      <trkpt lat="45.69291" lon="2.94065">
        <ele>996.06</ele>
        <time>2015-06-20T13:14:06Z</time>
      </trkpt>
      <trkpt lat="45.69293" lon="2.94065">
        <ele>996.54</ele>
        <time>2015-06-20T13:14:07Z</time>
      </trkpt>
      <trkpt lat="45.69294" lon="2.94065">
        <ele>996.54</ele>
        <time>2015-06-20T13:14:08Z</time>
      </trkpt>
      <trkpt lat="45.69296" lon="2.94066">
        <ele>996.54</ele>
        <time>2015-06-20T13:14:10Z</time>
      </trkpt>
      <trkpt lat="45.69297" lon="2.94066">
        <ele>997.02</ele>
        <time>2015-06-20T13:14:11Z</time>
      </trkpt>
      <trkpt lat="45.69317" lon="2.9407">
        <ele>998.95</ele>
        <time>2015-06-20T13:14:24Z</time>
      </trkpt>
      <trkpt lat="45.69318" lon="2.94071">
        <ele>998.95</ele>
        <time>2015-06-20T13:14:25Z</time>
      </trkpt>
      <trkpt lat="45.6932" lon="2.94072">
        <ele>998.95</ele>
        <time>2015-06-20T13:14:26Z</time>
      </trkpt>
      <trkpt lat="45.69336" lon="2.94073">
        <ele>999.43</ele>
        <time>2015-06-20T13:14:37Z</time>
      </trkpt>
      <trkpt lat="45.69344" lon="2.94072">
        <ele>999.43</ele>
        <time>2015-06-20T13:14:42Z</time>
      </trkpt>
      <trkpt lat="45.6935" lon="2.94071">
        <ele>999.91</ele>
        <time>2015-06-20T13:14:48Z</time>
      </trkpt>
      <trkpt lat="45.69352" lon="2.94072">
        <ele>999.91</ele>
        <time>2015-06-20T13:14:49Z</time>
      </trkpt>
      <trkpt lat="45.69354" lon="2.94074">
        <ele>999.43</ele>
        <time>2015-06-20T13:14:50Z</time>
      </trkpt>
      <trkpt lat="45.69356" lon="2.94075">
        <ele>999.43</ele>
        <time>2015-06-20T13:14:51Z</time>
      </trkpt>
      <trkpt lat="45.69358" lon="2.94076">
        <ele>999.43</ele>
        <time>2015-06-20T13:14:52Z</time>
      </trkpt>
      <trkpt lat="45.6936" lon="2.94077">
        <ele>999.43</ele>
        <time>2015-06-20T13:14:53Z</time>
      </trkpt>
      <trkpt lat="45.69362" lon="2.94077">
        <ele>999.91</ele>
        <time>2015-06-20T13:14:54Z</time>
      </trkpt>
      <trkpt lat="45.69384" lon="2.94087">
        <ele>999.91</ele>
        <time>2015-06-20T13:15:05Z</time>
      </trkpt>
      <trkpt lat="45.69406" lon="2.94095">
        <ele>999.43</ele>
        <time>2015-06-20T13:15:16Z</time>
      </trkpt>
      <trkpt lat="45.69425" lon="2.94097">
        <ele>999.43</ele>
        <time>2015-06-20T13:15:26Z</time>
      </trkpt>
      <trkpt lat="45.6945" lon="2.94102">
        <ele>999.43</ele>
        <time>2015-06-20T13:15:37Z</time>
      </trkpt>
      <trkpt lat="45.69461" lon="2.94105">
        <ele>999.43</ele>
        <time>2015-06-20T13:15:43Z</time>
      </trkpt>
      <trkpt lat="45.69481" lon="2.94127">
        <ele>999.43</ele>
        <time>2015-06-20T13:15:55Z</time>
      </trkpt>
      <trkpt lat="45.695" lon="2.94168">
        <ele>1000.87</ele>
        <time>2015-06-20T13:16:08Z</time>
      </trkpt>
      <trkpt lat="45.69516" lon="2.94204">
        <ele>1002.31</ele>
        <time>2015-06-20T13:16:21Z</time>
      </trkpt>
      <trkpt lat="45.69533" lon="2.94234">
        <ele>1004.23</ele>
        <time>2015-06-20T13:16:34Z</time>
      </trkpt>
      <trkpt lat="45.6955" lon="2.9427">
        <ele>1005.68</ele>
        <time>2015-06-20T13:16:48Z</time>
      </trkpt>
      <trkpt lat="45.69577" lon="2.94324">
        <ele>1003.75</ele>
        <time>2015-06-20T13:17:01Z</time>
      </trkpt>
      <trkpt lat="45.69601" lon="2.94368">
        <ele>1002.31</ele>
        <time>2015-06-20T13:17:10Z</time>
      </trkpt>
      <trkpt lat="45.69603" lon="2.94373">
        <ele>1003.27</ele>
        <time>2015-06-20T13:17:11Z</time>
      </trkpt>
      <trkpt lat="45.69641" lon="2.94454">
        <ele>1000.87</ele>
        <time>2015-06-20T13:17:25Z</time>
      </trkpt>
      <trkpt lat="45.69661" lon="2.94499">
        <ele>999.91</ele>
        <time>2015-06-20T13:17:32Z</time>
      </trkpt>
      <trkpt lat="45.69701" lon="2.94584">
        <ele>997.99</ele>
        <time>2015-06-20T13:17:45Z</time>
      </trkpt>
      <trkpt lat="45.69704" lon="2.94589">
        <ele>997.99</ele>
        <time>2015-06-20T13:17:46Z</time>
      </trkpt>
      <trkpt lat="45.69707" lon="2.94595">
        <ele>997.51</ele>
        <time>2015-06-20T13:17:47Z</time>
      </trkpt>
      <trkpt lat="45.6971" lon="2.946">
        <ele>997.51</ele>
        <time>2015-06-20T13:17:48Z</time>
      </trkpt>
      <trkpt lat="45.69713" lon="2.94605">
        <ele>997.51</ele>
        <time>2015-06-20T13:17:49Z</time>
      </trkpt>
      <trkpt lat="45.69716" lon="2.9461">
        <ele>996.54</ele>
        <time>2015-06-20T13:17:50Z</time>
      </trkpt>
      <trkpt lat="45.69719" lon="2.94616">
        <ele>996.54</ele>
        <time>2015-06-20T13:17:51Z</time>
      </trkpt>
      <trkpt lat="45.6973" lon="2.94634">
        <ele>995.1</ele>
        <time>2015-06-20T13:17:54Z</time>
      </trkpt>
      <trkpt lat="45.69733" lon="2.94641">
        <ele>994.62</ele>
        <time>2015-06-20T13:17:55Z</time>
      </trkpt>
      <trkpt lat="45.69743" lon="2.94668">
        <ele>993.66</ele>
        <time>2015-06-20T13:17:59Z</time>
      </trkpt>
      <trkpt lat="45.69752" lon="2.9469">
        <ele>993.66</ele>
        <time>2015-06-20T13:18:02Z</time>
      </trkpt>
      <trkpt lat="45.69754" lon="2.94699">
        <ele>993.18</ele>
        <time>2015-06-20T13:18:03Z</time>
      </trkpt>
      <trkpt lat="45.69758" lon="2.94722">
        <ele>993.18</ele>
        <time>2015-06-20T13:18:06Z</time>
      </trkpt>
      <trkpt lat="45.6976" lon="2.94729">
        <ele>992.7</ele>
        <time>2015-06-20T13:18:07Z</time>
      </trkpt>
      <trkpt lat="45.69767" lon="2.9474">
        <ele>993.18</ele>
        <time>2015-06-20T13:18:09Z</time>
      </trkpt>
      <trkpt lat="45.69769" lon="2.94747">
        <ele>992.7</ele>
        <time>2015-06-20T13:18:10Z</time>
      </trkpt>
      <trkpt lat="45.69771" lon="2.94752">
        <ele>992.7</ele>
        <time>2015-06-20T13:18:11Z</time>
      </trkpt>
      <trkpt lat="45.69775" lon="2.94758">
        <ele>992.7</ele>
        <time>2015-06-20T13:18:12Z</time>
      </trkpt>
      <trkpt lat="45.69777" lon="2.94763">
        <ele>992.7</ele>
        <time>2015-06-20T13:18:13Z</time>
      </trkpt>
      <trkpt lat="45.69779" lon="2.94769">
        <ele>992.7</ele>
        <time>2015-06-20T13:18:14Z</time>
      </trkpt>
      <trkpt lat="45.69781" lon="2.94775">
        <ele>992.7</ele>
        <time>2015-06-20T13:18:15Z</time>
      </trkpt>
      <trkpt lat="45.69783" lon="2.94781">
        <ele>992.22</ele>
        <time>2015-06-20T13:18:16Z</time>
      </trkpt>
      <trkpt lat="45.69785" lon="2.94786">
        <ele>992.22</ele>
        <time>2015-06-20T13:18:17Z</time>
      </trkpt>
      <trkpt lat="45.69787" lon="2.94792">
        <ele>992.22</ele>
        <time>2015-06-20T13:18:18Z</time>
      </trkpt>
      <trkpt lat="45.69788" lon="2.94797">
        <ele>992.22</ele>
        <time>2015-06-20T13:18:19Z</time>
      </trkpt>
      <trkpt lat="45.69791" lon="2.94802">
        <ele>992.22</ele>
        <time>2015-06-20T13:18:20Z</time>
      </trkpt>
      <trkpt lat="45.69792" lon="2.94807">
        <ele>992.22</ele>
        <time>2015-06-20T13:18:21Z</time>
      </trkpt>
      <trkpt lat="45.69795" lon="2.94812">
        <ele>992.22</ele>
        <time>2015-06-20T13:18:22Z</time>
      </trkpt>
      <trkpt lat="45.69808" lon="2.94851">
        <ele>991.26</ele>
        <time>2015-06-20T13:18:30Z</time>
      </trkpt>
      <trkpt lat="45.69815" lon="2.94867">
        <ele>991.26</ele>
        <time>2015-06-20T13:18:33Z</time>
      </trkpt>
      <trkpt lat="45.69817" lon="2.94872">
        <ele>991.26</ele>
        <time>2015-06-20T13:18:34Z</time>
      </trkpt>
      <trkpt lat="45.6982" lon="2.94878">
        <ele>991.26</ele>
        <time>2015-06-20T13:18:35Z</time>
      </trkpt>
      <trkpt lat="45.69822" lon="2.94883">
        <ele>991.26</ele>
        <time>2015-06-20T13:18:36Z</time>
      </trkpt>
      <trkpt lat="45.69823" lon="2.94887">
        <ele>991.26</ele>
        <time>2015-06-20T13:18:37Z</time>
      </trkpt>
      <trkpt lat="45.69825" lon="2.94892">
        <ele>991.26</ele>
        <time>2015-06-20T13:18:38Z</time>
      </trkpt>
      <trkpt lat="45.69827" lon="2.94898">
        <ele>990.78</ele>
        <time>2015-06-20T13:18:39Z</time>
      </trkpt>
      <trkpt lat="45.69836" lon="2.94918">
        <ele>990.3</ele>
        <time>2015-06-20T13:18:43Z</time>
      </trkpt>
      <trkpt lat="45.69839" lon="2.94923">
        <ele>990.3</ele>
        <time>2015-06-20T13:18:44Z</time>
      </trkpt>
      <trkpt lat="45.69842" lon="2.94929">
        <ele>990.3</ele>
        <time>2015-06-20T13:18:45Z</time>
      </trkpt>
      <trkpt lat="45.69845" lon="2.94935">
        <ele>990.3</ele>
        <time>2015-06-20T13:18:46Z</time>
      </trkpt>
      <trkpt lat="45.69847" lon="2.9494">
        <ele>990.3</ele>
        <time>2015-06-20T13:18:47Z</time>
      </trkpt>
      <trkpt lat="45.69848" lon="2.94945">
        <ele>989.81</ele>
        <time>2015-06-20T13:18:48Z</time>
      </trkpt>
      <trkpt lat="45.69849" lon="2.9495">
        <ele>989.81</ele>
        <time>2015-06-20T13:18:49Z</time>
      </trkpt>
      <trkpt lat="45.6985" lon="2.94955">
        <ele>989.81</ele>
        <time>2015-06-20T13:18:50Z</time>
      </trkpt>
      <trkpt lat="45.69855" lon="2.94965">
        <ele>989.81</ele>
        <time>2015-06-20T13:18:52Z</time>
      </trkpt>
      <trkpt lat="45.69858" lon="2.94971">
        <ele>989.33</ele>
        <time>2015-06-20T13:18:53Z</time>
      </trkpt>
      <trkpt lat="45.6986" lon="2.94977">
        <ele>989.33</ele>
        <time>2015-06-20T13:18:54Z</time>
      </trkpt>
      <trkpt lat="45.69868" lon="2.94994">
        <ele>989.33</ele>
        <time>2015-06-20T13:18:57Z</time>
      </trkpt>
      <trkpt lat="45.69871" lon="2.95">
        <ele>989.33</ele>
        <time>2015-06-20T13:18:58Z</time>
      </trkpt>
      <trkpt lat="45.69873" lon="2.95006">
        <ele>989.33</ele>
        <time>2015-06-20T13:18:59Z</time>
      </trkpt>
      <trkpt lat="45.69876" lon="2.95011">
        <ele>989.33</ele>
        <time>2015-06-20T13:19:00Z</time>
      </trkpt>
      <trkpt lat="45.69878" lon="2.95017">
        <ele>988.85</ele>
        <time>2015-06-20T13:19:01Z</time>
      </trkpt>
      <trkpt lat="45.69879" lon="2.95023">
        <ele>988.85</ele>
        <time>2015-06-20T13:19:02Z</time>
      </trkpt>
      <trkpt lat="45.69881" lon="2.95029">
        <ele>989.33</ele>
        <time>2015-06-20T13:19:03Z</time>
      </trkpt>
      <trkpt lat="45.69883" lon="2.95035">
        <ele>989.33</ele>
        <time>2015-06-20T13:19:04Z</time>
      </trkpt>
      <trkpt lat="45.69885" lon="2.95042">
        <ele>988.85</ele>
        <time>2015-06-20T13:19:05Z</time>
      </trkpt>
      <trkpt lat="45.69888" lon="2.95047">
        <ele>988.85</ele>
        <time>2015-06-20T13:19:06Z</time>
      </trkpt>
      <trkpt lat="45.6989" lon="2.95053">
        <ele>988.85</ele>
        <time>2015-06-20T13:19:07Z</time>
      </trkpt>
      <trkpt lat="45.69891" lon="2.95059">
        <ele>988.85</ele>
        <time>2015-06-20T13:19:08Z</time>
      </trkpt>
      <trkpt lat="45.69897" lon="2.95079">
        <ele>989.33</ele>
        <time>2015-06-20T13:19:11Z</time>
      </trkpt>
      <trkpt lat="45.69903" lon="2.95092">
        <ele>987.89</ele>
        <time>2015-06-20T13:19:13Z</time>
      </trkpt>
      <trkpt lat="45.69905" lon="2.95098">
        <ele>987.89</ele>
        <time>2015-06-20T13:19:14Z</time>
      </trkpt>
      <trkpt lat="45.69907" lon="2.95105">
        <ele>987.89</ele>
        <time>2015-06-20T13:19:15Z</time>
      </trkpt>
      <trkpt lat="45.69912" lon="2.95126">
        <ele>987.41</ele>
        <time>2015-06-20T13:19:18Z</time>
      </trkpt>
      <trkpt lat="45.69915" lon="2.9514">
        <ele>987.41</ele>
        <time>2015-06-20T13:19:20Z</time>
      </trkpt>
      <trkpt lat="45.69918" lon="2.95153">
        <ele>987.41</ele>
        <time>2015-06-20T13:19:22Z</time>
      </trkpt>
      <trkpt lat="45.69919" lon="2.95159">
        <ele>987.41</ele>
        <time>2015-06-20T13:19:23Z</time>
      </trkpt>
      <trkpt lat="45.6992" lon="2.95166">
        <ele>987.41</ele>
        <time>2015-06-20T13:19:24Z</time>
      </trkpt>
      <trkpt lat="45.69931" lon="2.9522">
        <ele>987.41</ele>
        <time>2015-06-20T13:19:34Z</time>
      </trkpt>
      <trkpt lat="45.69935" lon="2.95251">
        <ele>988.37</ele>
        <time>2015-06-20T13:19:42Z</time>
      </trkpt>
      <trkpt lat="45.69941" lon="2.95293">
        <ele>989.81</ele>
        <time>2015-06-20T13:19:52Z</time>
      </trkpt>
      <trkpt lat="45.69943" lon="2.95315">
        <ele>990.78</ele>
        <time>2015-06-20T13:19:57Z</time>
      </trkpt>
      <trkpt lat="45.69943" lon="2.95318">
        <ele>990.78</ele>
        <time>2015-06-20T13:19:58Z</time>
      </trkpt>
      <trkpt lat="45.69945" lon="2.9532">
        <ele>991.26</ele>
        <time>2015-06-20T13:19:59Z</time>
      </trkpt>
      <trkpt lat="45.69946" lon="2.95322">
        <ele>991.26</ele>
        <time>2015-06-20T13:20:00Z</time>
      </trkpt>
      <trkpt lat="45.69947" lon="2.95324">
        <ele>991.74</ele>
        <time>2015-06-20T13:20:01Z</time>
      </trkpt>
      <trkpt lat="45.69948" lon="2.95326">
        <ele>991.74</ele>
        <time>2015-06-20T13:20:02Z</time>
      </trkpt>
      <trkpt lat="45.69949" lon="2.95333">
        <ele>992.22</ele>
        <time>2015-06-20T13:20:05Z</time>
      </trkpt>
      <trkpt lat="45.69949" lon="2.95337">
        <ele>992.7</ele>
        <time>2015-06-20T13:20:06Z</time>
      </trkpt>
      <trkpt lat="45.6995" lon="2.95339">
        <ele>992.7</ele>
        <time>2015-06-20T13:20:07Z</time>
      </trkpt>
      <trkpt lat="45.69951" lon="2.95342">
        <ele>992.7</ele>
        <time>2015-06-20T13:20:08Z</time>
      </trkpt>
      <trkpt lat="45.69951" lon="2.95344">
        <ele>992.7</ele>
        <time>2015-06-20T13:20:09Z</time>
      </trkpt>
      <trkpt lat="45.69951" lon="2.95346">
        <ele>993.18</ele>
        <time>2015-06-20T13:20:10Z</time>
      </trkpt>
      <trkpt lat="45.69952" lon="2.95348">
        <ele>993.18</ele>
        <time>2015-06-20T13:20:11Z</time>
      </trkpt>
      <trkpt lat="45.69952" lon="2.9535">
        <ele>993.18</ele>
        <time>2015-06-20T13:20:12Z</time>
      </trkpt>
      <trkpt lat="45.69952" lon="2.95353">
        <ele>993.18</ele>
        <time>2015-06-20T13:20:13Z</time>
      </trkpt>
      <trkpt lat="45.69953" lon="2.95358">
        <ele>993.66</ele>
        <time>2015-06-20T13:20:16Z</time>
      </trkpt>
      <trkpt lat="45.69954" lon="2.95359">
        <ele>994.14</ele>
        <time>2015-06-20T13:20:17Z</time>
      </trkpt>
      <trkpt lat="45.69954" lon="2.95361">
        <ele>994.14</ele>
        <time>2015-06-20T13:20:18Z</time>
      </trkpt>
      <trkpt lat="45.69955" lon="2.95363">
        <ele>994.14</ele>
        <time>2015-06-20T13:20:19Z</time>
      </trkpt>
      <trkpt lat="45.69955" lon="2.95365">
        <ele>994.62</ele>
        <time>2015-06-20T13:20:20Z</time>
      </trkpt>
      <trkpt lat="45.69953" lon="2.95369">
        <ele>995.1</ele>
        <time>2015-06-20T13:20:23Z</time>
      </trkpt>
      <trkpt lat="45.69956" lon="2.95379">
        <ele>996.06</ele>
        <time>2015-06-20T13:20:28Z</time>
      </trkpt>
      <trkpt lat="45.69958" lon="2.95381">
        <ele>996.06</ele>
        <time>2015-06-20T13:20:29Z</time>
      </trkpt>
      <trkpt lat="45.69961" lon="2.95388">
        <ele>997.02</ele>
        <time>2015-06-20T13:20:32Z</time>
      </trkpt>
      <trkpt lat="45.69962" lon="2.95392">
        <ele>997.51</ele>
        <time>2015-06-20T13:20:34Z</time>
      </trkpt>
      <trkpt lat="45.69963" lon="2.95394">
        <ele>997.51</ele>
        <time>2015-06-20T13:20:35Z</time>
      </trkpt>
      <trkpt lat="45.69964" lon="2.95396">
        <ele>997.51</ele>
        <time>2015-06-20T13:20:36Z</time>
      </trkpt>
      <trkpt lat="45.69965" lon="2.95398">
        <ele>997.51</ele>
        <time>2015-06-20T13:20:37Z</time>
      </trkpt>
      <trkpt lat="45.69966" lon="2.954">
        <ele>997.99</ele>
        <time>2015-06-20T13:20:38Z</time>
      </trkpt>
      <trkpt lat="45.69967" lon="2.95401">
        <ele>997.99</ele>
        <time>2015-06-20T13:20:39Z</time>
      </trkpt>
      <trkpt lat="45.69975" lon="2.9541">
        <ele>999.43</ele>
        <time>2015-06-20T13:20:46Z</time>
      </trkpt>
      <trkpt lat="45.69976" lon="2.9541">
        <ele>999.43</ele>
        <time>2015-06-20T13:20:47Z</time>
      </trkpt>
      <trkpt lat="45.69977" lon="2.95411">
        <ele>999.43</ele>
        <time>2015-06-20T13:20:48Z</time>
      </trkpt>
      <trkpt lat="45.69987" lon="2.95423">
        <ele>1001.35</ele>
        <time>2015-06-20T13:20:58Z</time>
      </trkpt>
      <trkpt lat="45.69994" lon="2.95431">
        <ele>1002.31</ele>
        <time>2015-06-20T13:21:03Z</time>
      </trkpt>
      <trkpt lat="45.69995" lon="2.95433">
        <ele>1002.31</ele>
        <time>2015-06-20T13:21:04Z</time>
      </trkpt>
      <trkpt lat="45.69996" lon="2.95435">
        <ele>1002.79</ele>
        <time>2015-06-20T13:21:05Z</time>
      </trkpt>
      <trkpt lat="45.69996" lon="2.95437">
        <ele>1002.79</ele>
        <time>2015-06-20T13:21:06Z</time>
      </trkpt>
      <trkpt lat="45.69997" lon="2.9544">
        <ele>1002.79</ele>
        <time>2015-06-20T13:21:07Z</time>
      </trkpt>
      <trkpt lat="45.69998" lon="2.95441">
        <ele>1003.27</ele>
        <time>2015-06-20T13:21:08Z</time>
      </trkpt>
      <trkpt lat="45.69999" lon="2.95443">
        <ele>1003.27</ele>
        <time>2015-06-20T13:21:09Z</time>
      </trkpt>
      <trkpt lat="45.7" lon="2.95445">
        <ele>1003.75</ele>
        <time>2015-06-20T13:21:10Z</time>
      </trkpt>
      <trkpt lat="45.70001" lon="2.95447">
        <ele>1003.75</ele>
        <time>2015-06-20T13:21:11Z</time>
      </trkpt>
      <trkpt lat="45.70002" lon="2.95449">
        <ele>1005.2</ele>
        <time>2015-06-20T13:21:12Z</time>
      </trkpt>
      <trkpt lat="45.70004" lon="2.95451">
        <ele>1004.72</ele>
        <time>2015-06-20T13:21:13Z</time>
      </trkpt>
      <trkpt lat="45.70005" lon="2.95454">
        <ele>1005.2</ele>
        <time>2015-06-20T13:21:14Z</time>
      </trkpt>
      <trkpt lat="45.70006" lon="2.95456">
        <ele>1005.2</ele>
        <time>2015-06-20T13:21:15Z</time>
      </trkpt>
      <trkpt lat="45.70007" lon="2.95457">
        <ele>1005.2</ele>
        <time>2015-06-20T13:21:16Z</time>
      </trkpt>
      <trkpt lat="45.70008" lon="2.95459">
        <ele>1005.2</ele>
        <time>2015-06-20T13:21:17Z</time>
      </trkpt>
      <trkpt lat="45.7001" lon="2.95461">
        <ele>1005.68</ele>
        <time>2015-06-20T13:21:18Z</time>
      </trkpt>
      <trkpt lat="45.70011" lon="2.95463">
        <ele>1005.68</ele>
        <time>2015-06-20T13:21:19Z</time>
      </trkpt>
      <trkpt lat="45.70012" lon="2.95464">
        <ele>1006.16</ele>
        <time>2015-06-20T13:21:20Z</time>
      </trkpt>
      <trkpt lat="45.70013" lon="2.95466">
        <ele>1006.16</ele>
        <time>2015-06-20T13:21:21Z</time>
      </trkpt>
      <trkpt lat="45.70013" lon="2.95468">
        <ele>1006.16</ele>
        <time>2015-06-20T13:21:22Z</time>
      </trkpt>
      <trkpt lat="45.70014" lon="2.95471">
        <ele>1006.64</ele>
        <time>2015-06-20T13:21:24Z</time>
      </trkpt>
      <trkpt lat="45.70013" lon="2.95474">
        <ele>1006.64</ele>
        <time>2015-06-20T13:21:25Z</time>
      </trkpt>
      <trkpt lat="45.70011" lon="2.9548">
        <ele>1007.12</ele>
        <time>2015-06-20T13:21:27Z</time>
      </trkpt>
      <trkpt lat="45.7001" lon="2.95483">
        <ele>1006.64</ele>
        <time>2015-06-20T13:21:28Z</time>
      </trkpt>
      <trkpt lat="45.70008" lon="2.95491">
        <ele>1006.64</ele>
        <time>2015-06-20T13:21:30Z</time>
      </trkpt>
      <trkpt lat="45.70006" lon="2.95496">
        <ele>1006.64</ele>
        <time>2015-06-20T13:21:31Z</time>
      </trkpt>
      <trkpt lat="45.70006" lon="2.955">
        <ele>1006.16</ele>
        <time>2015-06-20T13:21:32Z</time>
      </trkpt>
      <trkpt lat="45.70005" lon="2.95505">
        <ele>1006.16</ele>
        <time>2015-06-20T13:21:33Z</time>
      </trkpt>
      <trkpt lat="45.70004" lon="2.95509">
        <ele>1005.68</ele>
        <time>2015-06-20T13:21:34Z</time>
      </trkpt>
      <trkpt lat="45.70003" lon="2.95514">
        <ele>1005.68</ele>
        <time>2015-06-20T13:21:35Z</time>
      </trkpt>
      <trkpt lat="45.70003" lon="2.9552">
        <ele>1005.2</ele>
        <time>2015-06-20T13:21:36Z</time>
      </trkpt>
      <trkpt lat="45.70004" lon="2.95526">
        <ele>1004.72</ele>
        <time>2015-06-20T13:21:37Z</time>
      </trkpt>
      <trkpt lat="45.70004" lon="2.95532">
        <ele>1004.23</ele>
        <time>2015-06-20T13:21:38Z</time>
      </trkpt>
      <trkpt lat="45.70004" lon="2.95538">
        <ele>1004.23</ele>
        <time>2015-06-20T13:21:39Z</time>
      </trkpt>
      <trkpt lat="45.70004" lon="2.95544">
        <ele>1003.75</ele>
        <time>2015-06-20T13:21:40Z</time>
      </trkpt>
      <trkpt lat="45.70006" lon="2.95556">
        <ele>1003.27</ele>
        <time>2015-06-20T13:21:42Z</time>
      </trkpt>
      <trkpt lat="45.70007" lon="2.95562">
        <ele>1003.27</ele>
        <time>2015-06-20T13:21:43Z</time>
      </trkpt>
      <trkpt lat="45.70009" lon="2.95567">
        <ele>1002.79</ele>
        <time>2015-06-20T13:21:44Z</time>
      </trkpt>
      <trkpt lat="45.70011" lon="2.95573">
        <ele>1002.31</ele>
        <time>2015-06-20T13:21:45Z</time>
      </trkpt>
      <trkpt lat="45.70011" lon="2.95578">
        <ele>1001.83</ele>
        <time>2015-06-20T13:21:46Z</time>
      </trkpt>
      <trkpt lat="45.70012" lon="2.95583">
        <ele>1001.35</ele>
        <time>2015-06-20T13:21:47Z</time>
      </trkpt>
      <trkpt lat="45.70012" lon="2.95589">
        <ele>1000.87</ele>
        <time>2015-06-20T13:21:48Z</time>
      </trkpt>
      <trkpt lat="45.70011" lon="2.95596">
        <ele>1000.87</ele>
        <time>2015-06-20T13:21:49Z</time>
      </trkpt>
      <trkpt lat="45.7001" lon="2.95603">
        <ele>1000.39</ele>
        <time>2015-06-20T13:21:50Z</time>
      </trkpt>
      <trkpt lat="45.70009" lon="2.95611">
        <ele>999.91</ele>
        <time>2015-06-20T13:21:51Z</time>
      </trkpt>
      <trkpt lat="45.7001" lon="2.9562">
        <ele>999.43</ele>
        <time>2015-06-20T13:21:52Z</time>
      </trkpt>
      <trkpt lat="45.70012" lon="2.95629">
        <ele>998.95</ele>
        <time>2015-06-20T13:21:53Z</time>
      </trkpt>
      <trkpt lat="45.70022" lon="2.95672">
        <ele>997.02</ele>
        <time>2015-06-20T13:22:01Z</time>
      </trkpt>
      <trkpt lat="45.70026" lon="2.95676">
        <ele>996.54</ele>
        <time>2015-06-20T13:22:02Z</time>
      </trkpt>
      <trkpt lat="45.70041" lon="2.95688">
        <ele>995.58</ele>
        <time>2015-06-20T13:22:05Z</time>
      </trkpt>
      <trkpt lat="45.70046" lon="2.95691">
        <ele>995.58</ele>
        <time>2015-06-20T13:22:06Z</time>
      </trkpt>
      <trkpt lat="45.70052" lon="2.95693">
        <ele>995.58</ele>
        <time>2015-06-20T13:22:07Z</time>
      </trkpt>
      <trkpt lat="45.70057" lon="2.95695">
        <ele>995.1</ele>
        <time>2015-06-20T13:22:08Z</time>
      </trkpt>
      <trkpt lat="45.70063" lon="2.95696">
        <ele>995.1</ele>
        <time>2015-06-20T13:22:09Z</time>
      </trkpt>
      <trkpt lat="45.70069" lon="2.95697">
        <ele>994.62</ele>
        <time>2015-06-20T13:22:10Z</time>
      </trkpt>
      <trkpt lat="45.70075" lon="2.957">
        <ele>994.14</ele>
        <time>2015-06-20T13:22:11Z</time>
      </trkpt>
      <trkpt lat="45.70081" lon="2.95702">
        <ele>993.66</ele>
        <time>2015-06-20T13:22:12Z</time>
      </trkpt>
      <trkpt lat="45.70087" lon="2.95703">
        <ele>993.18</ele>
        <time>2015-06-20T13:22:13Z</time>
      </trkpt>
      <trkpt lat="45.70093" lon="2.95704">
        <ele>993.66</ele>
        <time>2015-06-20T13:22:14Z</time>
      </trkpt>
      <trkpt lat="45.70116" lon="2.95708">
        <ele>993.18</ele>
        <time>2015-06-20T13:22:18Z</time>
      </trkpt>
      <trkpt lat="45.70122" lon="2.9571">
        <ele>993.18</ele>
        <time>2015-06-20T13:22:19Z</time>
      </trkpt>
      <trkpt lat="45.70127" lon="2.95712">
        <ele>992.7</ele>
        <time>2015-06-20T13:22:20Z</time>
      </trkpt>
      <trkpt lat="45.70132" lon="2.95714">
        <ele>992.7</ele>
        <time>2015-06-20T13:22:21Z</time>
      </trkpt>
      <trkpt lat="45.70137" lon="2.95716">
        <ele>992.7</ele>
        <time>2015-06-20T13:22:22Z</time>
      </trkpt>
      <trkpt lat="45.70143" lon="2.95719">
        <ele>992.22</ele>
        <time>2015-06-20T13:22:23Z</time>
      </trkpt>
      <trkpt lat="45.70148" lon="2.95721">
        <ele>992.22</ele>
        <time>2015-06-20T13:22:24Z</time>
      </trkpt>
      <trkpt lat="45.70164" lon="2.95728">
        <ele>991.74</ele>
        <time>2015-06-20T13:22:27Z</time>
      </trkpt>
      <trkpt lat="45.70168" lon="2.95733">
        <ele>991.74</ele>
        <time>2015-06-20T13:22:28Z</time>
      </trkpt>
      <trkpt lat="45.70172" lon="2.9574">
        <ele>991.74</ele>
        <time>2015-06-20T13:22:29Z</time>
      </trkpt>
      <trkpt lat="45.70175" lon="2.95747">
        <ele>991.74</ele>
        <time>2015-06-20T13:22:30Z</time>
      </trkpt>
      <trkpt lat="45.70177" lon="2.95753">
        <ele>992.22</ele>
        <time>2015-06-20T13:22:31Z</time>
      </trkpt>
      <trkpt lat="45.7018" lon="2.95757">
        <ele>991.74</ele>
        <time>2015-06-20T13:22:32Z</time>
      </trkpt>
      <trkpt lat="45.70183" lon="2.95762">
        <ele>992.22</ele>
        <time>2015-06-20T13:22:33Z</time>
      </trkpt>
      <trkpt lat="45.70185" lon="2.95767">
        <ele>992.22</ele>
        <time>2015-06-20T13:22:34Z</time>
      </trkpt>
      <trkpt lat="45.70188" lon="2.95771">
        <ele>992.22</ele>
        <time>2015-06-20T13:22:35Z</time>
      </trkpt>
      <trkpt lat="45.70193" lon="2.95792">
        <ele>992.7</ele>
        <time>2015-06-20T13:22:39Z</time>
      </trkpt>
      <trkpt lat="45.70196" lon="2.95796">
        <ele>992.22</ele>
        <time>2015-06-20T13:22:40Z</time>
      </trkpt>
      <trkpt lat="45.70198" lon="2.95803">
        <ele>991.74</ele>
        <time>2015-06-20T13:22:41Z</time>
      </trkpt>
      <trkpt lat="45.70202" lon="2.9581">
        <ele>991.74</ele>
        <time>2015-06-20T13:22:42Z</time>
      </trkpt>
      <trkpt lat="45.70206" lon="2.95818">
        <ele>991.26</ele>
        <time>2015-06-20T13:22:43Z</time>
      </trkpt>
      <trkpt lat="45.7021" lon="2.95826">
        <ele>990.78</ele>
        <time>2015-06-20T13:22:44Z</time>
      </trkpt>
      <trkpt lat="45.70212" lon="2.95834">
        <ele>990.3</ele>
        <time>2015-06-20T13:22:45Z</time>
      </trkpt>
      <trkpt lat="45.70217" lon="2.95847">
        <ele>990.3</ele>
        <time>2015-06-20T13:22:47Z</time>
      </trkpt>
      <trkpt lat="45.70226" lon="2.95864">
        <ele>990.78</ele>
        <time>2015-06-20T13:22:50Z</time>
      </trkpt>
      <trkpt lat="45.70229" lon="2.95869">
        <ele>990.78</ele>
        <time>2015-06-20T13:22:51Z</time>
      </trkpt>
      <trkpt lat="45.70236" lon="2.95886">
        <ele>990.78</ele>
        <time>2015-06-20T13:22:54Z</time>
      </trkpt>
      <trkpt lat="45.70239" lon="2.95892">
        <ele>990.78</ele>
        <time>2015-06-20T13:22:55Z</time>
      </trkpt>
      <trkpt lat="45.7024" lon="2.95898">
        <ele>990.78</ele>
        <time>2015-06-20T13:22:56Z</time>
      </trkpt>
      <trkpt lat="45.7024" lon="2.95905">
        <ele>990.78</ele>
        <time>2015-06-20T13:22:57Z</time>
      </trkpt>
      <trkpt lat="45.70238" lon="2.95911">
        <ele>991.26</ele>
        <time>2015-06-20T13:22:58Z</time>
      </trkpt>
      <trkpt lat="45.70236" lon="2.95917">
        <ele>991.26</ele>
        <time>2015-06-20T13:22:59Z</time>
      </trkpt>
      <trkpt lat="45.70235" lon="2.95963">
        <ele>992.22</ele>
        <time>2015-06-20T13:23:08Z</time>
      </trkpt>
      <trkpt lat="45.70234" lon="2.95966">
        <ele>992.22</ele>
        <time>2015-06-20T13:23:09Z</time>
      </trkpt>
      <trkpt lat="45.70234" lon="2.9597">
        <ele>992.22</ele>
        <time>2015-06-20T13:23:10Z</time>
      </trkpt>
      <trkpt lat="45.70234" lon="2.95974">
        <ele>992.22</ele>
        <time>2015-06-20T13:23:11Z</time>
      </trkpt>
      <trkpt lat="45.70235" lon="2.95977">
        <ele>993.18</ele>
        <time>2015-06-20T13:23:12Z</time>
      </trkpt>
      <trkpt lat="45.70235" lon="2.95981">
        <ele>992.22</ele>
        <time>2015-06-20T13:23:13Z</time>
      </trkpt>
      <trkpt lat="45.70234" lon="2.95985">
        <ele>992.22</ele>
        <time>2015-06-20T13:23:14Z</time>
      </trkpt>
      <trkpt lat="45.70232" lon="2.95989">
        <ele>992.22</ele>
        <time>2015-06-20T13:23:15Z</time>
      </trkpt>
      <trkpt lat="45.7023" lon="2.95993">
        <ele>992.22</ele>
        <time>2015-06-20T13:23:16Z</time>
      </trkpt>
      <trkpt lat="45.70228" lon="2.95995">
        <ele>992.22</ele>
        <time>2015-06-20T13:23:17Z</time>
      </trkpt>
      <trkpt lat="45.70226" lon="2.95999">
        <ele>992.22</ele>
        <time>2015-06-20T13:23:18Z</time>
      </trkpt>
      <trkpt lat="45.70217" lon="2.96021">
        <ele>992.22</ele>
        <time>2015-06-20T13:23:24Z</time>
      </trkpt>
      <trkpt lat="45.70214" lon="2.96024">
        <ele>992.22</ele>
        <time>2015-06-20T13:23:25Z</time>
      </trkpt>
      <trkpt lat="45.70211" lon="2.96027">
        <ele>991.74</ele>
        <time>2015-06-20T13:23:26Z</time>
      </trkpt>
      <trkpt lat="45.70208" lon="2.96031">
        <ele>991.74</ele>
        <time>2015-06-20T13:23:27Z</time>
      </trkpt>
      <trkpt lat="45.70205" lon="2.96035">
        <ele>991.26</ele>
        <time>2015-06-20T13:23:28Z</time>
      </trkpt>
      <trkpt lat="45.70193" lon="2.96056">
        <ele>990.3</ele>
        <time>2015-06-20T13:23:32Z</time>
      </trkpt>
      <trkpt lat="45.70191" lon="2.96063">
        <ele>990.3</ele>
        <time>2015-06-20T13:23:33Z</time>
      </trkpt>
      <trkpt lat="45.70189" lon="2.9607">
        <ele>990.3</ele>
        <time>2015-06-20T13:23:34Z</time>
      </trkpt>
      <trkpt lat="45.70185" lon="2.96076">
        <ele>990.3</ele>
        <time>2015-06-20T13:23:35Z</time>
      </trkpt>
      <trkpt lat="45.70181" lon="2.96081">
        <ele>990.3</ele>
        <time>2015-06-20T13:23:36Z</time>
      </trkpt>
      <trkpt lat="45.70177" lon="2.96085">
        <ele>990.3</ele>
        <time>2015-06-20T13:23:37Z</time>
      </trkpt>
      <trkpt lat="45.70173" lon="2.96088">
        <ele>990.3</ele>
        <time>2015-06-20T13:23:38Z</time>
      </trkpt>
      <trkpt lat="45.7017" lon="2.96091">
        <ele>990.3</ele>
        <time>2015-06-20T13:23:39Z</time>
      </trkpt>
      <trkpt lat="45.70169" lon="2.96095">
        <ele>990.3</ele>
        <time>2015-06-20T13:23:40Z</time>
      </trkpt>
      <trkpt lat="45.70168" lon="2.96098">
        <ele>990.3</ele>
        <time>2015-06-20T13:23:41Z</time>
      </trkpt>
      <trkpt lat="45.70166" lon="2.96102">
        <ele>990.78</ele>
        <time>2015-06-20T13:23:42Z</time>
      </trkpt>
      <trkpt lat="45.70165" lon="2.96105">
        <ele>990.78</ele>
        <time>2015-06-20T13:23:43Z</time>
      </trkpt>
      <trkpt lat="45.70164" lon="2.96108">
        <ele>990.78</ele>
        <time>2015-06-20T13:23:44Z</time>
      </trkpt>
      <trkpt lat="45.70163" lon="2.96111">
        <ele>990.78</ele>
        <time>2015-06-20T13:23:45Z</time>
      </trkpt>
      <trkpt lat="45.70162" lon="2.96115">
        <ele>990.78</ele>
        <time>2015-06-20T13:23:46Z</time>
      </trkpt>
      <trkpt lat="45.7016" lon="2.96119">
        <ele>990.78</ele>
        <time>2015-06-20T13:23:47Z</time>
      </trkpt>
      <trkpt lat="45.70157" lon="2.96122">
        <ele>990.78</ele>
        <time>2015-06-20T13:23:48Z</time>
      </trkpt>
      <trkpt lat="45.70154" lon="2.96126">
        <ele>991.26</ele>
        <time>2015-06-20T13:23:49Z</time>
      </trkpt>
      <trkpt lat="45.70152" lon="2.9613">
        <ele>991.26</ele>
        <time>2015-06-20T13:23:50Z</time>
      </trkpt>
      <trkpt lat="45.70127" lon="2.96161">
        <ele>992.22</ele>
        <time>2015-06-20T13:23:57Z</time>
      </trkpt>
      <trkpt lat="45.70125" lon="2.96166">
        <ele>992.22</ele>
        <time>2015-06-20T13:23:58Z</time>
      </trkpt>
      <trkpt lat="45.70124" lon="2.9617">
        <ele>992.22</ele>
        <time>2015-06-20T13:23:59Z</time>
      </trkpt>
      <trkpt lat="45.70123" lon="2.96173">
        <ele>992.7</ele>
        <time>2015-06-20T13:24:00Z</time>
      </trkpt>
      <trkpt lat="45.70128" lon="2.96193">
        <ele>994.14</ele>
        <time>2015-06-20T13:24:09Z</time>
      </trkpt>
      <trkpt lat="45.70129" lon="2.96195">
        <ele>994.14</ele>
        <time>2015-06-20T13:24:10Z</time>
      </trkpt>
      <trkpt lat="45.70125" lon="2.96213">
        <ele>995.1</ele>
        <time>2015-06-20T13:24:14Z</time>
      </trkpt>
      <trkpt lat="45.70117" lon="2.96228">
        <ele>995.58</ele>
        <time>2015-06-20T13:24:18Z</time>
      </trkpt>
      <trkpt lat="45.70113" lon="2.9624">
        <ele>995.58</ele>
        <time>2015-06-20T13:24:21Z</time>
      </trkpt>
      <trkpt lat="45.70113" lon="2.9625">
        <ele>996.06</ele>
        <time>2015-06-20T13:24:24Z</time>
      </trkpt>
      <trkpt lat="45.70108" lon="2.96286">
        <ele>997.51</ele>
        <time>2015-06-20T13:24:33Z</time>
      </trkpt>
      <trkpt lat="45.70072" lon="2.96345">
        <ele>997.02</ele>
        <time>2015-06-20T13:24:41Z</time>
      </trkpt>
      <trkpt lat="45.70072" lon="2.96351">
        <ele>997.02</ele>
        <time>2015-06-20T13:24:42Z</time>
      </trkpt>
      <trkpt lat="45.70073" lon="2.96357">
        <ele>996.54</ele>
        <time>2015-06-20T13:24:43Z</time>
      </trkpt>
      <trkpt lat="45.70071" lon="2.96363">
        <ele>996.06</ele>
        <time>2015-06-20T13:24:44Z</time>
      </trkpt>
      <trkpt lat="45.70069" lon="2.9637">
        <ele>995.58</ele>
        <time>2015-06-20T13:24:45Z</time>
      </trkpt>
      <trkpt lat="45.70065" lon="2.96394">
        <ele>994.62</ele>
        <time>2015-06-20T13:24:48Z</time>
      </trkpt>
      <trkpt lat="45.70062" lon="2.96436">
        <ele>991.74</ele>
        <time>2015-06-20T13:24:52Z</time>
      </trkpt>
      <trkpt lat="45.70062" lon="2.96446">
        <ele>991.74</ele>
        <time>2015-06-20T13:24:53Z</time>
      </trkpt>
      <trkpt lat="45.70064" lon="2.96471">
        <ele>991.26</ele>
        <time>2015-06-20T13:24:56Z</time>
      </trkpt>
      <trkpt lat="45.70066" lon="2.96486">
        <ele>989.81</ele>
        <time>2015-06-20T13:24:58Z</time>
      </trkpt>
      <trkpt lat="45.70069" lon="2.96494">
        <ele>988.85</ele>
        <time>2015-06-20T13:24:59Z</time>
      </trkpt>
      <trkpt lat="45.70083" lon="2.96527">
        <ele>987.89</ele>
        <time>2015-06-20T13:25:04Z</time>
      </trkpt>
      <trkpt lat="45.70085" lon="2.96533">
        <ele>987.41</ele>
        <time>2015-06-20T13:25:05Z</time>
      </trkpt>
      <trkpt lat="45.70088" lon="2.96537">
        <ele>986.93</ele>
        <time>2015-06-20T13:25:06Z</time>
      </trkpt>
      <trkpt lat="45.70092" lon="2.96542">
        <ele>986.45</ele>
        <time>2015-06-20T13:25:07Z</time>
      </trkpt>
      <trkpt lat="45.70095" lon="2.96547">
        <ele>985.97</ele>
        <time>2015-06-20T13:25:08Z</time>
      </trkpt>
      <trkpt lat="45.70098" lon="2.96552">
        <ele>985.49</ele>
        <time>2015-06-20T13:25:09Z</time>
      </trkpt>
      <trkpt lat="45.70102" lon="2.96557">
        <ele>985.49</ele>
        <time>2015-06-20T13:25:10Z</time>
      </trkpt>
      <trkpt lat="45.70107" lon="2.96564">
        <ele>985.01</ele>
        <time>2015-06-20T13:25:11Z</time>
      </trkpt>
      <trkpt lat="45.70115" lon="2.96576">
        <ele>984.05</ele>
        <time>2015-06-20T13:25:13Z</time>
      </trkpt>
      <trkpt lat="45.70119" lon="2.96584">
        <ele>983.57</ele>
        <time>2015-06-20T13:25:14Z</time>
      </trkpt>
      <trkpt lat="45.70123" lon="2.96591">
        <ele>983.09</ele>
        <time>2015-06-20T13:25:15Z</time>
      </trkpt>
      <trkpt lat="45.70125" lon="2.96599">
        <ele>983.57</ele>
        <time>2015-06-20T13:25:16Z</time>
      </trkpt>
      <trkpt lat="45.70127" lon="2.96606">
        <ele>983.57</ele>
        <time>2015-06-20T13:25:17Z</time>
      </trkpt>
      <trkpt lat="45.70134" lon="2.96628">
        <ele>982.6</ele>
        <time>2015-06-20T13:25:20Z</time>
      </trkpt>
      <trkpt lat="45.70139" lon="2.96643">
        <ele>982.12</ele>
        <time>2015-06-20T13:25:22Z</time>
      </trkpt>
      <trkpt lat="45.7014" lon="2.96653">
        <ele>982.12</ele>
        <time>2015-06-20T13:25:23Z</time>
      </trkpt>
      <trkpt lat="45.70142" lon="2.96676">
        <ele>981.64</ele>
        <time>2015-06-20T13:25:26Z</time>
      </trkpt>
      <trkpt lat="45.70145" lon="2.9669">
        <ele>981.64</ele>
        <time>2015-06-20T13:25:28Z</time>
      </trkpt>
      <trkpt lat="45.7015" lon="2.96701">
        <ele>981.64</ele>
        <time>2015-06-20T13:25:30Z</time>
      </trkpt>
      <trkpt lat="45.70153" lon="2.96706">
        <ele>981.64</ele>
        <time>2015-06-20T13:25:31Z</time>
      </trkpt>
      <trkpt lat="45.70156" lon="2.96711">
        <ele>982.12</ele>
        <time>2015-06-20T13:25:32Z</time>
      </trkpt>
      <trkpt lat="45.70159" lon="2.96717">
        <ele>981.64</ele>
        <time>2015-06-20T13:25:33Z</time>
      </trkpt>
      <trkpt lat="45.70163" lon="2.96722">
        <ele>982.12</ele>
        <time>2015-06-20T13:25:34Z</time>
      </trkpt>
      <trkpt lat="45.70166" lon="2.96726">
        <ele>982.12</ele>
        <time>2015-06-20T13:25:35Z</time>
      </trkpt>
      <trkpt lat="45.7017" lon="2.9673">
        <ele>982.12</ele>
        <time>2015-06-20T13:25:36Z</time>
      </trkpt>
      <trkpt lat="45.70173" lon="2.96734">
        <ele>982.12</ele>
        <time>2015-06-20T13:25:37Z</time>
      </trkpt>
      <trkpt lat="45.70177" lon="2.96738">
        <ele>982.12</ele>
        <time>2015-06-20T13:25:38Z</time>
      </trkpt>
      <trkpt lat="45.7018" lon="2.96741">
        <ele>982.6</ele>
        <time>2015-06-20T13:25:39Z</time>
      </trkpt>
      <trkpt lat="45.70183" lon="2.96745">
        <ele>982.6</ele>
        <time>2015-06-20T13:25:40Z</time>
      </trkpt>
      <trkpt lat="45.70186" lon="2.96748">
        <ele>983.09</ele>
        <time>2015-06-20T13:25:41Z</time>
      </trkpt>
      <trkpt lat="45.7019" lon="2.96751">
        <ele>983.09</ele>
        <time>2015-06-20T13:25:42Z</time>
      </trkpt>
      <trkpt lat="45.70193" lon="2.96753">
        <ele>982.6</ele>
        <time>2015-06-20T13:25:43Z</time>
      </trkpt>
      <trkpt lat="45.70197" lon="2.96755">
        <ele>983.09</ele>
        <time>2015-06-20T13:25:44Z</time>
      </trkpt>
      <trkpt lat="45.70201" lon="2.96757">
        <ele>983.09</ele>
        <time>2015-06-20T13:25:45Z</time>
      </trkpt>
      <trkpt lat="45.7023" lon="2.96773">
        <ele>985.97</ele>
        <time>2015-06-20T13:25:56Z</time>
      </trkpt>
      <trkpt lat="45.70261" lon="2.96789">
        <ele>986.93</ele>
        <time>2015-06-20T13:26:07Z</time>
      </trkpt>
      <trkpt lat="45.7029" lon="2.96808">
        <ele>988.37</ele>
        <time>2015-06-20T13:26:17Z</time>
      </trkpt>
      <trkpt lat="45.703" lon="2.96814">
        <ele>988.37</ele>
        <time>2015-06-20T13:26:26Z</time>
      </trkpt>
      <trkpt lat="45.70301" lon="2.96814">
        <ele>988.37</ele>
        <time>2015-06-20T13:26:27Z</time>
      </trkpt>
      <trkpt lat="45.70303" lon="2.96816">
        <ele>988.37</ele>
        <time>2015-06-20T13:26:28Z</time>
      </trkpt>
      <trkpt lat="45.70323" lon="2.96834">
        <ele>988.37</ele>
        <time>2015-06-20T13:26:36Z</time>
      </trkpt>
      <trkpt lat="45.70326" lon="2.96835">
        <ele>988.37</ele>
        <time>2015-06-20T13:26:37Z</time>
      </trkpt>
      <trkpt lat="45.70328" lon="2.96836">
        <ele>988.37</ele>
        <time>2015-06-20T13:26:38Z</time>
      </trkpt>
      <trkpt lat="45.70345" lon="2.96846">
        <ele>987.89</ele>
        <time>2015-06-20T13:26:46Z</time>
      </trkpt>
      <trkpt lat="45.70349" lon="2.96848">
        <ele>987.89</ele>
        <time>2015-06-20T13:26:47Z</time>
      </trkpt>
      <trkpt lat="45.70354" lon="2.96848">
        <ele>987.41</ele>
        <time>2015-06-20T13:26:48Z</time>
      </trkpt>
      <trkpt lat="45.70365" lon="2.96851">
        <ele>986.93</ele>
        <time>2015-06-20T13:26:50Z</time>
      </trkpt>
      <trkpt lat="45.70382" lon="2.96859">
        <ele>986.93</ele>
        <time>2015-06-20T13:26:54Z</time>
      </trkpt>
      <trkpt lat="45.70388" lon="2.96861">
        <ele>985.97</ele>
        <time>2015-06-20T13:26:55Z</time>
      </trkpt>
      <trkpt lat="45.70408" lon="2.96868">
        <ele>985.49</ele>
        <time>2015-06-20T13:26:59Z</time>
      </trkpt>
      <trkpt lat="45.70413" lon="2.9687">
        <ele>985.01</ele>
        <time>2015-06-20T13:27:00Z</time>
      </trkpt>
      <trkpt lat="45.70417" lon="2.96873">
        <ele>985.01</ele>
        <time>2015-06-20T13:27:01Z</time>
      </trkpt>
      <trkpt lat="45.70427" lon="2.96883">
        <ele>984.05</ele>
        <time>2015-06-20T13:27:03Z</time>
      </trkpt>
      <trkpt lat="45.70432" lon="2.96888">
        <ele>984.05</ele>
        <time>2015-06-20T13:27:04Z</time>
      </trkpt>
      <trkpt lat="45.70463" lon="2.96913">
        <ele>981.16</ele>
        <time>2015-06-20T13:27:09Z</time>
      </trkpt>
      <trkpt lat="45.70477" lon="2.96925">
        <ele>981.16</ele>
        <time>2015-06-20T13:27:12Z</time>
      </trkpt>
      <trkpt lat="45.70482" lon="2.96929">
        <ele>979.72</ele>
        <time>2015-06-20T13:27:13Z</time>
      </trkpt>
      <trkpt lat="45.70486" lon="2.96933">
        <ele>979.24</ele>
        <time>2015-06-20T13:27:14Z</time>
      </trkpt>
      <trkpt lat="45.7049" lon="2.96937">
        <ele>979.24</ele>
        <time>2015-06-20T13:27:15Z</time>
      </trkpt>
      <trkpt lat="45.70494" lon="2.96942">
        <ele>978.76</ele>
        <time>2015-06-20T13:27:16Z</time>
      </trkpt>
      <trkpt lat="45.70519" lon="2.96966">
        <ele>976.36</ele>
        <time>2015-06-20T13:27:22Z</time>
      </trkpt>
      <trkpt lat="45.70534" lon="2.96981">
        <ele>974.91</ele>
        <time>2015-06-20T13:27:25Z</time>
      </trkpt>
      <trkpt lat="45.7055" lon="2.96997">
        <ele>973.47</ele>
        <time>2015-06-20T13:27:28Z</time>
      </trkpt>
      <trkpt lat="45.70565" lon="2.97012">
        <ele>973.47</ele>
        <time>2015-06-20T13:27:31Z</time>
      </trkpt>
      <trkpt lat="45.70569" lon="2.97016">
        <ele>972.99</ele>
        <time>2015-06-20T13:27:32Z</time>
      </trkpt>
      <trkpt lat="45.70574" lon="2.97021">
        <ele>972.99</ele>
        <time>2015-06-20T13:27:33Z</time>
      </trkpt>
      <trkpt lat="45.70593" lon="2.97042">
        <ele>969.63</ele>
        <time>2015-06-20T13:27:37Z</time>
      </trkpt>
      <trkpt lat="45.7061" lon="2.97057">
        <ele>968.67</ele>
        <time>2015-06-20T13:27:40Z</time>
      </trkpt>
      <trkpt lat="45.70622" lon="2.97064">
        <ele>968.67</ele>
        <time>2015-06-20T13:27:42Z</time>
      </trkpt>
      <trkpt lat="45.70628" lon="2.97067">
        <ele>967.7</ele>
        <time>2015-06-20T13:27:43Z</time>
      </trkpt>
      <trkpt lat="45.70634" lon="2.9707">
        <ele>967.7</ele>
        <time>2015-06-20T13:27:44Z</time>
      </trkpt>
      <trkpt lat="45.7064" lon="2.97072">
        <ele>967.7</ele>
        <time>2015-06-20T13:27:45Z</time>
      </trkpt>
      <trkpt lat="45.70646" lon="2.97073">
        <ele>967.7</ele>
        <time>2015-06-20T13:27:46Z</time>
      </trkpt>
      <trkpt lat="45.70652" lon="2.97073">
        <ele>967.7</ele>
        <time>2015-06-20T13:27:47Z</time>
      </trkpt>
      <trkpt lat="45.70659" lon="2.97073">
        <ele>967.7</ele>
        <time>2015-06-20T13:27:48Z</time>
      </trkpt>
      <trkpt lat="45.707" lon="2.9706">
        <ele>966.26</ele>
        <time>2015-06-20T13:27:54Z</time>
      </trkpt>
      <trkpt lat="45.70707" lon="2.97059">
        <ele>965.78</ele>
        <time>2015-06-20T13:27:55Z</time>
      </trkpt>
      <trkpt lat="45.70714" lon="2.97059">
        <ele>965.3</ele>
        <time>2015-06-20T13:27:56Z</time>
      </trkpt>
      <trkpt lat="45.70727" lon="2.9706">
        <ele>965.3</ele>
        <time>2015-06-20T13:27:58Z</time>
      </trkpt>
      <trkpt lat="45.70734" lon="2.97062">
        <ele>965.3</ele>
        <time>2015-06-20T13:27:59Z</time>
      </trkpt>
      <trkpt lat="45.70741" lon="2.97066">
        <ele>965.3</ele>
        <time>2015-06-20T13:28:00Z</time>
      </trkpt>
      <trkpt lat="45.70747" lon="2.9707">
        <ele>965.3</ele>
        <time>2015-06-20T13:28:01Z</time>
      </trkpt>
      <trkpt lat="45.70754" lon="2.97074">
        <ele>965.3</ele>
        <time>2015-06-20T13:28:02Z</time>
      </trkpt>
      <trkpt lat="45.70759" lon="2.9708">
        <ele>965.3</ele>
        <time>2015-06-20T13:28:03Z</time>
      </trkpt>
      <trkpt lat="45.70765" lon="2.97085">
        <ele>964.82</ele>
        <time>2015-06-20T13:28:04Z</time>
      </trkpt>
      <trkpt lat="45.70775" lon="2.97096">
        <ele>963.86</ele>
        <time>2015-06-20T13:28:06Z</time>
      </trkpt>
      <trkpt lat="45.7078" lon="2.97101">
        <ele>964.34</ele>
        <time>2015-06-20T13:28:07Z</time>
      </trkpt>
      <trkpt lat="45.70806" lon="2.97127">
        <ele>964.34</ele>
        <time>2015-06-20T13:28:12Z</time>
      </trkpt>
      <trkpt lat="45.7081" lon="2.97132">
        <ele>964.34</ele>
        <time>2015-06-20T13:28:13Z</time>
      </trkpt>
      <trkpt lat="45.70814" lon="2.97138">
        <ele>964.82</ele>
        <time>2015-06-20T13:28:14Z</time>
      </trkpt>
      <trkpt lat="45.70818" lon="2.97143">
        <ele>965.3</ele>
        <time>2015-06-20T13:28:15Z</time>
      </trkpt>
      <trkpt lat="45.70822" lon="2.97148">
        <ele>965.3</ele>
        <time>2015-06-20T13:28:16Z</time>
      </trkpt>
      <trkpt lat="45.70826" lon="2.97153">
        <ele>965.3</ele>
        <time>2015-06-20T13:28:17Z</time>
      </trkpt>
      <trkpt lat="45.70848" lon="2.9718">
        <ele>966.74</ele>
        <time>2015-06-20T13:28:23Z</time>
      </trkpt>
      <trkpt lat="45.70852" lon="2.97183">
        <ele>966.74</ele>
        <time>2015-06-20T13:28:24Z</time>
      </trkpt>
      <trkpt lat="45.70871" lon="2.97196">
        <ele>966.74</ele>
        <time>2015-06-20T13:28:29Z</time>
      </trkpt>
      <trkpt lat="45.70897" lon="2.97209">
        <ele>967.22</ele>
        <time>2015-06-20T13:28:37Z</time>
      </trkpt>
      <trkpt lat="45.70902" lon="2.97211">
        <ele>966.74</ele>
        <time>2015-06-20T13:28:38Z</time>
      </trkpt>
      <trkpt lat="45.70906" lon="2.97212">
        <ele>966.26</ele>
        <time>2015-06-20T13:28:39Z</time>
      </trkpt>
      <trkpt lat="45.70923" lon="2.97218">
        <ele>964.82</ele>
        <time>2015-06-20T13:28:42Z</time>
      </trkpt>
      <trkpt lat="45.70929" lon="2.97221">
        <ele>964.34</ele>
        <time>2015-06-20T13:28:43Z</time>
      </trkpt>
      <trkpt lat="45.70942" lon="2.97224">
        <ele>962.9</ele>
        <time>2015-06-20T13:28:45Z</time>
      </trkpt>
      <trkpt lat="45.70956" lon="2.97225">
        <ele>962.42</ele>
        <time>2015-06-20T13:28:47Z</time>
      </trkpt>
      <trkpt lat="45.71012" lon="2.97235">
        <ele>961.94</ele>
        <time>2015-06-20T13:28:55Z</time>
      </trkpt>
      <trkpt lat="45.71046" lon="2.9724">
        <ele>962.42</ele>
        <time>2015-06-20T13:29:01Z</time>
      </trkpt>
      <trkpt lat="45.71067" lon="2.97243">
        <ele>963.38</ele>
        <time>2015-06-20T13:29:06Z</time>
      </trkpt>
      <trkpt lat="45.71071" lon="2.97244">
        <ele>964.34</ele>
        <time>2015-06-20T13:29:07Z</time>
      </trkpt>
      <trkpt lat="45.711" lon="2.97243">
        <ele>966.26</ele>
        <time>2015-06-20T13:29:16Z</time>
      </trkpt>
      <trkpt lat="45.71118" lon="2.97239">
        <ele>965.3</ele>
        <time>2015-06-20T13:29:20Z</time>
      </trkpt>
      <trkpt lat="45.71125" lon="2.97238">
        <ele>965.3</ele>
        <time>2015-06-20T13:29:21Z</time>
      </trkpt>
      <trkpt lat="45.71131" lon="2.97237">
        <ele>964.82</ele>
        <time>2015-06-20T13:29:22Z</time>
      </trkpt>
      <trkpt lat="45.71149" lon="2.97233">
        <ele>964.34</ele>
        <time>2015-06-20T13:29:25Z</time>
      </trkpt>
      <trkpt lat="45.71156" lon="2.9723">
        <ele>964.34</ele>
        <time>2015-06-20T13:29:26Z</time>
      </trkpt>
      <trkpt lat="45.7118" lon="2.9722">
        <ele>963.86</ele>
        <time>2015-06-20T13:29:30Z</time>
      </trkpt>
      <trkpt lat="45.71189" lon="2.97214">
        <ele>964.82</ele>
        <time>2015-06-20T13:29:32Z</time>
      </trkpt>
      <trkpt lat="45.71192" lon="2.9721">
        <ele>964.34</ele>
        <time>2015-06-20T13:29:33Z</time>
      </trkpt>
      <trkpt lat="45.71195" lon="2.97206">
        <ele>964.34</ele>
        <time>2015-06-20T13:29:34Z</time>
      </trkpt>
      <trkpt lat="45.71197" lon="2.97202">
        <ele>964.34</ele>
        <time>2015-06-20T13:29:35Z</time>
      </trkpt>
      <trkpt lat="45.712" lon="2.97199">
        <ele>964.82</ele>
        <time>2015-06-20T13:29:36Z</time>
      </trkpt>
      <trkpt lat="45.71203" lon="2.97197">
        <ele>964.82</ele>
        <time>2015-06-20T13:29:37Z</time>
      </trkpt>
      <trkpt lat="45.71206" lon="2.97193">
        <ele>964.82</ele>
        <time>2015-06-20T13:29:38Z</time>
      </trkpt>
      <trkpt lat="45.7121" lon="2.9719">
        <ele>964.82</ele>
        <time>2015-06-20T13:29:39Z</time>
      </trkpt>
      <trkpt lat="45.71221" lon="2.97176">
        <ele>964.82</ele>
        <time>2015-06-20T13:29:43Z</time>
      </trkpt>
      <trkpt lat="45.71241" lon="2.9716">
        <ele>965.3</ele>
        <time>2015-06-20T13:29:49Z</time>
      </trkpt>
      <trkpt lat="45.71269" lon="2.97147">
        <ele>961.46</ele>
        <time>2015-06-20T13:29:58Z</time>
      </trkpt>
      <trkpt lat="45.71272" lon="2.97146">
        <ele>970.59</ele>
        <time>2015-06-20T13:29:59Z</time>
      </trkpt>
      <trkpt lat="45.71276" lon="2.97145">
        <ele>965.78</ele>
        <time>2015-06-20T13:30:00Z</time>
      </trkpt>
      <trkpt lat="45.71305" lon="2.97128">
        <ele>966.74</ele>
        <time>2015-06-20T13:30:09Z</time>
      </trkpt>
      <trkpt lat="45.71333" lon="2.97119">
        <ele>966.26</ele>
        <time>2015-06-20T13:30:18Z</time>
      </trkpt>
      <trkpt lat="45.71339" lon="2.97119">
        <ele>966.26</ele>
        <time>2015-06-20T13:30:19Z</time>
      </trkpt>
      <trkpt lat="45.71346" lon="2.97119">
        <ele>965.78</ele>
        <time>2015-06-20T13:30:20Z</time>
      </trkpt>
      <trkpt lat="45.71352" lon="2.9712">
        <ele>965.3</ele>
        <time>2015-06-20T13:30:21Z</time>
      </trkpt>
      <trkpt lat="45.71358" lon="2.97122">
        <ele>964.82</ele>
        <time>2015-06-20T13:30:22Z</time>
      </trkpt>
      <trkpt lat="45.71363" lon="2.97124">
        <ele>964.34</ele>
        <time>2015-06-20T13:30:23Z</time>
      </trkpt>
      <trkpt lat="45.7138" lon="2.97132">
        <ele>962.42</ele>
        <time>2015-06-20T13:30:26Z</time>
      </trkpt>
      <trkpt lat="45.71385" lon="2.97136">
        <ele>961.94</ele>
        <time>2015-06-20T13:30:27Z</time>
      </trkpt>
      <trkpt lat="45.71396" lon="2.97141">
        <ele>960.98</ele>
        <time>2015-06-20T13:30:29Z</time>
      </trkpt>
      <trkpt lat="45.71402" lon="2.97141">
        <ele>960.98</ele>
        <time>2015-06-20T13:30:30Z</time>
      </trkpt>
      <trkpt lat="45.7141" lon="2.97141">
        <ele>960.01</ele>
        <time>2015-06-20T13:30:31Z</time>
      </trkpt>
      <trkpt lat="45.71418" lon="2.9714">
        <ele>959.05</ele>
        <time>2015-06-20T13:30:32Z</time>
      </trkpt>
      <trkpt lat="45.71426" lon="2.97137">
        <ele>958.57</ele>
        <time>2015-06-20T13:30:33Z</time>
      </trkpt>
      <trkpt lat="45.71434" lon="2.97134">
        <ele>958.09</ele>
        <time>2015-06-20T13:30:34Z</time>
      </trkpt>
      <trkpt lat="45.71441" lon="2.9713">
        <ele>957.13</ele>
        <time>2015-06-20T13:30:35Z</time>
      </trkpt>
      <trkpt lat="45.71448" lon="2.97128">
        <ele>957.13</ele>
        <time>2015-06-20T13:30:36Z</time>
      </trkpt>
      <trkpt lat="45.71454" lon="2.97126">
        <ele>957.13</ele>
        <time>2015-06-20T13:30:37Z</time>
      </trkpt>
      <trkpt lat="45.71464" lon="2.97122">
        <ele>956.65</ele>
        <time>2015-06-20T13:30:39Z</time>
      </trkpt>
      <trkpt lat="45.71469" lon="2.9712">
        <ele>956.17</ele>
        <time>2015-06-20T13:30:40Z</time>
      </trkpt>
      <trkpt lat="45.71475" lon="2.97117">
        <ele>955.69</ele>
        <time>2015-06-20T13:30:41Z</time>
      </trkpt>
      <trkpt lat="45.71481" lon="2.97115">
        <ele>955.21</ele>
        <time>2015-06-20T13:30:42Z</time>
      </trkpt>
      <trkpt lat="45.71485" lon="2.97112">
        <ele>954.73</ele>
        <time>2015-06-20T13:30:43Z</time>
      </trkpt>
      <trkpt lat="45.7149" lon="2.97111">
        <ele>954.73</ele>
        <time>2015-06-20T13:30:44Z</time>
      </trkpt>
      <trkpt lat="45.71496" lon="2.97111">
        <ele>953.77</ele>
        <time>2015-06-20T13:30:45Z</time>
      </trkpt>
      <trkpt lat="45.71502" lon="2.97112">
        <ele>953.77</ele>
        <time>2015-06-20T13:30:46Z</time>
      </trkpt>
      <trkpt lat="45.71507" lon="2.97114">
        <ele>953.28</ele>
        <time>2015-06-20T13:30:47Z</time>
      </trkpt>
      <trkpt lat="45.71512" lon="2.97117">
        <ele>952.8</ele>
        <time>2015-06-20T13:30:48Z</time>
      </trkpt>
      <trkpt lat="45.71518" lon="2.97121">
        <ele>950.88</ele>
        <time>2015-06-20T13:30:49Z</time>
      </trkpt>
      <trkpt lat="45.71523" lon="2.97126">
        <ele>950.88</ele>
        <time>2015-06-20T13:30:50Z</time>
      </trkpt>
      <trkpt lat="45.71529" lon="2.9713">
        <ele>950.4</ele>
        <time>2015-06-20T13:30:51Z</time>
      </trkpt>
      <trkpt lat="45.71536" lon="2.97132">
        <ele>949.92</ele>
        <time>2015-06-20T13:30:52Z</time>
      </trkpt>
      <trkpt lat="45.71543" lon="2.97131">
        <ele>949.92</ele>
        <time>2015-06-20T13:30:53Z</time>
      </trkpt>
      <trkpt lat="45.71552" lon="2.97128">
        <ele>949.44</ele>
        <time>2015-06-20T13:30:54Z</time>
      </trkpt>
      <trkpt lat="45.7156" lon="2.97124">
        <ele>949.44</ele>
        <time>2015-06-20T13:30:55Z</time>
      </trkpt>
      <trkpt lat="45.71567" lon="2.97117">
        <ele>948.96</ele>
        <time>2015-06-20T13:30:56Z</time>
      </trkpt>
      <trkpt lat="45.71572" lon="2.97109">
        <ele>948.96</ele>
        <time>2015-06-20T13:30:57Z</time>
      </trkpt>
      <trkpt lat="45.71575" lon="2.97101">
        <ele>948.48</ele>
        <time>2015-06-20T13:30:58Z</time>
      </trkpt>
      <trkpt lat="45.71576" lon="2.97092">
        <ele>948.48</ele>
        <time>2015-06-20T13:30:59Z</time>
      </trkpt>
      <trkpt lat="45.71576" lon="2.97081">
        <ele>948.48</ele>
        <time>2015-06-20T13:31:00Z</time>
      </trkpt>
      <trkpt lat="45.71577" lon="2.9707">
        <ele>948</ele>
        <time>2015-06-20T13:31:01Z</time>
      </trkpt>
      <trkpt lat="45.7158" lon="2.97061">
        <ele>947.52</ele>
        <time>2015-06-20T13:31:02Z</time>
      </trkpt>
      <trkpt lat="45.71582" lon="2.9705">
        <ele>947.04</ele>
        <time>2015-06-20T13:31:03Z</time>
      </trkpt>
      <trkpt lat="45.71587" lon="2.97042">
        <ele>947.04</ele>
        <time>2015-06-20T13:31:04Z</time>
      </trkpt>
      <trkpt lat="45.71593" lon="2.97036">
        <ele>947.04</ele>
        <time>2015-06-20T13:31:05Z</time>
      </trkpt>
      <trkpt lat="45.716" lon="2.97031">
        <ele>947.04</ele>
        <time>2015-06-20T13:31:06Z</time>
      </trkpt>
      <trkpt lat="45.71606" lon="2.97027">
        <ele>946.56</ele>
        <time>2015-06-20T13:31:07Z</time>
      </trkpt>
      <trkpt lat="45.71612" lon="2.97023">
        <ele>947.04</ele>
        <time>2015-06-20T13:31:08Z</time>
      </trkpt>
      <trkpt lat="45.7162" lon="2.9702">
        <ele>947.04</ele>
        <time>2015-06-20T13:31:09Z</time>
      </trkpt>
      <trkpt lat="45.71633" lon="2.97016">
        <ele>945.59</ele>
        <time>2015-06-20T13:31:11Z</time>
      </trkpt>
      <trkpt lat="45.71639" lon="2.97014">
        <ele>945.11</ele>
        <time>2015-06-20T13:31:12Z</time>
      </trkpt>
      <trkpt lat="45.7165" lon="2.97013">
        <ele>944.63</ele>
        <time>2015-06-20T13:31:14Z</time>
      </trkpt>
      <trkpt lat="45.71656" lon="2.97013">
        <ele>945.11</ele>
        <time>2015-06-20T13:31:15Z</time>
      </trkpt>
      <trkpt lat="45.71666" lon="2.97012">
        <ele>945.59</ele>
        <time>2015-06-20T13:31:17Z</time>
      </trkpt>
      <trkpt lat="45.7167" lon="2.97011">
        <ele>946.07</ele>
        <time>2015-06-20T13:31:18Z</time>
      </trkpt>
      <trkpt lat="45.71674" lon="2.97011">
        <ele>946.07</ele>
        <time>2015-06-20T13:31:19Z</time>
      </trkpt>
      <trkpt lat="45.71679" lon="2.97011">
        <ele>946.56</ele>
        <time>2015-06-20T13:31:20Z</time>
      </trkpt>
      <trkpt lat="45.71683" lon="2.97012">
        <ele>946.07</ele>
        <time>2015-06-20T13:31:21Z</time>
      </trkpt>
      <trkpt lat="45.71687" lon="2.97011">
        <ele>946.07</ele>
        <time>2015-06-20T13:31:22Z</time>
      </trkpt>
      <trkpt lat="45.71691" lon="2.97011">
        <ele>946.07</ele>
        <time>2015-06-20T13:31:23Z</time>
      </trkpt>
      <trkpt lat="45.71699" lon="2.97008">
        <ele>946.56</ele>
        <time>2015-06-20T13:31:25Z</time>
      </trkpt>
      <trkpt lat="45.71704" lon="2.97008">
        <ele>946.56</ele>
        <time>2015-06-20T13:31:26Z</time>
      </trkpt>
      <trkpt lat="45.71712" lon="2.97009">
        <ele>946.56</ele>
        <time>2015-06-20T13:31:28Z</time>
      </trkpt>
      <trkpt lat="45.71716" lon="2.9701">
        <ele>946.07</ele>
        <time>2015-06-20T13:31:29Z</time>
      </trkpt>
      <trkpt lat="45.71729" lon="2.9701">
        <ele>946.56</ele>
        <time>2015-06-20T13:31:32Z</time>
      </trkpt>
      <trkpt lat="45.71773" lon="2.97013">
        <ele>946.07</ele>
        <time>2015-06-20T13:31:42Z</time>
      </trkpt>
      <trkpt lat="45.71777" lon="2.97013">
        <ele>946.07</ele>
        <time>2015-06-20T13:31:43Z</time>
      </trkpt>
      <trkpt lat="45.71819" lon="2.97022">
        <ele>946.07</ele>
        <time>2015-06-20T13:31:53Z</time>
      </trkpt>
      <trkpt lat="45.71839" lon="2.97027">
        <ele>946.07</ele>
        <time>2015-06-20T13:31:58Z</time>
      </trkpt>
      <trkpt lat="45.71856" lon="2.97033">
        <ele>947.52</ele>
        <time>2015-06-20T13:32:02Z</time>
      </trkpt>
      <trkpt lat="45.71862" lon="2.97035">
        <ele>947.04</ele>
        <time>2015-06-20T13:32:03Z</time>
      </trkpt>
      <trkpt lat="45.71868" lon="2.97038">
        <ele>946.56</ele>
        <time>2015-06-20T13:32:04Z</time>
      </trkpt>
      <trkpt lat="45.71903" lon="2.9705">
        <ele>948</ele>
        <time>2015-06-20T13:32:14Z</time>
      </trkpt>
      <trkpt lat="45.71932" lon="2.97056">
        <ele>948.96</ele>
        <time>2015-06-20T13:32:23Z</time>
      </trkpt>
      <trkpt lat="45.71962" lon="2.97063">
        <ele>950.4</ele>
        <time>2015-06-20T13:32:33Z</time>
      </trkpt>
      <trkpt lat="45.71991" lon="2.97072">
        <ele>952.32</ele>
        <time>2015-06-20T13:32:44Z</time>
      </trkpt>
      <trkpt lat="45.72" lon="2.97076">
        <ele>952.8</ele>
        <time>2015-06-20T13:32:48Z</time>
      </trkpt>
      <trkpt lat="45.72001" lon="2.97078">
        <ele>953.28</ele>
        <time>2015-06-20T13:32:49Z</time>
      </trkpt>
      <trkpt lat="45.72002" lon="2.9708">
        <ele>953.28</ele>
        <time>2015-06-20T13:32:50Z</time>
      </trkpt>
      <trkpt lat="45.72003" lon="2.97082">
        <ele>953.28</ele>
        <time>2015-06-20T13:32:51Z</time>
      </trkpt>
      <trkpt lat="45.72005" lon="2.97084">
        <ele>953.28</ele>
        <time>2015-06-20T13:32:52Z</time>
      </trkpt>
      <trkpt lat="45.72007" lon="2.97085">
        <ele>953.77</ele>
        <time>2015-06-20T13:32:53Z</time>
      </trkpt>
      <trkpt lat="45.72009" lon="2.97087">
        <ele>954.25</ele>
        <time>2015-06-20T13:32:54Z</time>
      </trkpt>
      <trkpt lat="45.72012" lon="2.97088">
        <ele>954.25</ele>
        <time>2015-06-20T13:32:55Z</time>
      </trkpt>
      <trkpt lat="45.72041" lon="2.97093">
        <ele>955.21</ele>
        <time>2015-06-20T13:33:05Z</time>
      </trkpt>
      <trkpt lat="45.7207" lon="2.97104">
        <ele>956.17</ele>
        <time>2015-06-20T13:33:14Z</time>
      </trkpt>
      <trkpt lat="45.72073" lon="2.97105">
        <ele>955.69</ele>
        <time>2015-06-20T13:33:15Z</time>
      </trkpt>
      <trkpt lat="45.72075" lon="2.97106">
        <ele>955.69</ele>
        <time>2015-06-20T13:33:16Z</time>
      </trkpt>
      <trkpt lat="45.72113" lon="2.97117">
        <ele>956.17</ele>
        <time>2015-06-20T13:33:30Z</time>
      </trkpt>
      <trkpt lat="45.72145" lon="2.97125">
        <ele>957.61</ele>
        <time>2015-06-20T13:33:42Z</time>
      </trkpt>
      <trkpt lat="45.72178" lon="2.97135">
        <ele>959.05</ele>
        <time>2015-06-20T13:33:54Z</time>
      </trkpt>
      <trkpt lat="45.72197" lon="2.97139">
        <ele>959.53</ele>
        <time>2015-06-20T13:34:01Z</time>
      </trkpt>
      <trkpt lat="45.7223" lon="2.97144">
        <ele>960.98</ele>
        <time>2015-06-20T13:34:13Z</time>
      </trkpt>
      <trkpt lat="45.72257" lon="2.97155">
        <ele>961.94</ele>
        <time>2015-06-20T13:34:23Z</time>
      </trkpt>
      <trkpt lat="45.72259" lon="2.97156">
        <ele>962.42</ele>
        <time>2015-06-20T13:34:24Z</time>
      </trkpt>
      <trkpt lat="45.72261" lon="2.97158">
        <ele>962.42</ele>
        <time>2015-06-20T13:34:25Z</time>
      </trkpt>
      <trkpt lat="45.72281" lon="2.97165">
        <ele>963.86</ele>
        <time>2015-06-20T13:34:35Z</time>
      </trkpt>
      <trkpt lat="45.72299" lon="2.97172">
        <ele>964.82</ele>
        <time>2015-06-20T13:34:44Z</time>
      </trkpt>
      <trkpt lat="45.72301" lon="2.97173">
        <ele>965.3</ele>
        <time>2015-06-20T13:34:45Z</time>
      </trkpt>
      <trkpt lat="45.72303" lon="2.97173">
        <ele>965.3</ele>
        <time>2015-06-20T13:34:46Z</time>
      </trkpt>
      <trkpt lat="45.72305" lon="2.97172">
        <ele>965.3</ele>
        <time>2015-06-20T13:34:47Z</time>
      </trkpt>
      <trkpt lat="45.72308" lon="2.97172">
        <ele>965.3</ele>
        <time>2015-06-20T13:34:48Z</time>
      </trkpt>
      <trkpt lat="45.7231" lon="2.97172">
        <ele>965.3</ele>
        <time>2015-06-20T13:34:49Z</time>
      </trkpt>
      <trkpt lat="45.72313" lon="2.97172">
        <ele>965.3</ele>
        <time>2015-06-20T13:34:50Z</time>
      </trkpt>
      <trkpt lat="45.72316" lon="2.97173">
        <ele>965.78</ele>
        <time>2015-06-20T13:34:51Z</time>
      </trkpt>
      <trkpt lat="45.72319" lon="2.97174">
        <ele>965.78</ele>
        <time>2015-06-20T13:34:52Z</time>
      </trkpt>
      <trkpt lat="45.72322" lon="2.97176">
        <ele>966.26</ele>
        <time>2015-06-20T13:34:53Z</time>
      </trkpt>
      <trkpt lat="45.7234" lon="2.97185">
        <ele>966.26</ele>
        <time>2015-06-20T13:35:01Z</time>
      </trkpt>
      <trkpt lat="45.7237" lon="2.97198">
        <ele>966.74</ele>
        <time>2015-06-20T13:35:09Z</time>
      </trkpt>
      <trkpt lat="45.72408" lon="2.97211">
        <ele>967.22</ele>
        <time>2015-06-20T13:35:20Z</time>
      </trkpt>
      <trkpt lat="45.72425" lon="2.97214">
        <ele>967.7</ele>
        <time>2015-06-20T13:35:25Z</time>
      </trkpt>
      <trkpt lat="45.72456" lon="2.97214">
        <ele>968.18</ele>
        <time>2015-06-20T13:35:35Z</time>
      </trkpt>
      <trkpt lat="45.72489" lon="2.97206">
        <ele>968.67</ele>
        <time>2015-06-20T13:35:45Z</time>
      </trkpt>
      <trkpt lat="45.72521" lon="2.97202">
        <ele>969.63</ele>
        <time>2015-06-20T13:35:54Z</time>
      </trkpt>
      <trkpt lat="45.72524" lon="2.97199">
        <ele>969.63</ele>
        <time>2015-06-20T13:35:55Z</time>
      </trkpt>
      <trkpt lat="45.72527" lon="2.97197">
        <ele>970.11</ele>
        <time>2015-06-20T13:35:56Z</time>
      </trkpt>
      <trkpt lat="45.72547" lon="2.97181">
        <ele>970.59</ele>
        <time>2015-06-20T13:36:04Z</time>
      </trkpt>
      <trkpt lat="45.72551" lon="2.97179">
        <ele>970.59</ele>
        <time>2015-06-20T13:36:05Z</time>
      </trkpt>
      <trkpt lat="45.72554" lon="2.97179">
        <ele>970.59</ele>
        <time>2015-06-20T13:36:06Z</time>
      </trkpt>
      <trkpt lat="45.72559" lon="2.97178">
        <ele>970.59</ele>
        <time>2015-06-20T13:36:07Z</time>
      </trkpt>
      <trkpt lat="45.72564" lon="2.97177">
        <ele>971.07</ele>
        <time>2015-06-20T13:36:08Z</time>
      </trkpt>
      <trkpt lat="45.72573" lon="2.97176">
        <ele>970.59</ele>
        <time>2015-06-20T13:36:10Z</time>
      </trkpt>
      <trkpt lat="45.72577" lon="2.97175">
        <ele>970.59</ele>
        <time>2015-06-20T13:36:11Z</time>
      </trkpt>
      <trkpt lat="45.7258" lon="2.97175">
        <ele>971.07</ele>
        <time>2015-06-20T13:36:12Z</time>
      </trkpt>
      <trkpt lat="45.72583" lon="2.97174">
        <ele>970.59</ele>
        <time>2015-06-20T13:36:13Z</time>
      </trkpt>
      <trkpt lat="45.72586" lon="2.97173">
        <ele>971.07</ele>
        <time>2015-06-20T13:36:14Z</time>
      </trkpt>
      <trkpt lat="45.72588" lon="2.97173">
        <ele>971.07</ele>
        <time>2015-06-20T13:36:15Z</time>
      </trkpt>
      <trkpt lat="45.72591" lon="2.97172">
        <ele>971.55</ele>
        <time>2015-06-20T13:36:16Z</time>
      </trkpt>
      <trkpt lat="45.72594" lon="2.97172">
        <ele>971.55</ele>
        <time>2015-06-20T13:36:17Z</time>
      </trkpt>
      <trkpt lat="45.72597" lon="2.97172">
        <ele>972.03</ele>
        <time>2015-06-20T13:36:18Z</time>
      </trkpt>
      <trkpt lat="45.726" lon="2.97172">
        <ele>972.03</ele>
        <time>2015-06-20T13:36:19Z</time>
      </trkpt>
      <trkpt lat="45.72603" lon="2.97172">
        <ele>972.51</ele>
        <time>2015-06-20T13:36:20Z</time>
      </trkpt>
      <trkpt lat="45.72605" lon="2.97172">
        <ele>972.03</ele>
        <time>2015-06-20T13:36:21Z</time>
      </trkpt>
      <trkpt lat="45.72607" lon="2.97172">
        <ele>972.51</ele>
        <time>2015-06-20T13:36:22Z</time>
      </trkpt>
      <trkpt lat="45.7261" lon="2.97172">
        <ele>972.51</ele>
        <time>2015-06-20T13:36:23Z</time>
      </trkpt>
      <trkpt lat="45.72638" lon="2.97175">
        <ele>973.47</ele>
        <time>2015-06-20T13:36:34Z</time>
      </trkpt>
      <trkpt lat="45.7264" lon="2.97175">
        <ele>973.47</ele>
        <time>2015-06-20T13:36:35Z</time>
      </trkpt>
      <trkpt lat="45.72643" lon="2.97175">
        <ele>973.95</ele>
        <time>2015-06-20T13:36:36Z</time>
      </trkpt>
      <trkpt lat="45.72646" lon="2.97175">
        <ele>973.47</ele>
        <time>2015-06-20T13:36:37Z</time>
      </trkpt>
      <trkpt lat="45.72649" lon="2.97174">
        <ele>973.47</ele>
        <time>2015-06-20T13:36:38Z</time>
      </trkpt>
      <trkpt lat="45.72652" lon="2.97173">
        <ele>973.95</ele>
        <time>2015-06-20T13:36:39Z</time>
      </trkpt>
      <trkpt lat="45.72681" lon="2.9716">
        <ele>973.95</ele>
        <time>2015-06-20T13:36:48Z</time>
      </trkpt>
      <trkpt lat="45.72712" lon="2.97143">
        <ele>974.43</ele>
        <time>2015-06-20T13:36:58Z</time>
      </trkpt>
      <trkpt lat="45.7274" lon="2.97129">
        <ele>974.91</ele>
        <time>2015-06-20T13:37:07Z</time>
      </trkpt>
      <trkpt lat="45.72768" lon="2.97108">
        <ele>975.39</ele>
        <time>2015-06-20T13:37:16Z</time>
      </trkpt>
      <trkpt lat="45.72806" lon="2.97085">
        <ele>975.39</ele>
        <time>2015-06-20T13:37:28Z</time>
      </trkpt>
      <trkpt lat="45.72849" lon="2.97084">
        <ele>975.88</ele>
        <time>2015-06-20T13:37:40Z</time>
      </trkpt>
      <trkpt lat="45.7289" lon="2.97088">
        <ele>976.36</ele>
        <time>2015-06-20T13:37:52Z</time>
      </trkpt>
      <trkpt lat="45.72931" lon="2.97093">
        <ele>977.8</ele>
        <time>2015-06-20T13:38:05Z</time>
      </trkpt>
      <trkpt lat="45.72969" lon="2.97066">
        <ele>977.32</ele>
        <time>2015-06-20T13:38:17Z</time>
      </trkpt>
      <trkpt lat="45.73001" lon="2.97033">
        <ele>976.84</ele>
        <time>2015-06-20T13:38:29Z</time>
      </trkpt>
      <trkpt lat="45.73042" lon="2.97026">
        <ele>977.32</ele>
        <time>2015-06-20T13:38:40Z</time>
      </trkpt>
      <trkpt lat="45.73089" lon="2.97043">
        <ele>978.28</ele>
        <time>2015-06-20T13:38:53Z</time>
      </trkpt>
      <trkpt lat="45.7313" lon="2.97078">
        <ele>979.24</ele>
        <time>2015-06-20T13:39:08Z</time>
      </trkpt>
      <trkpt lat="45.73169" lon="2.97106">
        <ele>979.24</ele>
        <time>2015-06-20T13:39:21Z</time>
      </trkpt>
      <trkpt lat="45.73181" lon="2.97112">
        <ele>979.24</ele>
        <time>2015-06-20T13:39:25Z</time>
      </trkpt>
      <trkpt lat="45.73184" lon="2.9711">
        <ele>979.24</ele>
        <time>2015-06-20T13:39:26Z</time>
      </trkpt>
      <trkpt lat="45.73213" lon="2.97091">
        <ele>980.2</ele>
        <time>2015-06-20T13:39:38Z</time>
      </trkpt>
      <trkpt lat="45.7322" lon="2.97088">
        <ele>981.16</ele>
        <time>2015-06-20T13:39:42Z</time>
      </trkpt>
      <trkpt lat="45.73221" lon="2.97088">
        <ele>980.68</ele>
        <time>2015-06-20T13:39:43Z</time>
      </trkpt>
      <trkpt lat="45.73223" lon="2.97088">
        <ele>980.68</ele>
        <time>2015-06-20T13:39:44Z</time>
      </trkpt>
      <trkpt lat="45.73225" lon="2.97087">
        <ele>981.16</ele>
        <time>2015-06-20T13:39:45Z</time>
      </trkpt>
      <trkpt lat="45.73226" lon="2.97086">
        <ele>981.16</ele>
        <time>2015-06-20T13:39:46Z</time>
      </trkpt>
      <trkpt lat="45.73228" lon="2.97086">
        <ele>981.16</ele>
        <time>2015-06-20T13:39:47Z</time>
      </trkpt>
      <trkpt lat="45.7323" lon="2.97086">
        <ele>981.16</ele>
        <time>2015-06-20T13:39:48Z</time>
      </trkpt>
      <trkpt lat="45.73261" lon="2.97069">
        <ele>980.68</ele>
        <time>2015-06-20T13:40:00Z</time>
      </trkpt>
      <trkpt lat="45.73295" lon="2.97022">
        <ele>982.6</ele>
        <time>2015-06-20T13:40:16Z</time>
      </trkpt>
      <trkpt lat="45.73328" lon="2.96982">
        <ele>983.09</ele>
        <time>2015-06-20T13:40:30Z</time>
      </trkpt>
      <trkpt lat="45.73369" lon="2.96945">
        <ele>984.53</ele>
        <time>2015-06-20T13:40:46Z</time>
      </trkpt>
      <trkpt lat="45.73398" lon="2.96918">
        <ele>985.49</ele>
        <time>2015-06-20T13:40:57Z</time>
      </trkpt>
      <trkpt lat="45.73435" lon="2.96874">
        <ele>986.45</ele>
        <time>2015-06-20T13:41:11Z</time>
      </trkpt>
      <trkpt lat="45.73466" lon="2.96838">
        <ele>987.89</ele>
        <time>2015-06-20T13:41:24Z</time>
      </trkpt>
      <trkpt lat="45.73495" lon="2.96796">
        <ele>988.85</ele>
        <time>2015-06-20T13:41:38Z</time>
      </trkpt>
      <trkpt lat="45.73523" lon="2.96744">
        <ele>990.78</ele>
        <time>2015-06-20T13:41:53Z</time>
      </trkpt>
      <trkpt lat="45.73548" lon="2.96707">
        <ele>991.74</ele>
        <time>2015-06-20T13:42:06Z</time>
      </trkpt>
      <trkpt lat="45.73573" lon="2.96668">
        <ele>992.22</ele>
        <time>2015-06-20T13:42:20Z</time>
      </trkpt>
      <trkpt lat="45.73608" lon="2.96628">
        <ele>993.18</ele>
        <time>2015-06-20T13:42:36Z</time>
      </trkpt>
      <trkpt lat="45.73635" lon="2.96604">
        <ele>993.66</ele>
        <time>2015-06-20T13:42:49Z</time>
      </trkpt>
      <trkpt lat="45.73663" lon="2.96564">
        <ele>994.14</ele>
        <time>2015-06-20T13:43:01Z</time>
      </trkpt>
      <trkpt lat="45.73703" lon="2.96517">
        <ele>994.62</ele>
        <time>2015-06-20T13:43:16Z</time>
      </trkpt>
      <trkpt lat="45.73727" lon="2.965">
        <ele>994.14</ele>
        <time>2015-06-20T13:43:27Z</time>
      </trkpt>
      <trkpt lat="45.73727" lon="2.96499">
        <ele>994.14</ele>
        <time>2015-06-20T13:43:38Z</time>
      </trkpt>
      <trkpt lat="45.73732" lon="2.96495">
        <ele>994.62</ele>
        <time>2015-06-20T13:43:45Z</time>
      </trkpt>
      <trkpt lat="45.73756" lon="2.96477">
        <ele>995.1</ele>
        <time>2015-06-20T13:43:56Z</time>
      </trkpt>
      <trkpt lat="45.73784" lon="2.9646">
        <ele>995.1</ele>
        <time>2015-06-20T13:44:07Z</time>
      </trkpt>
      <trkpt lat="45.73819" lon="2.9644">
        <ele>996.06</ele>
        <time>2015-06-20T13:44:21Z</time>
      </trkpt>
      <trkpt lat="45.73841" lon="2.96421">
        <ele>995.58</ele>
        <time>2015-06-20T13:44:31Z</time>
      </trkpt>
      <trkpt lat="45.73866" lon="2.96389">
        <ele>995.58</ele>
        <time>2015-06-20T13:44:41Z</time>
      </trkpt>
      <trkpt lat="45.73873" lon="2.9638">
        <ele>995.58</ele>
        <time>2015-06-20T13:44:45Z</time>
      </trkpt>
      <trkpt lat="45.73878" lon="2.9639">
        <ele>995.1</ele>
        <time>2015-06-20T13:44:49Z</time>
      </trkpt>
      <trkpt lat="45.73905" lon="2.96431">
        <ele>992.7</ele>
        <time>2015-06-20T13:44:58Z</time>
      </trkpt>
      <trkpt lat="45.73915" lon="2.96445">
        <ele>992.22</ele>
        <time>2015-06-20T13:45:01Z</time>
      </trkpt>
      <trkpt lat="45.73917" lon="2.96451">
        <ele>991.74</ele>
        <time>2015-06-20T13:45:02Z</time>
      </trkpt>
      <trkpt lat="45.73925" lon="2.96473">
        <ele>990.78</ele>
        <time>2015-06-20T13:45:06Z</time>
      </trkpt>
      <trkpt lat="45.73928" lon="2.96478">
        <ele>990.78</ele>
        <time>2015-06-20T13:45:07Z</time>
      </trkpt>
      <trkpt lat="45.7393" lon="2.96483">
        <ele>990.78</ele>
        <time>2015-06-20T13:45:08Z</time>
      </trkpt>
      <trkpt lat="45.73945" lon="2.96535">
        <ele>987.89</ele>
        <time>2015-06-20T13:45:15Z</time>
      </trkpt>
      <trkpt lat="45.73949" lon="2.96543">
        <ele>987.41</ele>
        <time>2015-06-20T13:45:16Z</time>
      </trkpt>
      <trkpt lat="45.73965" lon="2.96581">
        <ele>984.05</ele>
        <time>2015-06-20T13:45:21Z</time>
      </trkpt>
      <trkpt lat="45.7397" lon="2.96588">
        <ele>983.57</ele>
        <time>2015-06-20T13:45:22Z</time>
      </trkpt>
      <trkpt lat="45.73975" lon="2.96593">
        <ele>983.57</ele>
        <time>2015-06-20T13:45:23Z</time>
      </trkpt>
      <trkpt lat="45.7398" lon="2.96598">
        <ele>983.57</ele>
        <time>2015-06-20T13:45:24Z</time>
      </trkpt>
      <trkpt lat="45.73986" lon="2.96603">
        <ele>982.6</ele>
        <time>2015-06-20T13:45:25Z</time>
      </trkpt>
      <trkpt lat="45.74005" lon="2.96615">
        <ele>980.68</ele>
        <time>2015-06-20T13:45:28Z</time>
      </trkpt>
      <trkpt lat="45.74019" lon="2.96623">
        <ele>979.72</ele>
        <time>2015-06-20T13:45:31Z</time>
      </trkpt>
      <trkpt lat="45.74023" lon="2.96629">
        <ele>979.72</ele>
        <time>2015-06-20T13:45:33Z</time>
      </trkpt>
      <trkpt lat="45.74023" lon="2.96632">
        <ele>979.72</ele>
        <time>2015-06-20T13:45:34Z</time>
      </trkpt>
      <trkpt lat="45.74023" lon="2.96634">
        <ele>979.72</ele>
        <time>2015-06-20T13:45:35Z</time>
      </trkpt>
      <trkpt lat="45.74021" lon="2.96636">
        <ele>979.72</ele>
        <time>2015-06-20T13:45:36Z</time>
      </trkpt>
      <trkpt lat="45.7402" lon="2.96637">
        <ele>979.72</ele>
        <time>2015-06-20T13:45:45Z</time>
      </trkpt>
      <trkpt lat="45.74019" lon="2.96636">
        <ele>980.2</ele>
        <time>2015-06-20T13:46:01Z</time>
      </trkpt>
      <trkpt lat="45.74019" lon="2.96636">
        <ele>975.88</ele>
        <time>2015-06-20T13:46:12Z</time>
      </trkpt>
      <trkpt lat="45.74019" lon="2.96636">
        <ele>981.16</ele>
        <time>2015-06-20T13:46:13Z</time>
      </trkpt>
      <trkpt lat="45.74017" lon="2.96637">
        <ele>979.72</ele>
        <time>2015-06-20T13:46:17Z</time>
      </trkpt>
      <trkpt lat="45.74015" lon="2.96635">
        <ele>978.76</ele>
        <time>2015-06-20T13:46:49Z</time>
      </trkpt>
      <trkpt lat="45.74014" lon="2.96634">
        <ele>978.76</ele>
        <time>2015-06-20T13:47:24Z</time>
      </trkpt>
      <trkpt lat="45.74015" lon="2.96634">
        <ele>979.24</ele>
        <time>2015-06-20T13:48:01Z</time>
      </trkpt>
      <trkpt lat="45.74015" lon="2.96634">
        <ele>979.24</ele>
        <time>2015-06-20T13:48:35Z</time>
      </trkpt>
      <trkpt lat="45.74015" lon="2.96634">
        <ele>979.72</ele>
        <time>2015-06-20T13:49:08Z</time>
      </trkpt>
      <trkpt lat="45.74016" lon="2.96634">
        <ele>979.72</ele>
        <time>2015-06-20T13:49:44Z</time>
      </trkpt>
      <trkpt lat="45.74017" lon="2.96634">
        <ele>979.24</ele>
        <time>2015-06-20T13:50:18Z</time>
      </trkpt>
      <trkpt lat="45.74017" lon="2.96634">
        <ele>978.76</ele>
        <time>2015-06-20T13:50:52Z</time>
      </trkpt>
      <trkpt lat="45.74018" lon="2.96635">
        <ele>979.24</ele>
        <time>2015-06-20T13:51:33Z</time>
      </trkpt>
      <trkpt lat="45.74018" lon="2.96635">
        <ele>976.84</ele>
        <time>2015-06-20T13:52:07Z</time>
      </trkpt>
      <trkpt lat="45.74018" lon="2.96635">
        <ele>984.05</ele>
        <time>2015-06-20T13:52:08Z</time>
      </trkpt>
      <trkpt lat="45.74018" lon="2.96635">
        <ele>975.39</ele>
        <time>2015-06-20T13:52:09Z</time>
      </trkpt>
      <trkpt lat="45.74018" lon="2.96635">
        <ele>982.12</ele>
        <time>2015-06-20T13:52:10Z</time>
      </trkpt>
      <trkpt lat="45.74018" lon="2.96635">
        <ele>976.84</ele>
        <time>2015-06-20T13:52:11Z</time>
      </trkpt>
      <trkpt lat="45.74018" lon="2.96635">
        <ele>981.16</ele>
        <time>2015-06-20T13:52:12Z</time>
      </trkpt>
      <trkpt lat="45.74018" lon="2.96635">
        <ele>977.8</ele>
        <time>2015-06-20T13:52:13Z</time>
      </trkpt>
      <trkpt lat="45.74018" lon="2.96635">
        <ele>981.16</ele>
        <time>2015-06-20T13:52:29Z</time>
      </trkpt>
      <trkpt lat="45.74017" lon="2.96638">
        <ele>979.72</ele>
        <time>2015-06-20T13:52:39Z</time>
      </trkpt>
      <trkpt lat="45.74017" lon="2.96638">
        <ele>979.24</ele>
        <time>2015-06-20T13:52:53Z</time>
      </trkpt>
      <trkpt lat="45.74017" lon="2.96637">
        <ele>980.2</ele>
        <time>2015-06-20T13:53:15Z</time>
      </trkpt>
      <trkpt lat="45.74017" lon="2.96637">
        <ele>979.72</ele>
        <time>2015-06-20T13:53:41Z</time>
      </trkpt>
      <trkpt lat="45.74016" lon="2.96637">
        <ele>980.2</ele>
        <time>2015-06-20T13:54:12Z</time>
      </trkpt>
      <trkpt lat="45.74015" lon="2.96638">
        <ele>980.2</ele>
        <time>2015-06-20T13:54:43Z</time>
      </trkpt>
    </trkseg>
  </trk>
</gpx>